Darstellungsparameter: Aktuell verwendete Einstellungen:
Skalierung der Graphiken ... ?
xyx+y,   Skalierungsfaktor:      Skalierung: Modus: x, Faktor: 1
Darstellungszeitraum ... ?
Vom - - bis: - -   Zeitraum: 17.11.2010 - 16.11.2020
Min/Max/Avg-Anzeige ... ?
Zeige MMA aktuell
Zeige MMA Monat
Zeige MMA alles
Zeige --A aktuell
Zeige --A Monat
Zeige --A alles
Keine MMA-Anzeige
MMA:
Average (ber die Originaldaten)
MMA-Basis: 17.11.2010 - 16.11.2020
Quicknavigation für Darstellung... ?
Tage:      1T, 2T, 3T, 5T -1T -2T -3T -5T +1T +2T +3T +5T
Wochen: 1W, 2W, 3W -1W -2W -3W +1W +2W +3W
Monate: 1M, 3M, 6M -1M -3M -6M +1M +3M +6M
Jahre:    1J, 3J, 5J, 10J -1J -3J -5J -10J +1J +3J +5J +10J
Nutze für die Darstellung ... ?
Originaldaten oder Mittelwerte auf ...
Stundenbasis Tagesbasis Wochenbasis
Monatsbasis Jahresbasis      Datenbasis: Original-Daten
Darstellen als:
Statistik (Auto) Statistik J:M      Darstellung:
Zur Graphik,    zurück zur Übersicht aller Sensoren.
 
Tabellarische Datenbersicht: ?
 
Sensor: Nr:Datum:Temp:Abs-Feuchte:Windchill:Wind:
Aussen-T/F 1 17-11-2010 00:05:04 4.7 C 5.73 g/m*3 4.7 C 0 km/h
2 17-11-2010 00:17:04 4.7 C 5.73 g/m*3 4.7 C 0 km/h
3 17-11-2010 00:29:04 4.7 C 5.73 g/m*3 4.7 C 0 km/h
4 17-11-2010 00:41:04 4.8 C 5.7 g/m*3 4.8 C 0 km/h
5 17-11-2010 00:53:04 5 C 5.71 g/m*3 5 C 0 km/h
6 17-11-2010 01:05:05 5.1 C 5.68 g/m*3 5.1 C 0 km/h
7 17-11-2010 01:17:05 5 C 5.57 g/m*3 5 C 0 km/h
8 17-11-2010 01:29:05 5 C 5.57 g/m*3 5 C 0 km/h
9 17-11-2010 01:41:05 5.1 C 5.61 g/m*3 5.1 C 0 km/h
10 17-11-2010 01:53:05 5.2 C 5.65 g/m*3 5.2 C 0 km/h
11 17-11-2010 02:05:05 5.1 C 5.61 g/m*3 5.1 C 0 km/h
12 17-11-2010 02:17:05 5 C 5.57 g/m*3 5 C 0 km/h
13 17-11-2010 02:29:05 5 C 5.57 g/m*3 5 C 0 km/h
14 17-11-2010 02:41:05 5 C 5.57 g/m*3 5 C 0 km/h
15 17-11-2010 02:53:05 4.9 C 5.6 g/m*3 4.9 C 0 km/h
16 17-11-2010 03:05:05 5 C 5.64 g/m*3 5 C 0 km/h
17 17-11-2010 03:17:05 4.9 C 5.67 g/m*3 4.9 C 0 km/h
18 17-11-2010 03:29:05 4.9 C 5.67 g/m*3 4.9 C 0 km/h
19 17-11-2010 03:41:05 4.9 C 5.67 g/m*3 4.9 C 0 km/h
20 17-11-2010 03:53:05 4.9 C 5.67 g/m*3 4.9 C 0 km/h
21 17-11-2010 04:05:05 4.9 C 5.67 g/m*3 4.9 C 0 km/h
22 17-11-2010 04:17:05 4.8 C 5.63 g/m*3 4.8 C 0 km/h
23 17-11-2010 04:29:05 4.8 C 5.63 g/m*3 4.8 C 0 km/h
24 17-11-2010 04:41:05 4.7 C 5.6 g/m*3 4.7 C 0 km/h
25 17-11-2010 04:53:05 4.8 C 5.7 g/m*3 4.8 C 0 km/h
Sensor: Nr:Datum:Temp:Abs-Feuchte:Windchill:Wind:
Aussen-T/F 26 17-11-2010 05:05:06 4.7 C 5.66 g/m*3 4.7 C 0 km/h
27 17-11-2010 05:17:06 4.7 C 5.66 g/m*3 4.7 C 0 km/h
28 17-11-2010 05:29:06 4.8 C 5.77 g/m*3 4.8 C 0 km/h
29 17-11-2010 05:41:06 4.8 C 5.77 g/m*3 4.8 C 0 km/h
30 17-11-2010 05:53:06 4.7 C 5.73 g/m*3 4.7 C 0 km/h
31 17-11-2010 06:05:06 4.7 C 5.73 g/m*3 4.7 C 0 km/h
32 17-11-2010 06:17:06 4.7 C 5.73 g/m*3 4.7 C 0 km/h
33 17-11-2010 06:29:06 4.7 C 5.73 g/m*3 4.7 C 0 km/h
34 17-11-2010 06:41:06 4.7 C 5.73 g/m*3 4.7 C 0 km/h
35 17-11-2010 06:53:02 4.7 C 5.73 g/m*3 4.7 C 0 km/h
36 17-11-2010 07:05:02 4.7 C 5.73 g/m*3 4.7 C 0 km/h
37 17-11-2010 07:17:02 4.7 C 5.73 g/m*3 4.7 C 0 km/h
38 17-11-2010 07:29:02 4.7 C 5.73 g/m*3 4.7 C 0 km/h
39 17-11-2010 07:41:01 4.7 C 5.66 g/m*3 4.7 C 0 km/h
40 17-11-2010 07:53:02 4.8 C 5.5 g/m*3 4.8 C 0 km/h
41 17-11-2010 08:05:01 4.9 C 5.27 g/m*3 4.9 C 0 km/h
42 17-11-2010 08:17:01 4.9 C 5.13 g/m*3 4.9 C 0 km/h
43 17-11-2010 08:29:01 5.1 C 4.92 g/m*3 5.1 C 0 km/h
44 17-11-2010 08:41:02 5.2 C 4.89 g/m*3 5.2 C 0 km/h
45 17-11-2010 08:53:02 5.4 C 4.67 g/m*3 5.4 C 0 km/h
46 17-11-2010 09:05:02 5.5 C 4.64 g/m*3 5.5 C 0 km/h
47 17-11-2010 09:17:02 5.4 C 4.67 g/m*3 5.4 C 0 km/h
48 17-11-2010 09:29:02 5.6 C 4.67 g/m*3 5.6 C 0 km/h
49 17-11-2010 09:41:02 5.6 C 4.6 g/m*3 5.6 C 0 km/h
50 17-11-2010 09:53:02 5.7 C 4.63 g/m*3 5.7 C 0 km/h
Sensor: Nr:Datum:Temp:Abs-Feuchte:Windchill:Wind:
Aussen-T/F 51 17-11-2010 10:05:02 5.7 C 4.7 g/m*3 5.7 C 0 km/h
52 17-11-2010 10:17:02 5.7 C 4.63 g/m*3 5.7 C 0 km/h
53 17-11-2010 10:29:02 5.8 C 4.66 g/m*3 5.8 C 0 km/h
54 17-11-2010 10:41:02 5.8 C 4.66 g/m*3 5.8 C 0 km/h
55 17-11-2010 10:53:02 5.9 C 4.69 g/m*3 5.9 C 0 km/h
56 17-11-2010 11:05:02 6 C 4.57 g/m*3 6 C 0 km/h
57 17-11-2010 11:17:03 6 C 4.57 g/m*3 6 C 0 km/h
58 17-11-2010 11:29:03 5.9 C 4.61 g/m*3 5.9 C 0 km/h
59 17-11-2010 11:41:02 6.1 C 4.6 g/m*3 6.1 C 0 km/h
60 17-11-2010 11:53:02 6.2 C 4.63 g/m*3 6.2 C 0 km/h
61 17-11-2010 12:05:02 6.4 C 4.62 g/m*3 6.4 C 0 km/h
62 17-11-2010 12:17:02 6.3 C 4.52 g/m*3 6.3 C 0 km/h
63 17-11-2010 12:29:02 6.1 C 4.6 g/m*3 6.1 C 0 km/h
64 17-11-2010 12:41:02 6.3 C 4.66 g/m*3 6.3 C 0 km/h
65 17-11-2010 12:53:02 6.3 C 4.59 g/m*3 6.3 C 0 km/h
66 17-11-2010 13:05:02 6.3 C 4.66 g/m*3 6.3 C 0 km/h
67 17-11-2010 13:17:02 6.7 C 4.71 g/m*3 6.7 C 0 km/h
68 17-11-2010 13:29:02 6.7 C 4.64 g/m*3 6.7 C 0 km/h
69 17-11-2010 13:41:01 6.5 C 4.57 g/m*3 6.5 C 0 km/h
70 17-11-2010 13:53:02 6.5 C 4.57 g/m*3 6.5 C 0 km/h
71 17-11-2010 14:05:01 6.4 C 4.62 g/m*3 6.4 C 0 km/h
72 17-11-2010 14:17:01 6.3 C 4.59 g/m*3 6.3 C 0 km/h
73 17-11-2010 14:29:01 6.1 C 4.46 g/m*3 6.1 C 0 km/h
74 17-11-2010 14:41:02 6.1 C 4.53 g/m*3 6.1 C 0 km/h
75 17-11-2010 14:53:02 6 C 4.57 g/m*3 6 C 0 km/h
Sensor: Nr:Datum:Temp:Abs-Feuchte:Windchill:Wind:
Aussen-T/F 76 17-11-2010 15:05:02 5.9 C 4.54 g/m*3 5.9 C 0 km/h
77 17-11-2010 15:17:02 5.9 C 4.61 g/m*3 5.9 C 0 km/h
78 17-11-2010 15:29:02 5.9 C 4.69 g/m*3 5.9 C 0 km/h
79 17-11-2010 15:41:02 5.8 C 4.73 g/m*3 5.8 C 0 km/h
80 17-11-2010 15:53:02 5.8 C 4.8 g/m*3 5.8 C 0 km/h
81 17-11-2010 16:05:02 5.7 C 4.77 g/m*3 5.7 C 0 km/h
82 17-11-2010 16:17:02 5.6 C 4.81 g/m*3 5.6 C 0 km/h
83 17-11-2010 16:29:02 5.5 C 4.78 g/m*3 5.5 C 0 km/h
84 17-11-2010 16:41:02 5.5 C 4.85 g/m*3 5.5 C 0 km/h
85 17-11-2010 16:53:01 5.4 C 4.81 g/m*3 5.4 C 0 km/h
86 17-11-2010 17:05:01 5.4 C 4.88 g/m*3 5.4 C 0 km/h
87 17-11-2010 17:17:02 5.3 C 4.85 g/m*3 5.3 C 0 km/h
88 17-11-2010 17:29:02 5.2 C 4.89 g/m*3 5.2 C 0 km/h
89 17-11-2010 17:41:01 5.2 C 4.96 g/m*3 5.2 C 0 km/h
90 17-11-2010 17:53:02 5.2 C 4.96 g/m*3 5.2 C 0 km/h
91 17-11-2010 18:05:02 5.2 C 4.96 g/m*3 5.2 C 0 km/h
92 17-11-2010 18:17:03 5.2 C 4.96 g/m*3 5.2 C 0 km/h
93 17-11-2010 18:29:03 5.2 C 5.03 g/m*3 5.2 C 0 km/h
94 17-11-2010 18:41:02 5.2 C 4.96 g/m*3 5.2 C 0 km/h
95 17-11-2010 18:53:01 5.2 C 4.96 g/m*3 5.2 C 0 km/h
96 17-11-2010 19:05:01 5.3 C 4.99 g/m*3 5.3 C 0 km/h
97 17-11-2010 19:17:02 5.3 C 4.99 g/m*3 5.3 C 0 km/h
98 17-11-2010 19:29:02 5.3 C 4.99 g/m*3 5.3 C 0 km/h
99 17-11-2010 19:41:01 5.3 C 4.99 g/m*3 5.3 C 0 km/h
100 17-11-2010 19:53:01 5.3 C 4.99 g/m*3 5.3 C 0 km/h
Sensor: Nr:Datum:Temp:Abs-Feuchte:Windchill:Wind:
Aussen-T/F 101 17-11-2010 20:05:01 5.3 C 5.06 g/m*3 5.3 C 0 km/h
102 17-11-2010 20:17:02 5.3 C 5.13 g/m*3 5.3 C 0 km/h
103 17-11-2010 20:29:02 5.3 C 5.13 g/m*3 5.3 C 0 km/h
104 17-11-2010 20:41:56 5.3 C 5.13 g/m*3 5.3 C 0 km/h
105 17-11-2010 20:53:56 5.3 C 5.13 g/m*3 5.3 C 0 km/h
106 17-11-2010 21:05:56 5.3 C 5.2 g/m*3 5.3 C 0 km/h
107 17-11-2010 21:17:02 5.3 C 5.13 g/m*3 5.3 C 0 km/h
108 17-11-2010 21:29:02 5.3 C 5.2 g/m*3 5.3 C 0 km/h
109 17-11-2010 21:41:02 5.2 C 5.23 g/m*3 5.2 C 0 km/h
110 17-11-2010 21:53:01 5.2 C 5.3 g/m*3 5.2 C 0 km/h
111 17-11-2010 22:05:01 5.2 C 5.3 g/m*3 5.2 C 0 km/h
112 17-11-2010 22:17:02 5.1 C 5.27 g/m*3 5.1 C 0 km/h
113 17-11-2010 22:29:02 5.1 C 5.34 g/m*3 5.1 C 0 km/h
114 17-11-2010 22:42:03 5 C 5.37 g/m*3 5 C 0 km/h
115 17-11-2010 22:54:03 4.8 C 5.43 g/m*3 4.8 C 0 km/h
116 17-11-2010 23:06:03 4.6 C 5.49 g/m*3 4.6 C 0 km/h
117 17-11-2010 23:18:03 4.5 C 5.52 g/m*3 4.5 C 0 km/h
118 17-11-2010 23:30:03 4.5 C 5.59 g/m*3 4.5 C 0 km/h
119 17-11-2010 23:42:03 4.5 C 5.65 g/m*3 4.5 C 0 km/h
120 17-11-2010 23:54:03 4.5 C 5.65 g/m*3 4.5 C 0 km/h
121 18-11-2010 00:06:03 4.6 C 5.76 g/m*3 4.6 C 0 km/h
122 18-11-2010 00:18:03 4.7 C 5.8 g/m*3 4.7 C 0 km/h
123 18-11-2010 00:30:03 4.6 C 5.76 g/m*3 4.6 C 0 km/h
124 18-11-2010 00:42:03 4.5 C 5.72 g/m*3 4.5 C 0 km/h
125 18-11-2010 00:54:03 4.4 C 5.68 g/m*3 4.4 C 0 km/h
Sensor: Nr:Datum:Temp:Abs-Feuchte:Windchill:Wind:
Aussen-T/F 126 18-11-2010 01:06:03 4.3 C 5.71 g/m*3 4.3 C 0 km/h
127 18-11-2010 01:18:04 4.3 C 5.71 g/m*3 4.3 C 0 km/h
128 18-11-2010 01:30:04 4.3 C 5.71 g/m*3 4.3 C 0 km/h
129 18-11-2010 01:42:04 4.3 C 5.71 g/m*3 4.3 C 0 km/h
130 18-11-2010 01:54:04 4.2 C 5.73 g/m*3 4.2 C 0 km/h
131 18-11-2010 02:06:04 4.2 C 5.73 g/m*3 4.2 C 0 km/h
132 18-11-2010 02:18:04 4.3 C 5.77 g/m*3 4.3 C 0 km/h
133 18-11-2010 02:30:04 4.5 C 5.85 g/m*3 4.5 C 0 km/h
134 18-11-2010 02:42:04 4.4 C 5.81 g/m*3 4.4 C 0 km/h
135 18-11-2010 02:54:04 4 C 5.66 g/m*3 4 C 0 km/h
136 18-11-2010 03:06:04 3.9 C 5.68 g/m*3 3.9 C 0 km/h
137 18-11-2010 03:18:04 4 C 5.72 g/m*3 4 C 0 km/h
138 18-11-2010 03:30:04 4 C 5.72 g/m*3 4 C 0 km/h
139 18-11-2010 03:42:04 4.2 C 5.8 g/m*3 4.2 C 0 km/h
140 18-11-2010 03:54:04 4.2 C 5.8 g/m*3 4.2 C 0 km/h
141 18-11-2010 04:06:04 4.2 C 5.8 g/m*3 4.2 C 0 km/h
142 18-11-2010 04:18:04 4.3 C 5.9 g/m*3 4.3 C 0 km/h
143 18-11-2010 04:30:04 4.3 C 5.9 g/m*3 4.3 C 0 km/h
144 18-11-2010 04:42:04 4.3 C 5.9 g/m*3 4.3 C 0 km/h
145 18-11-2010 04:54:04 4.3 C 5.9 g/m*3 4.3 C 0 km/h
146 18-11-2010 05:06:04 4.3 C 5.9 g/m*3 4.3 C 0 km/h
147 18-11-2010 05:18:05 4.4 C 5.94 g/m*3 4.4 C 0 km/h
148 18-11-2010 05:30:05 4.3 C 5.9 g/m*3 4.3 C 0 km/h
149 18-11-2010 05:42:05 4.2 C 5.86 g/m*3 4.2 C 0 km/h
150 18-11-2010 05:54:05 4.2 C 5.86 g/m*3 4.2 C 0 km/h
Sensor: Nr:Datum:Temp:Abs-Feuchte:Windchill:Wind:
Aussen-T/F 151 18-11-2010 06:06:05 4.2 C 5.86 g/m*3 4.2 C 0 km/h
152 18-11-2010 06:18:05 3.9 C 5.81 g/m*3 3.9 C 0 km/h
153 18-11-2010 06:30:05 3.9 C 5.81 g/m*3 3.9 C 0 km/h
154 18-11-2010 06:42:05 3.8 C 5.77 g/m*3 3.8 C 0 km/h
155 18-11-2010 06:54:05 3.8 C 5.77 g/m*3 3.8 C 0 km/h
156 18-11-2010 07:06:05 3.8 C 5.77 g/m*3 3.8 C 0 km/h
157 18-11-2010 07:18:03 3.9 C 5.81 g/m*3 3.9 C 0 km/h
158 18-11-2010 07:30:03 4 C 5.85 g/m*3 4 C 0 km/h
159 18-11-2010 07:42:03 4 C 5.85 g/m*3 4 C 0 km/h
160 18-11-2010 07:54:02 4.2 C 5.93 g/m*3 4.2 C 0 km/h
161 18-11-2010 08:06:02 4.1 C 5.89 g/m*3 4.1 C 0 km/h
162 18-11-2010 08:18:01 4.2 C 5.93 g/m*3 4.2 C 0 km/h
163 18-11-2010 08:30:01 4.2 C 5.93 g/m*3 4.2 C 0 km/h
164 18-11-2010 08:42:02 4.2 C 5.93 g/m*3 4.2 C 0 km/h
165 18-11-2010 08:54:01 4.4 C 6.01 g/m*3 4.4 C 0 km/h
166 18-11-2010 09:06:02 4.5 C 6.05 g/m*3 4.5 C 0 km/h
167 18-11-2010 09:18:01 4.8 C 6.17 g/m*3 4.8 C 0 km/h
168 18-11-2010 09:30:01 4.8 C 6.17 g/m*3 4.8 C 0 km/h
169 18-11-2010 09:42:02 5.2 C 6.27 g/m*3 5.2 C 0 km/h
170 18-11-2010 09:54:01 5.4 C 6.35 g/m*3 5.4 C 0 km/h
171 18-11-2010 10:06:02 5.4 C 6.28 g/m*3 5.4 C 0 km/h
172 18-11-2010 10:18:02 5.8 C 6.38 g/m*3 5.8 C 0 km/h
173 18-11-2010 10:30:02 6 C 6.24 g/m*3 6 C 0 km/h
174 18-11-2010 10:42:01 6.1 C 6.14 g/m*3 6.1 C 0 km/h
175 18-11-2010 10:54:02 6.5 C 6.15 g/m*3 6.5 C 0 km/h
Sensor: Nr:Datum:Temp:Abs-Feuchte:Windchill:Wind:
Aussen-T/F 176 18-11-2010 11:06:01 6.5 C 6.07 g/m*3 6.5 C 0 km/h
177 18-11-2010 11:18:01 6.6 C 5.96 g/m*3 6.6 C 0 km/h
178 18-11-2010 11:30:02 6.8 C 5.97 g/m*3 6.8 C 0 km/h
179 18-11-2010 11:42:01 7.2 C 6.04 g/m*3 7.2 C 0 km/h
180 18-11-2010 11:54:02 7.4 C 6.04 g/m*3 7.4 C 0 km/h
181 18-11-2010 12:06:01 7.4 C 6.04 g/m*3 7.4 C 0 km/h
182 18-11-2010 12:18:02 7.6 C 6.04 g/m*3 7.6 C 0 km/h
183 18-11-2010 12:30:02 7.6 C 5.96 g/m*3 7.6 C 0 km/h
184 18-11-2010 12:42:02 7.4 C 5.73 g/m*3 7.4 C 0 km/h
185 18-11-2010 12:54:01 7.7 C 5.84 g/m*3 7.7 C 0 km/h
186 18-11-2010 13:06:01 8 C 5.7 g/m*3 8 C 0 km/h
187 18-11-2010 13:18:01 8.5 C 5.81 g/m*3 8.5 C 0 km/h
188 18-11-2010 13:30:01 8.4 C 5.6 g/m*3 8.4 C 0 km/h
189 18-11-2010 13:42:02 8.3 C 5.65 g/m*3 8.3 C 0 km/h
190 18-11-2010 13:54:02 8.6 C 5.76 g/m*3 8.6 C 0 km/h
191 18-11-2010 14:06:02 8.5 C 5.46 g/m*3 8.5 C 0 km/h
192 18-11-2010 14:18:01 8.2 C 5.28 g/m*3 8.2 C 0 km/h
193 18-11-2010 14:30:01 8 C 5.37 g/m*3 8 C 0 km/h
194 18-11-2010 14:42:02 8 C 5.29 g/m*3 8 C 0 km/h
195 18-11-2010 14:54:02 8 C 5.21 g/m*3 8 C 0 km/h
196 18-11-2010 15:06:02 7.8 C 5.3 g/m*3 7.8 C 0 km/h
197 18-11-2010 15:18:01 7.9 C 5.34 g/m*3 7.9 C 0 km/h
198 18-11-2010 15:30:01 7.8 C 5.39 g/m*3 7.8 C 0 km/h
199 18-11-2010 15:42:02 7.7 C 5.43 g/m*3 7.7 C 0 km/h
200 18-11-2010 15:54:01 7.6 C 5.48 g/m*3 7.6 C 0 km/h
Sensor: Nr:Datum:Temp:Abs-Feuchte:Windchill:Wind:
Aussen-T/F 201 18-11-2010 16:06:02 7.3 C 5.61 g/m*3 7.3 C 0 km/h
202 18-11-2010 16:18:02 7.1 C 5.77 g/m*3 7.1 C 0 km/h
203 18-11-2010 16:30:02 6.9 C 5.93 g/m*3 6.9 C 0 km/h
204 18-11-2010 16:42:01 6.8 C 5.89 g/m*3 6.8 C 0 km/h
205 18-11-2010 16:54:02 6.4 C 5.66 g/m*3 6.4 C 0 km/h
206 18-11-2010 17:06:01 6 C 5.66 g/m*3 6 C 0 km/h
207 18-11-2010 17:18:02 6.1 C 5.84 g/m*3 6.1 C 0 km/h
208 18-11-2010 17:30:02 6.1 C 5.92 g/m*3 6.1 C 0 km/h
209 18-11-2010 17:42:01 6.2 C 5.96 g/m*3 6.2 C 0 km/h
210 18-11-2010 17:54:02 6.2 C 5.96 g/m*3 6.2 C 0 km/h
211 18-11-2010 18:06:02 6.2 C 5.96 g/m*3 6.2 C 0 km/h
212 18-11-2010 18:18:02 6.2 C 6.03 g/m*3 6.2 C 0 km/h
213 18-11-2010 18:30:02 6.2 C 6.03 g/m*3 6.2 C 0 km/h
214 18-11-2010 18:42:02 6.2 C 6.03 g/m*3 6.2 C 0 km/h
215 18-11-2010 18:54:02 6.2 C 6.03 g/m*3 6.2 C 0 km/h
216 18-11-2010 19:06:01 6.3 C 6.07 g/m*3 6.3 C 0 km/h
217 18-11-2010 19:18:02 6.2 C 5.88 g/m*3 6.2 C 0 km/h
218 18-11-2010 19:30:02 5.8 C 5.95 g/m*3 5.8 C 0 km/h
219 18-11-2010 19:42:02 5.7 C 6.05 g/m*3 5.7 C 0 km/h
220 18-11-2010 19:54:02 5.7 C 6.12 g/m*3 5.7 C 0 km/h
221 18-11-2010 20:06:02 5.6 C 6.15 g/m*3 5.6 C 0 km/h
222 18-11-2010 20:18:02 5.6 C 6.22 g/m*3 5.6 C 0 km/h
223 18-11-2010 20:30:02 5.6 C 6.22 g/m*3 5.6 C 0 km/h
224 18-11-2010 20:42:02 5.6 C 6.29 g/m*3 5.6 C 0 km/h
225 18-11-2010 20:54:01 5.5 C 6.25 g/m*3 5.5 C 0 km/h
Sensor: Nr:Datum:Temp:Abs-Feuchte:Windchill:Wind:
Aussen-T/F 226 18-11-2010 21:06:02 5.5 C 6.25 g/m*3 5.5 C 0 km/h
227 18-11-2010 21:18:01 5.5 C 6.25 g/m*3 5.5 C 0 km/h
228 18-11-2010 21:30:01 5.5 C 6.25 g/m*3 5.5 C 0 km/h
229 18-11-2010 21:42:01 5.5 C 6.25 g/m*3 5.5 C 0 km/h
230 18-11-2010 21:54:01 5.6 C 6.36 g/m*3 5.6 C 0 km/h
231 18-11-2010 22:06:01 5.5 C 6.32 g/m*3 5.5 C 0 km/h
232 18-11-2010 22:18:02 5.5 C 6.32 g/m*3 5.5 C 0 km/h
233 18-11-2010 22:30:02 5.5 C 6.32 g/m*3 5.5 C 0 km/h
234 18-11-2010 22:42:01 5.5 C 6.32 g/m*3 5.5 C 0 km/h
235 18-11-2010 22:55:03 5.5 C 6.32 g/m*3 5.5 C 0 km/h
236 18-11-2010 23:07:03 5.6 C 6.43 g/m*3 5.6 C 0 km/h
237 18-11-2010 23:19:03 5.6 C 6.43 g/m*3 5.6 C 0 km/h
238 18-11-2010 23:31:03 5.7 C 6.48 g/m*3 5.7 C 0 km/h
239 18-11-2010 23:43:03 5.7 C 6.4 g/m*3 5.7 C 0 km/h
240 18-11-2010 23:55:04 5.6 C 6.36 g/m*3 5.6 C 0 km/h
241 19-11-2010 00:07:04 5.5 C 6.32 g/m*3 5.5 C 0 km/h
242 19-11-2010 00:19:04 5.6 C 6.29 g/m*3 5.6 C 0 km/h
243 19-11-2010 00:31:04 5.7 C 6.26 g/m*3 5.7 C 0 km/h
244 19-11-2010 00:43:04 5.7 C 6.26 g/m*3 5.7 C 0 km/h
245 19-11-2010 00:55:04 5.8 C 6.16 g/m*3 5.8 C 0 km/h
246 19-11-2010 01:07:04 5.8 C 6.09 g/m*3 5.8 C 0 km/h
247 19-11-2010 01:19:04 5.6 C 6.01 g/m*3 5.6 C 0 km/h
248 19-11-2010 01:31:04 5.5 C 6.11 g/m*3 5.5 C 0 km/h
249 19-11-2010 01:43:04 5.5 C 6.18 g/m*3 5.5 C 0 km/h
250 19-11-2010 01:55:04 5.5 C 6.18 g/m*3 5.5 C 0 km/h
Sensor: Nr:Datum:Temp:Abs-Feuchte:Windchill:Wind:
Aussen-T/F 251 19-11-2010 02:07:04 5.4 C 6.14 g/m*3 5.4 C 0 km/h
252 19-11-2010 02:19:04 5.4 C 6.21 g/m*3 5.4 C 0 km/h
253 19-11-2010 02:31:04 5.3 C 6.17 g/m*3 5.3 C 0 km/h
254 19-11-2010 02:43:04 5.3 C 6.17 g/m*3 5.3 C 0 km/h
255 19-11-2010 02:55:04 5.3 C 6.17 g/m*3 5.3 C 0 km/h
256 19-11-2010 03:07:04 5.2 C 6.06 g/m*3 5.2 C 0 km/h
257 19-11-2010 03:19:04 5.2 C 6.13 g/m*3 5.2 C 0 km/h
258 19-11-2010 03:31:04 5.1 C 6.09 g/m*3 5.1 C 0 km/h
259 19-11-2010 03:43:04 5.1 C 6.09 g/m*3 5.1 C 0 km/h
260 19-11-2010 03:55:04 5 C 6.05 g/m*3 5 C 0 km/h
261 19-11-2010 04:07:05 5 C 6.05 g/m*3 5 C 0 km/h
262 19-11-2010 04:19:05 5 C 6.05 g/m*3 5 C 0 km/h
263 19-11-2010 04:31:05 5.1 C 6.09 g/m*3 5.1 C 0 km/h
264 19-11-2010 04:43:05 5.1 C 6.09 g/m*3 5.1 C 0 km/h
265 19-11-2010 04:55:05 5 C 5.98 g/m*3 5 C 0 km/h
266 19-11-2010 05:07:05 4.9 C 6.01 g/m*3 4.9 C 0 km/h
267 19-11-2010 05:19:05 4.9 C 6.01 g/m*3 4.9 C 0 km/h
268 19-11-2010 05:31:05 4.9 C 6.08 g/m*3 4.9 C 0 km/h
269 19-11-2010 05:43:05 5 C 6.05 g/m*3 5 C 0 km/h
270 19-11-2010 05:55:05 5 C 6.05 g/m*3 5 C 0 km/h
271 19-11-2010 06:07:05 4.9 C 6.01 g/m*3 4.9 C 0 km/h
272 19-11-2010 06:19:05 4.8 C 5.97 g/m*3 4.8 C 0 km/h
273 19-11-2010 06:31:05 4.8 C 6.04 g/m*3 4.8 C 0 km/h
274 19-11-2010 06:43:05 5 C 6.05 g/m*3 5 C 0 km/h
275 19-11-2010 06:55:02 5 C 6.05 g/m*3 5 C 0 km/h
Sensor: Nr:Datum:Temp:Abs-Feuchte:Windchill:Wind:
Aussen-T/F 276 19-11-2010 07:07:02 5.1 C 6.09 g/m*3 5.1 C 0 km/h
277 19-11-2010 07:19:02 5.2 C 6.13 g/m*3 5.2 C 0 km/h
278 19-11-2010 07:31:02 5.2 C 6.13 g/m*3 5.2 C 0 km/h
279 19-11-2010 07:43:02 5.1 C 6.09 g/m*3 5.1 C 0 km/h
280 19-11-2010 07:55:02 5.1 C 6.09 g/m*3 5.1 C 0 km/h
281 19-11-2010 08:07:01 5.2 C 6.13 g/m*3 5.2 C 0 km/h
282 19-11-2010 08:19:02 5.3 C 6.17 g/m*3 5.3 C 0 km/h
283 19-11-2010 08:31:02 5.4 C 6.21 g/m*3 5.4 C 0 km/h
284 19-11-2010 08:43:02 5.5 C 6.25 g/m*3 5.5 C 0 km/h
285 19-11-2010 08:55:02 5.8 C 6.38 g/m*3 5.8 C 0 km/h
286 19-11-2010 09:07:02 6 C 6.31 g/m*3 6 C 0 km/h
287 19-11-2010 09:19:02 6.2 C 6.32 g/m*3 6.2 C 0 km/h
288 19-11-2010 09:31:03 6.4 C 6.33 g/m*3 6.4 C 0 km/h
289 19-11-2010 09:43:03 6.4 C 6.18 g/m*3 6.4 C 0 km/h
290 19-11-2010 09:55:02 6.6 C 6.11 g/m*3 6.6 C 0 km/h
291 19-11-2010 10:07:02 6.9 C 6.24 g/m*3 6.9 C 0 km/h
292 19-11-2010 10:19:01 7.1 C 6.16 g/m*3 7.1 C 0 km/h
293 19-11-2010 10:31:02 7.6 C 6.28 g/m*3 7.6 C 0 km/h
294 19-11-2010 10:43:03 7.9 C 6.32 g/m*3 7.9 C 0 km/h
295 19-11-2010 10:55:02 8.6 C 6.36 g/m*3 8.6 C 0 km/h
296 19-11-2010 11:07:02 8.7 C 6.23 g/m*3 8.7 C 0 km/h
297 19-11-2010 11:19:02 8.9 C 6.13 g/m*3 8.9 C 0 km/h
298 19-11-2010 11:31:02 8.8 C 6.01 g/m*3 8.8 C 0 km/h
299 19-11-2010 11:43:02 8.8 C 6.01 g/m*3 8.8 C 0 km/h
300 19-11-2010 11:55:02 9 C 5.91 g/m*3 9 C 0 km/h
Sensor: Nr:Datum:Temp:Abs-Feuchte:Windchill:Wind:
Aussen-T/F 301 19-11-2010 12:07:02 9.2 C 5.98 g/m*3 9.2 C 0 km/h
302 19-11-2010 12:19:03 9.5 C 5.92 g/m*3 9.5 C 0 km/h
303 19-11-2010 12:31:02 9.5 C 5.83 g/m*3 9.5 C 0 km/h
304 19-11-2010 12:43:02 9.4 C 5.79 g/m*3 9.4 C 0 km/h
305 19-11-2010 12:55:02 10 C 5.73 g/m*3 10 C 0 km/h
306 19-11-2010 13:07:02 10.2 C 5.8 g/m*3 10.2 C 0 km/h
307 19-11-2010 13:19:02 9.7 C 5.81 g/m*3 9.7 C 0 km/h
308 19-11-2010 13:31:02 9.5 C 5.83 g/m*3 9.5 C 0 km/h
309 19-11-2010 13:43:02 9.5 C 5.92 g/m*3 9.5 C 0 km/h
310 19-11-2010 13:55:02 9.8 C 5.75 g/m*3 9.8 C 0 km/h
311 19-11-2010 14:07:01 10.2 C 5.61 g/m*3 10.2 C 0 km/h
312 19-11-2010 14:19:02 10.1 C 5.67 g/m*3 10.1 C 0 km/h
313 19-11-2010 14:31:02 9.9 C 5.7 g/m*3 9.9 C 0 km/h
314 19-11-2010 14:43:02 9.8 C 5.75 g/m*3 9.8 C 0 km/h
315 19-11-2010 14:55:01 9.7 C 5.72 g/m*3 9.7 C 0 km/h
316 19-11-2010 15:07:01 9.7 C 5.81 g/m*3 9.7 C 0 km/h
317 19-11-2010 15:19:01 9.2 C 5.8 g/m*3 9.2 C 0 km/h
318 19-11-2010 15:31:02 8.6 C 5.84 g/m*3 8.6 C 0 km/h
319 19-11-2010 15:43:02 7.7 C 6 g/m*3 7.7 C 0 km/h
320 19-11-2010 15:55:02 7.3 C 6.08 g/m*3 7.3 C 0 km/h
321 19-11-2010 16:07:02 6.9 C 6.08 g/m*3 6.9 C 0 km/h
322 19-11-2010 16:19:01 6.8 C 6.12 g/m*3 6.8 C 0 km/h
323 19-11-2010 16:31:02 6.8 C 6.19 g/m*3 6.8 C 0 km/h
324 19-11-2010 16:43:02 7.2 C 6.36 g/m*3 7.2 C 0 km/h
325 19-11-2010 16:55:02 7.5 C 6.4 g/m*3 7.5 C 0 km/h
Sensor: Nr:Datum:Temp:Abs-Feuchte:Windchill:Wind:
Aussen-T/F 326 19-11-2010 17:07:02 7.6 C 6.28 g/m*3 7.6 C 0 km/h
327 19-11-2010 17:19:01 7.6 C 6.28 g/m*3 7.6 C 0 km/h
328 19-11-2010 17:31:02 7.7 C 6.32 g/m*3 7.7 C 0 km/h
329 19-11-2010 17:43:02 7.5 C 6.32 g/m*3 7.5 C 0 km/h
330 19-11-2010 17:55:02 7.5 C 6.32 g/m*3 7.5 C 0 km/h
331 19-11-2010 18:07:02 7.5 C 6.4 g/m*3 7.5 C 0 km/h
332 19-11-2010 18:19:02 7.6 C 6.36 g/m*3 7.6 C 0 km/h
333 19-11-2010 18:31:02 7.7 C 6.32 g/m*3 7.7 C 0 km/h
334 19-11-2010 18:43:02 7.8 C 6.28 g/m*3 7.8 C 0 km/h
335 19-11-2010 18:55:02 7.5 C 6.24 g/m*3 7.5 C 0 km/h
336 19-11-2010 19:07:02 7.5 C 6.32 g/m*3 7.5 C 0 km/h
337 19-11-2010 19:19:02 7.3 C 6.24 g/m*3 7.3 C 0 km/h
338 19-11-2010 19:31:01 7 C 6.2 g/m*3 7 C 0 km/h
339 19-11-2010 19:43:01 6.7 C 6.23 g/m*3 6.7 C 0 km/h
340 19-11-2010 19:55:02 6.3 C 6.14 g/m*3 6.3 C 0 km/h
341 19-11-2010 20:07:01 5.9 C 6.13 g/m*3 5.9 C 0 km/h
342 19-11-2010 20:19:02 5.4 C 6 g/m*3 5.4 C 0 km/h
343 19-11-2010 20:31:01 5 C 5.84 g/m*3 5 C 0 km/h
344 19-11-2010 20:43:01 4.6 C 5.76 g/m*3 4.6 C 0 km/h
345 19-11-2010 20:55:01 4.6 C 5.82 g/m*3 4.6 C 0 km/h
346 19-11-2010 21:07:02 4.1 C 5.63 g/m*3 4.1 C 0 km/h
347 19-11-2010 21:19:02 3.9 C 5.62 g/m*3 3.9 C 0 km/h
348 19-11-2010 21:31:01 4 C 5.66 g/m*3 4 C 0 km/h
349 19-11-2010 21:43:01 3.8 C 5.65 g/m*3 3.8 C 0 km/h
350 19-11-2010 21:55:01 3.5 C 5.53 g/m*3 3.5 C 0 km/h
Sensor: Nr:Datum:Temp:Abs-Feuchte:Windchill:Wind:
Aussen-T/F 351 19-11-2010 22:07:01 3.4 C 5.5 g/m*3 3.4 C 0 km/h
352 19-11-2010 22:19:01 3.4 C 5.56 g/m*3 3.4 C 0 km/h
353 19-11-2010 22:31:01 4.4 C 5.94 g/m*3 4.4 C 0 km/h
354 19-11-2010 22:43:01 4.3 C 5.9 g/m*3 4.3 C 0 km/h
355 19-11-2010 22:55:01 4.1 C 5.82 g/m*3 4.1 C 0 km/h
356 19-11-2010 23:07:01 4 C 5.79 g/m*3 4 C 0 km/h
357 19-11-2010 23:19:02 4.3 C 5.9 g/m*3 4.3 C 0 km/h
358 19-11-2010 23:32:02 4.6 C 6.09 g/m*3 4.6 C 0 km/h
359 19-11-2010 23:44:02 4.8 C 6.17 g/m*3 4.8 C 0 km/h
360 19-11-2010 23:56:02 5 C 6.18 g/m*3 5 C 0 km/h
361 20-11-2010 00:08:02 4.7 C 6.13 g/m*3 4.7 C 0 km/h
362 20-11-2010 00:20:02 3.9 C 5.81 g/m*3 3.9 C 0 km/h
363 20-11-2010 00:32:02 3.2 C 5.54 g/m*3 3.2 C 0 km/h
364 20-11-2010 00:44:02 3.8 C 5.77 g/m*3 3.8 C 0 km/h
365 20-11-2010 00:56:02 4.6 C 6.09 g/m*3 4.6 C 0 km/h
366 20-11-2010 01:08:02 4.6 C 6.09 g/m*3 4.6 C 0 km/h
367 20-11-2010 01:20:02 4.9 C 6.21 g/m*3 4.9 C 0 km/h
368 20-11-2010 01:32:02 4.6 C 6.09 g/m*3 4.6 C 0 km/h
369 20-11-2010 01:44:02 3.7 C 5.73 g/m*3 3.7 C 0 km/h
370 20-11-2010 01:56:03 3.1 C 5.51 g/m*3 3.1 C 0 km/h
371 20-11-2010 02:08:03 2.4 C 5.25 g/m*3 2.4 C 0 km/h
372 20-11-2010 02:20:03 2.1 C 5.15 g/m*3 2.1 C 0 km/h
373 20-11-2010 02:32:03 1.7 C 5.06 g/m*3 1.7 C 0 km/h
374 20-11-2010 02:44:03 2 C 5.11 g/m*3 2 C 0 km/h
375 20-11-2010 02:56:03 1.5 C 4.99 g/m*3 1.5 C 0 km/h
Sensor: Nr:Datum:Temp:Abs-Feuchte:Windchill:Wind:
Aussen-T/F 376 20-11-2010 03:08:03 1.4 C 4.96 g/m*3 1.4 C 0 km/h
377 20-11-2010 03:20:03 1.2 C 4.84 g/m*3 1.2 C 0 km/h
378 20-11-2010 03:32:03 1.1 C 4.81 g/m*3 1.1 C 0 km/h
379 20-11-2010 03:44:03 1.3 C 4.87 g/m*3 1.3 C 0 km/h
380 20-11-2010 03:56:03 1.7 C 5.06 g/m*3 1.7 C 0 km/h
381 20-11-2010 04:08:03 2.1 C 5.15 g/m*3 2.1 C 0 km/h
382 20-11-2010 04:20:03 2.5 C 5.35 g/m*3 2.5 C 0 km/h
383 20-11-2010 04:32:03 2.8 C 5.46 g/m*3 2.8 C 0 km/h
384 20-11-2010 04:44:03 2.8 C 5.46 g/m*3 2.8 C 0 km/h
385 20-11-2010 04:56:03 3 C 5.47 g/m*3 3 C 0 km/h
386 20-11-2010 05:08:03 3.1 C 5.51 g/m*3 3.1 C 0 km/h
387 20-11-2010 05:20:03 3.2 C 5.6 g/m*3 3.2 C 0 km/h
388 20-11-2010 05:32:03 3.4 C 5.68 g/m*3 3.4 C 0 km/h
389 20-11-2010 05:44:03 3.4 C 5.68 g/m*3 3.4 C 0 km/h
390 20-11-2010 05:56:03 3.6 C 5.76 g/m*3 3.6 C 0 km/h
391 20-11-2010 06:08:03 3.6 C 5.76 g/m*3 3.6 C 0 km/h
392 20-11-2010 06:20:03 3.7 C 5.8 g/m*3 3.7 C 0 km/h
393 20-11-2010 06:32:04 3.8 C 5.83 g/m*3 3.8 C 0 km/h
394 20-11-2010 06:44:04 3.8 C 5.83 g/m*3 3.8 C 0 km/h
395 20-11-2010 06:56:04 3.9 C 5.87 g/m*3 3.9 C 0 km/h
396 20-11-2010 07:08:04 4 C 5.91 g/m*3 4 C 0 km/h
397 20-11-2010 07:20:04 4 C 5.91 g/m*3 4 C 0 km/h
398 20-11-2010 07:32:04 4.1 C 5.95 g/m*3 4.1 C 0 km/h
399 20-11-2010 07:44:04 4.1 C 5.95 g/m*3 4.1 C 0 km/h
400 20-11-2010 07:56:04 4.1 C 5.95 g/m*3 4.1 C 0 km/h
Sensor: Nr:Datum:Temp:Abs-Feuchte:Windchill:Wind:
Aussen-T/F 401 20-11-2010 08:08:02 4.2 C 5.99 g/m*3 4.2 C 0 km/h
402 20-11-2010 08:20:01 4.3 C 6.03 g/m*3 4.3 C 0 km/h
403 20-11-2010 08:32:02 4.4 C 6.07 g/m*3 4.4 C 0 km/h
404 20-11-2010 08:44:02 4.5 C 6.11 g/m*3 4.5 C 0 km/h
405 20-11-2010 08:56:02 4.6 C 6.15 g/m*3 4.6 C 0 km/h
406 20-11-2010 09:08:02 4.7 C 6.19 g/m*3 4.7 C 0 km/h
407 20-11-2010 09:20:01 4.9 C 6.28 g/m*3 4.9 C 0 km/h
408 20-11-2010 09:32:02 5 C 6.25 g/m*3 5 C 0 km/h
409 20-11-2010 09:44:02 5.2 C 6.4 g/m*3 5.2 C 0 km/h
410 20-11-2010 09:56:02 5.4 C 6.49 g/m*3 5.4 C 0 km/h
411 20-11-2010 10:08:02 5.5 C 6.46 g/m*3 5.5 C 0 km/h
412 20-11-2010 10:20:02 5.6 C 6.5 g/m*3 5.6 C 0 km/h
413 20-11-2010 10:32:02 6 C 6.6 g/m*3 6 C 0 km/h
414 20-11-2010 10:44:02 6.5 C 6.82 g/m*3 6.5 C 0 km/h
415 20-11-2010 10:56:02 6.5 C 6.75 g/m*3 6.5 C 0 km/h
416 20-11-2010 11:08:01 6.8 C 6.81 g/m*3 6.8 C 0 km/h
417 20-11-2010 11:20:02 6.9 C 6.7 g/m*3 6.9 C 0 km/h
418 20-11-2010 11:32:01 7.2 C 6.67 g/m*3 7.2 C 0 km/h
419 20-11-2010 11:44:01 8 C 6.78 g/m*3 8 C 0 km/h
420 20-11-2010 11:56:02 8.4 C 6.79 g/m*3 8.4 C 0 km/h
421 20-11-2010 12:08:01 8.8 C 6.88 g/m*3 8.8 C 0 km/h
422 20-11-2010 12:20:01 8.9 C 6.83 g/m*3 8.9 C 0 km/h
423 20-11-2010 12:32:02 9.2 C 6.61 g/m*3 9.2 C 0 km/h
424 20-11-2010 12:44:02 9.3 C 6.56 g/m*3 9.3 C 0 km/h
425 20-11-2010 12:56:02 9.3 C 6.47 g/m*3 9.3 C 0 km/h
Sensor: Nr:Datum:Temp:Abs-Feuchte:Windchill:Wind:
Aussen-T/F 426 20-11-2010 13:08:02 8.9 C 6.31 g/m*3 8.9 C 0 km/h
427 20-11-2010 13:20:01 8.7 C 6.4 g/m*3 8.7 C 0 km/h
428 20-11-2010 13:32:02 8.5 C 6.32 g/m*3 8.5 C 0 km/h
429 20-11-2010 13:44:03 9.1 C 6.48 g/m*3 9.1 C 0 km/h
430 20-11-2010 13:56:02 9.2 C 6.34 g/m*3 9.2 C 0 km/h
431 20-11-2010 14:08:02 9 C 6.26 g/m*3 9 C 0 km/h
432 20-11-2010 14:20:01 8.9 C 6.31 g/m*3 8.9 C 0 km/h
433 20-11-2010 14:32:02 8.8 C 6.35 g/m*3 8.8 C 0 km/h
434 20-11-2010 14:44:02 8.7 C 6.31 g/m*3 8.7 C 0 km/h
435 20-11-2010 14:56:02 8.5 C 6.23 g/m*3 8.5 C 0 km/h
436 20-11-2010 15:08:02 8.3 C 6.15 g/m*3 8.3 C 0 km/h
437 20-11-2010 15:20:02 8.1 C 6.24 g/m*3 8.1 C 0 km/h
438 20-11-2010 15:32:02 7.9 C 6.24 g/m*3 7.9 C 0 km/h
439 20-11-2010 15:44:02 7.6 C 6.2 g/m*3 7.6 C 0 km/h
440 20-11-2010 15:56:02 6.9 C 6.08 g/m*3 6.9 C 0 km/h
441 20-11-2010 16:08:02 6.2 C 5.96 g/m*3 6.2 C 0 km/h
442 20-11-2010 16:20:02 5.7 C 5.91 g/m*3 5.7 C 0 km/h
443 20-11-2010 16:32:01 5.2 C 5.78 g/m*3 5.2 C 0 km/h
444 20-11-2010 16:44:01 4.8 C 5.77 g/m*3 4.8 C 0 km/h
445 20-11-2010 16:56:02 4.8 C 5.9 g/m*3 4.8 C 0 km/h
446 20-11-2010 17:08:01 4.6 C 5.82 g/m*3 4.6 C 0 km/h
447 20-11-2010 17:20:02 4.6 C 5.89 g/m*3 4.6 C 0 km/h
448 20-11-2010 17:32:02 4.6 C 5.89 g/m*3 4.6 C 0 km/h
449 20-11-2010 17:44:02 4.7 C 6 g/m*3 4.7 C 0 km/h
450 20-11-2010 17:56:02 4.5 C 5.92 g/m*3 4.5 C 0 km/h
Sensor: Nr:Datum:Temp:Abs-Feuchte:Windchill:Wind:
Aussen-T/F 451 20-11-2010 18:08:02 4.5 C 5.92 g/m*3 4.5 C 0 km/h
452 20-11-2010 18:20:02 4.5 C 5.92 g/m*3 4.5 C 0 km/h
453 20-11-2010 18:32:02 4.4 C 5.88 g/m*3 4.4 C 0 km/h
454 20-11-2010 18:44:02 4.4 C 5.94 g/m*3 4.4 C 0 km/h
455 20-11-2010 18:56:01 4.2 C 5.86 g/m*3 4.2 C 0 km/h
456 20-11-2010 19:08:02 4.4 C 5.94 g/m*3 4.4 C 0 km/h
457 20-11-2010 19:20:01 3.9 C 5.75 g/m*3 3.9 C 0 km/h
458 20-11-2010 19:32:02 3.9 C 5.75 g/m*3 3.9 C 0 km/h
459 20-11-2010 19:44:02 3.8 C 5.71 g/m*3 3.8 C 0 km/h
460 20-11-2010 19:56:02 3.6 C 5.63 g/m*3 3.6 C 0 km/h
461 20-11-2010 20:08:02 3.6 C 5.63 g/m*3 3.6 C 0 km/h
462 20-11-2010 20:20:02 3.5 C 5.66 g/m*3 3.5 C 0 km/h
463 20-11-2010 20:32:02 3.4 C 5.62 g/m*3 3.4 C 0 km/h
464 20-11-2010 20:44:03 3.1 C 5.45 g/m*3 3.1 C 0 km/h
465 20-11-2010 20:56:02 2.8 C 5.4 g/m*3 2.8 C 0 km/h
466 20-11-2010 21:08:02 2.8 C 5.4 g/m*3 2.8 C 0 km/h
467 20-11-2010 21:20:02 2.8 C 5.4 g/m*3 2.8 C 0 km/h
468 20-11-2010 21:32:02 3.2 C 5.54 g/m*3 3.2 C 0 km/h
469 20-11-2010 21:44:02 3.6 C 5.69 g/m*3 3.6 C 0 km/h
470 20-11-2010 21:56:02 3.9 C 5.81 g/m*3 3.9 C 0 km/h
471 20-11-2010 22:08:03 4.1 C 5.89 g/m*3 4.1 C 0 km/h
472 20-11-2010 22:20:02 4.3 C 5.97 g/m*3 4.3 C 0 km/h
473 20-11-2010 22:32:02 4.4 C 6.01 g/m*3 4.4 C 0 km/h
474 20-11-2010 22:44:02 4.4 C 6.01 g/m*3 4.4 C 0 km/h
475 20-11-2010 22:56:01 4.4 C 6.01 g/m*3 4.4 C 0 km/h
Sensor: Nr:Datum:Temp:Abs-Feuchte:Windchill:Wind:
Aussen-T/F 476 20-11-2010 23:09:02 4 C 5.85 g/m*3 4 C 0 km/h
477 20-11-2010 23:21:02 4 C 5.85 g/m*3 4 C 0 km/h
478 20-11-2010 23:33:02 4.1 C 5.89 g/m*3 4.1 C 0 km/h
479 20-11-2010 23:45:02 4.3 C 6.03 g/m*3 4.3 C 0 km/h
480 20-11-2010 23:57:02 4.2 C 5.99 g/m*3 4.2 C 0 km/h
481 21-11-2010 00:09:02 4.3 C 5.97 g/m*3 4.3 C 0 km/h
482 21-11-2010 00:21:03 4.3 C 5.97 g/m*3 4.3 C 0 km/h
483 21-11-2010 00:33:03 4.3 C 5.97 g/m*3 4.3 C 0 km/h
484 21-11-2010 00:45:03 4.3 C 5.97 g/m*3 4.3 C 0 km/h
485 21-11-2010 00:57:03 4.4 C 5.94 g/m*3 4.4 C 0 km/h
486 21-11-2010 01:09:03 4.4 C 5.88 g/m*3 4.4 C 0 km/h
487 21-11-2010 01:21:03 4.5 C 5.78 g/m*3 4.5 C 0 km/h
488 21-11-2010 01:33:03 4.5 C 5.72 g/m*3 4.5 C 0 km/h
489 21-11-2010 01:45:03 4.5 C 5.72 g/m*3 4.5 C 0 km/h
490 21-11-2010 01:57:03 4.5 C 5.65 g/m*3 4.5 C 0 km/h
491 21-11-2010 02:09:03 4.5 C 5.59 g/m*3 4.5 C 0 km/h
492 21-11-2010 02:21:03 4.4 C 5.48 g/m*3 4.4 C 0 km/h
493 21-11-2010 02:33:03 4.4 C 5.35 g/m*3 4.4 C 0 km/h
494 21-11-2010 02:45:03 4.4 C 5.35 g/m*3 4.4 C 0 km/h
495 21-11-2010 02:57:03 4.5 C 5.39 g/m*3 4.5 C 0 km/h
496 21-11-2010 03:09:03 4.5 C 5.39 g/m*3 4.5 C 0 km/h
497 21-11-2010 03:21:03 4.5 C 5.32 g/m*3 4.5 C 0 km/h
498 21-11-2010 03:33:03 4.4 C 5.29 g/m*3 4.4 C 0 km/h
499 21-11-2010 03:45:03 4.5 C 5.26 g/m*3 4.5 C 0 km/h
500 21-11-2010 03:57:03 4.6 C 5.16 g/m*3 4.6 C 0 km/h
Sensor: Nr:Datum:Temp:Abs-Feuchte:Windchill:Wind:
Aussen-T/F 501 21-11-2010 04:09:03 4.6 C 5.16 g/m*3 4.6 C 0 km/h
502 21-11-2010 04:21:03 4.6 C 5.1 g/m*3 4.6 C 0 km/h
503 21-11-2010 04:33:03 4.6 C 5.03 g/m*3 4.6 C 0 km/h
504 21-11-2010 04:45:04 4.5 C 5 g/m*3 4.5 C 0 km/h
505 21-11-2010 04:57:04 4.5 C 5 g/m*3 4.5 C 0 km/h
506 21-11-2010 05:09:04 4.5 C 5 g/m*3 4.5 C 0 km/h
507 21-11-2010 05:21:04 4.6 C 4.96 g/m*3 4.6 C 0 km/h
508 21-11-2010 05:33:04 4.5 C 4.93 g/m*3 4.5 C 0 km/h
509 21-11-2010 05:45:04 4.5 C 4.93 g/m*3 4.5 C 0 km/h
510 21-11-2010 05:57:04 4.4 C 4.9 g/m*3 4.4 C 0 km/h
511 21-11-2010 06:09:04 4.4 C 4.9 g/m*3 4.4 C 0 km/h
512 21-11-2010 06:21:04 4.5 C 4.86 g/m*3 4.5 C 0 km/h
513 21-11-2010 06:33:04 4.4 C 4.9 g/m*3 4.4 C 0 km/h
514 21-11-2010 06:45:04 4.4 C 4.96 g/m*3 4.4 C 0 km/h
515 21-11-2010 06:57:04 4.3 C 4.99 g/m*3 4.3 C 0 km/h
516 21-11-2010 07:09:04 4.3 C 4.99 g/m*3 4.3 C 0 km/h
517 21-11-2010 07:21:04 4.4 C 5.03 g/m*3 4.4 C 0 km/h
518 21-11-2010 07:33:04 4.4 C 5.03 g/m*3 4.4 C 0 km/h
519 21-11-2010 07:45:04 4.4 C 5.09 g/m*3 4.4 C 0 km/h
520 21-11-2010 07:57:04 4.4 C 5.09 g/m*3 4.4 C 0 km/h
521 21-11-2010 08:09:04 4.5 C 5.19 g/m*3 4.5 C 0 km/h
522 21-11-2010 08:21:04 4.6 C 5.23 g/m*3 4.6 C 0 km/h
523 21-11-2010 08:33:04 4.7 C 5.13 g/m*3 4.7 C 0 km/h
524 21-11-2010 08:45:04 4.8 C 5.1 g/m*3 4.8 C 0 km/h
525 21-11-2010 08:57:04 4.9 C 5.06 g/m*3 4.9 C 0 km/h
Sensor: Nr:Datum:Temp:Abs-Feuchte:Windchill:Wind:
Aussen-T/F 526 21-11-2010 09:09:05 5.1 C 4.99 g/m*3 5.1 C 0 km/h
527 21-11-2010 09:21:05 5.1 C 4.92 g/m*3 5.1 C 0 km/h
528 21-11-2010 09:33:02 5 C 4.89 g/m*3 5 C 0 km/h
529 21-11-2010 09:45:02 4.9 C 4.86 g/m*3 4.9 C 0 km/h
530 21-11-2010 09:57:02 4.9 C 4.93 g/m*3 4.9 C 0 km/h
531 21-11-2010 10:09:02 5 C 4.89 g/m*3 5 C 0 km/h
532 21-11-2010 10:21:02 5.2 C 4.82 g/m*3 5.2 C 0 km/h
533 21-11-2010 10:33:02 5.4 C 4.81 g/m*3 5.4 C 0 km/h
534 21-11-2010 10:45:01 5.6 C 4.81 g/m*3 5.6 C 0 km/h
535 21-11-2010 10:57:01 5.6 C 4.74 g/m*3 5.6 C 0 km/h
536 21-11-2010 11:09:01 5.6 C 4.67 g/m*3 5.6 C 0 km/h
537 21-11-2010 11:21:02 5.3 C 4.64 g/m*3 5.3 C 0 km/h
538 21-11-2010 11:33:01 5.1 C 4.58 g/m*3 5.1 C 0 km/h
539 21-11-2010 11:45:03 5.2 C 4.61 g/m*3 5.2 C 0 km/h
540 21-11-2010 11:57:03 5.3 C 4.64 g/m*3 5.3 C 0 km/h
541 21-11-2010 12:09:02 5.1 C 4.58 g/m*3 5.1 C 0 km/h
542 21-11-2010 12:21:02 5 C 4.55 g/m*3 5 C 0 km/h
543 21-11-2010 12:33:02 5 C 4.48 g/m*3 5 C 0 km/h
544 21-11-2010 12:45:02 5.1 C 4.51 g/m*3 5.1 C 0 km/h
545 21-11-2010 12:57:02 5.3 C 4.51 g/m*3 5.3 C 0 km/h
546 21-11-2010 13:09:02 5.3 C 4.51 g/m*3 5.3 C 0 km/h
547 21-11-2010 13:21:02 5.1 C 4.45 g/m*3 5.1 C 0 km/h
548 21-11-2010 13:33:02 5.1 C 4.45 g/m*3 5.1 C 0 km/h
549 21-11-2010 13:45:02 5.1 C 4.45 g/m*3 5.1 C 0 km/h
550 21-11-2010 13:57:02 5 C 4.42 g/m*3 5 C 0 km/h
Sensor: Nr:Datum:Temp:Abs-Feuchte:Windchill:Wind:
Aussen-T/F 551 21-11-2010 14:09:02 5 C 4.42 g/m*3 5 C 0 km/h
552 21-11-2010 14:21:01 4.9 C 4.46 g/m*3 4.9 C 0 km/h
553 21-11-2010 14:33:02 4.9 C 4.46 g/m*3 4.9 C 0 km/h
554 21-11-2010 14:45:02 4.8 C 4.43 g/m*3 4.8 C 0 km/h
555 21-11-2010 14:57:02 4.8 C 4.36 g/m*3 4.8 C 0 km/h
556 21-11-2010 15:09:02 4.6 C 4.3 g/m*3 4.6 C 0 km/h
557 21-11-2010 15:21:01 4.5 C 4.27 g/m*3 4.5 C 0 km/h
558 21-11-2010 15:33:02 4.4 C 4.24 g/m*3 4.4 C 0 km/h
559 21-11-2010 15:45:02 4.4 C 4.31 g/m*3 4.4 C 0 km/h
560 21-11-2010 15:57:02 4.3 C 4.28 g/m*3 4.3 C 0 km/h
561 21-11-2010 16:09:02 4.3 C 4.28 g/m*3 4.3 C 0 km/h
562 21-11-2010 16:21:02 4.2 C 4.32 g/m*3 4.2 C 0 km/h
563 21-11-2010 16:33:02 4.2 C 4.45 g/m*3 4.2 C 0 km/h
564 21-11-2010 16:45:02 4.1 C 4.42 g/m*3 4.1 C 0 km/h
565 21-11-2010 16:57:02 4 C 4.45 g/m*3 4 C 0 km/h
566 21-11-2010 17:09:02 3.9 C 4.48 g/m*3 3.9 C 0 km/h
567 21-11-2010 17:21:02 3.9 C 4.55 g/m*3 3.9 C 0 km/h
568 21-11-2010 17:33:02 4 C 4.51 g/m*3 4 C 0 km/h
569 21-11-2010 17:45:02 4 C 4.45 g/m*3 4 C 0 km/h
570 21-11-2010 17:57:02 4 C 4.51 g/m*3 4 C 0 km/h
571 21-11-2010 18:09:01 4 C 4.51 g/m*3 4 C 0 km/h
572 21-11-2010 18:21:02 4 C 4.51 g/m*3 4 C 0 km/h
573 21-11-2010 18:33:02 4 C 4.51 g/m*3 4 C 0 km/h
574 21-11-2010 18:45:02 3.9 C 4.61 g/m*3 3.9 C 0 km/h
575 21-11-2010 18:57:02 3.9 C 4.67 g/m*3 3.9 C 0 km/h
Sensor: Nr:Datum:Temp:Abs-Feuchte:Windchill:Wind:
Aussen-T/F 576 21-11-2010 19:09:03 3.9 C 4.67 g/m*3 3.9 C 0 km/h
577 21-11-2010 19:21:02 4 C 4.64 g/m*3 4 C 0 km/h
578 21-11-2010 19:33:02 4.1 C 4.61 g/m*3 4.1 C 0 km/h
579 21-11-2010 19:45:02 4.1 C 4.54 g/m*3 4.1 C 0 km/h
580 21-11-2010 19:57:02 4.2 C 4.57 g/m*3 4.2 C 0 km/h
581 21-11-2010 20:09:02 4.3 C 4.61 g/m*3 4.3 C 0 km/h
582 21-11-2010 20:21:02 4.3 C 4.61 g/m*3 4.3 C 0 km/h
583 21-11-2010 20:33:02 4.3 C 4.54 g/m*3 4.3 C 0 km/h
584 21-11-2010 20:45:02 4.3 C 4.54 g/m*3 4.3 C 0 km/h
585 21-11-2010 20:57:02 4.3 C 4.48 g/m*3 4.3 C 0 km/h
586 21-11-2010 21:09:03 4.3 C 4.48 g/m*3 4.3 C 0 km/h
587 21-11-2010 21:21:02 4.3 C 4.48 g/m*3 4.3 C 0 km/h
588 21-11-2010 21:33:03 4.1 C 4.48 g/m*3 4.1 C 0 km/h
589 21-11-2010 21:45:02 4 C 4.51 g/m*3 4 C 0 km/h
590 21-11-2010 21:57:03 4.1 C 4.54 g/m*3 4.1 C 0 km/h
591 21-11-2010 22:09:02 3.9 C 4.55 g/m*3 3.9 C 0 km/h
592 21-11-2010 22:21:02 3.7 C 4.61 g/m*3 3.7 C 0 km/h
593 21-11-2010 22:33:01 3.8 C 4.71 g/m*3 3.8 C 0 km/h
594 21-11-2010 22:45:02 3.7 C 4.74 g/m*3 3.7 C 0 km/h
595 21-11-2010 22:57:02 3.7 C 4.67 g/m*3 3.7 C 0 km/h
596 21-11-2010 23:10:04 3.7 C 4.74 g/m*3 3.7 C 0 km/h
597 21-11-2010 23:22:04 3.7 C 4.8 g/m*3 3.7 C 0 km/h
598 21-11-2010 23:34:04 3.8 C 4.83 g/m*3 3.8 C 0 km/h
599 21-11-2010 23:46:04 3.8 C 4.83 g/m*3 3.8 C 0 km/h
600 21-11-2010 23:58:04 3.8 C 4.83 g/m*3 3.8 C 0 km/h
Sensor: Nr:Datum:Temp:Abs-Feuchte:Windchill:Wind:
Aussen-T/F 601 22-11-2010 00:10:04 3.9 C 4.93 g/m*3 3.9 C 0 km/h
602 22-11-2010 00:22:04 4.1 C 4.93 g/m*3 4.1 C 0 km/h
603 22-11-2010 00:34:04 4.1 C 4.93 g/m*3 4.1 C 0 km/h
604 22-11-2010 00:46:04 4.1 C 4.93 g/m*3 4.1 C 0 km/h
605 22-11-2010 00:58:04 4.1 C 4.93 g/m*3 4.1 C 0 km/h
606 22-11-2010 01:10:04 4.1 C 4.93 g/m*3 4.1 C 0 km/h
607 22-11-2010 01:22:04 4.1 C 4.93 g/m*3 4.1 C 0 km/h
608 22-11-2010 01:34:04 4.1 C 4.93 g/m*3 4.1 C 0 km/h
609 22-11-2010 01:46:04 4.1 C 4.93 g/m*3 4.1 C 0 km/h
610 22-11-2010 01:58:04 4 C 4.9 g/m*3 4 C 0 km/h
611 22-11-2010 02:10:04 4.1 C 4.93 g/m*3 4.1 C 0 km/h
612 22-11-2010 02:22:04 4.1 C 4.93 g/m*3 4.1 C 0 km/h
613 22-11-2010 02:34:04 4.2 C 5.03 g/m*3 4.2 C 0 km/h
614 22-11-2010 02:46:04 4.2 C 4.96 g/m*3 4.2 C 0 km/h
615 22-11-2010 02:58:04 4.2 C 5.03 g/m*3 4.2 C 0 km/h
616 22-11-2010 03:10:04 4.2 C 5.03 g/m*3 4.2 C 0 km/h
617 22-11-2010 03:22:05 4.3 C 5.06 g/m*3 4.3 C 0 km/h
618 22-11-2010 03:34:05 4.4 C 5.09 g/m*3 4.4 C 0 km/h
619 22-11-2010 03:46:05 4.6 C 5.1 g/m*3 4.6 C 0 km/h
620 22-11-2010 03:58:05 4.8 C 5.03 g/m*3 4.8 C 0 km/h
621 22-11-2010 04:10:05 4.9 C 5 g/m*3 4.9 C 0 km/h
622 22-11-2010 04:22:05 4.9 C 5 g/m*3 4.9 C 0 km/h
623 22-11-2010 04:34:05 4.9 C 5 g/m*3 4.9 C 0 km/h
624 22-11-2010 04:46:05 4.8 C 5.03 g/m*3 4.8 C 0 km/h
625 22-11-2010 04:58:05 4.8 C 5.03 g/m*3 4.8 C 0 km/h
Sensor: Nr:Datum:Temp:Abs-Feuchte:Windchill:Wind:
Aussen-T/F 626 22-11-2010 05:10:05 4.9 C 5 g/m*3 4.9 C 0 km/h
627 22-11-2010 05:22:05 4.9 C 5 g/m*3 4.9 C 0 km/h
628 22-11-2010 05:34:05 4.9 C 4.93 g/m*3 4.9 C 0 km/h
629 22-11-2010 05:46:05 4.9 C 4.93 g/m*3 4.9 C 0 km/h
630 22-11-2010 05:58:05 4.8 C 4.9 g/m*3 4.8 C 0 km/h
631 22-11-2010 06:10:05 4.7 C 4.86 g/m*3 4.7 C 0 km/h
632 22-11-2010 06:22:05 4.7 C 4.86 g/m*3 4.7 C 0 km/h
633 22-11-2010 06:34:05 4.7 C 4.86 g/m*3 4.7 C 0 km/h
634 22-11-2010 06:46:05 4.7 C 4.86 g/m*3 4.7 C 0 km/h
635 22-11-2010 06:58:05 4.7 C 4.86 g/m*3 4.7 C 0 km/h
636 22-11-2010 07:10:05 4.7 C 4.86 g/m*3 4.7 C 0 km/h
637 22-11-2010 07:22:03 4.7 C 4.8 g/m*3 4.7 C 0 km/h
638 22-11-2010 07:34:04 4.6 C 4.76 g/m*3 4.6 C 0 km/h
639 22-11-2010 07:46:02 4.6 C 4.76 g/m*3 4.6 C 0 km/h
640 22-11-2010 07:58:02 4.6 C 4.76 g/m*3 4.6 C 0 km/h
641 22-11-2010 08:10:02 4.6 C 4.83 g/m*3 4.6 C 0 km/h
642 22-11-2010 08:22:02 4.6 C 4.83 g/m*3 4.6 C 0 km/h
643 22-11-2010 08:34:02 4.6 C 4.76 g/m*3 4.6 C 0 km/h
644 22-11-2010 08:46:02 4.7 C 4.8 g/m*3 4.7 C 0 km/h
645 22-11-2010 08:58:02 4.7 C 4.8 g/m*3 4.7 C 0 km/h
646 22-11-2010 09:10:02 4.7 C 4.8 g/m*3 4.7 C 0 km/h
647 22-11-2010 09:22:02 4.7 C 4.8 g/m*3 4.7 C 0 km/h
648 22-11-2010 09:34:02 4.7 C 4.8 g/m*3 4.7 C 0 km/h
649 22-11-2010 09:46:01 4.8 C 4.83 g/m*3 4.8 C 0 km/h
650 22-11-2010 09:58:01 4.8 C 4.83 g/m*3 4.8 C 0 km/h
Sensor: Nr:Datum:Temp:Abs-Feuchte:Windchill:Wind:
Aussen-T/F 651 22-11-2010 10:10:02 4.9 C 4.86 g/m*3 4.9 C 0 km/h
652 22-11-2010 10:22:01 4.9 C 4.86 g/m*3 4.9 C 0 km/h
653 22-11-2010 10:34:01 4.8 C 4.83 g/m*3 4.8 C 0 km/h
654 22-11-2010 10:46:01 4.8 C 4.9 g/m*3 4.8 C 0 km/h
655 22-11-2010 10:58:01 4.7 C 4.86 g/m*3 4.7 C 0 km/h
656 22-11-2010 11:10:02 4.7 C 4.86 g/m*3 4.7 C 0 km/h
657 22-11-2010 11:22:01 4.6 C 4.9 g/m*3 4.6 C 0 km/h
658 22-11-2010 11:34:01 4.5 C 4.93 g/m*3 4.5 C 0 km/h
659 22-11-2010 11:46:01 4.3 C 4.99 g/m*3 4.3 C 0 km/h
660 22-11-2010 11:58:01 4.3 C 5.06 g/m*3 4.3 C 0 km/h
661 22-11-2010 12:10:01 4.3 C 5.19 g/m*3 4.3 C 0 km/h
662 22-11-2010 12:22:02 4.2 C 5.15 g/m*3 4.2 C 0 km/h
663 22-11-2010 12:34:01 4.2 C 5.22 g/m*3 4.2 C 0 km/h
664 22-11-2010 12:46:02 4.1 C 5.18 g/m*3 4.1 C 0 km/h
665 22-11-2010 12:58:02 4.2 C 5.28 g/m*3 4.2 C 0 km/h
666 22-11-2010 13:10:02 4.2 C 5.35 g/m*3 4.2 C 0 km/h
667 22-11-2010 13:22:02 4.2 C 5.35 g/m*3 4.2 C 0 km/h
668 22-11-2010 13:34:01 4.2 C 5.41 g/m*3 4.2 C 0 km/h
669 22-11-2010 13:46:02 4.2 C 5.35 g/m*3 4.2 C 0 km/h
670 22-11-2010 13:58:02 4.4 C 5.42 g/m*3 4.4 C 0 km/h
671 22-11-2010 14:10:01 4.5 C 5.39 g/m*3 4.5 C 0 km/h
672 22-11-2010 14:22:02 4.6 C 5.29 g/m*3 4.6 C 0 km/h
673 22-11-2010 14:34:02 4.8 C 5.3 g/m*3 4.8 C 0 km/h
674 22-11-2010 14:46:02 5 C 5.23 g/m*3 5 C 0 km/h
675 22-11-2010 14:58:02 5 C 5.03 g/m*3 5 C 0 km/h
Sensor: Nr:Datum:Temp:Abs-Feuchte:Windchill:Wind:
Aussen-T/F 676 22-11-2010 15:10:02 5 C 5.03 g/m*3 5 C 0 km/h
677 22-11-2010 15:22:02 5 C 5.03 g/m*3 5 C 0 km/h
678 22-11-2010 15:34:02 4.9 C 5.06 g/m*3 4.9 C 0 km/h
679 22-11-2010 15:46:02 4.8 C 5.03 g/m*3 4.8 C 0 km/h
680 22-11-2010 15:58:02 4.8 C 4.96 g/m*3 4.8 C 0 km/h
681 22-11-2010 16:10:02 4.6 C 4.9 g/m*3 4.6 C 0 km/h
682 22-11-2010 16:22:02 4.5 C 4.86 g/m*3 4.5 C 0 km/h
683 22-11-2010 16:34:02 4.3 C 4.86 g/m*3 4.3 C 0 km/h
684 22-11-2010 16:46:02 4.2 C 4.96 g/m*3 4.2 C 0 km/h
685 22-11-2010 16:58:02 4 C 4.96 g/m*3 4 C 0 km/h
686 22-11-2010 17:10:02 4 C 4.96 g/m*3 4 C 0 km/h
687 22-11-2010 17:22:02 3.9 C 4.99 g/m*3 3.9 C 0 km/h
688 22-11-2010 17:34:02 4 C 5.02 g/m*3 4 C 0 km/h
689 22-11-2010 17:46:02 4.1 C 4.99 g/m*3 4.1 C 0 km/h
690 22-11-2010 17:58:02 4.2 C 4.96 g/m*3 4.2 C 0 km/h
691 22-11-2010 18:10:02 4.2 C 4.96 g/m*3 4.2 C 0 km/h
692 22-11-2010 18:22:02 4.3 C 4.99 g/m*3 4.3 C 0 km/h
693 22-11-2010 18:34:01 4.3 C 4.93 g/m*3 4.3 C 0 km/h
694 22-11-2010 18:46:02 4.3 C 4.93 g/m*3 4.3 C 0 km/h
695 22-11-2010 18:58:02 4.3 C 4.93 g/m*3 4.3 C 0 km/h
696 22-11-2010 19:10:01 4.4 C 4.96 g/m*3 4.4 C 0 km/h
697 22-11-2010 19:22:02 4.4 C 4.9 g/m*3 4.4 C 0 km/h
698 22-11-2010 19:34:02 4.4 C 4.9 g/m*3 4.4 C 0 km/h
699 22-11-2010 19:46:02 4.4 C 4.83 g/m*3 4.4 C 0 km/h
700 22-11-2010 19:58:02 4.3 C 4.8 g/m*3 4.3 C 0 km/h
Sensor: Nr:Datum:Temp:Abs-Feuchte:Windchill:Wind:
Aussen-T/F 701 22-11-2010 20:10:02 4.4 C 4.83 g/m*3 4.4 C 0 km/h
702 22-11-2010 20:22:02 4.4 C 4.83 g/m*3 4.4 C 0 km/h
703 22-11-2010 20:34:02 4.4 C 4.77 g/m*3 4.4 C 0 km/h
704 22-11-2010 20:46:01 4.4 C 4.77 g/m*3 4.4 C 0 km/h
705 22-11-2010 20:58:01 4.5 C 4.8 g/m*3 4.5 C 0 km/h
706 22-11-2010 21:10:02 4.4 C 4.77 g/m*3 4.4 C 0 km/h
707 22-11-2010 21:22:01 4.4 C 4.83 g/m*3 4.4 C 0 km/h
708 22-11-2010 21:34:02 4.4 C 4.83 g/m*3 4.4 C 0 km/h
709 22-11-2010 21:46:01 4.4 C 4.83 g/m*3 4.4 C 0 km/h
710 22-11-2010 21:58:01 4.4 C 4.83 g/m*3 4.4 C 0 km/h
711 22-11-2010 22:10:02 4.5 C 4.86 g/m*3 4.5 C 0 km/h
712 22-11-2010 22:22:02 4.5 C 4.86 g/m*3 4.5 C 0 km/h
713 22-11-2010 22:34:01 4.5 C 4.93 g/m*3 4.5 C 0 km/h
714 22-11-2010 22:47:03 4.5 C 4.86 g/m*3 4.5 C 0 km/h
715 22-11-2010 22:59:03 4.5 C 4.93 g/m*3 4.5 C 0 km/h
716 22-11-2010 23:11:03 4.4 C 4.9 g/m*3 4.4 C 0 km/h
717 22-11-2010 23:23:03 4.5 C 4.93 g/m*3 4.5 C 0 km/h
718 22-11-2010 23:35:03 4.4 C 4.96 g/m*3 4.4 C 0 km/h
719 22-11-2010 23:47:04 4.3 C 4.93 g/m*3 4.3 C 0 km/h
720 22-11-2010 23:59:04 4.4 C 4.96 g/m*3 4.4 C 0 km/h
721 23-11-2010 00:11:04 4.4 C 4.96 g/m*3 4.4 C 0 km/h
722 23-11-2010 00:23:04 4.4 C 4.96 g/m*3 4.4 C 0 km/h
723 23-11-2010 00:35:04 4.5 C 4.93 g/m*3 4.5 C 0 km/h
724 23-11-2010 00:47:04 4.5 C 4.93 g/m*3 4.5 C 0 km/h
725 23-11-2010 00:59:04 4.4 C 4.9 g/m*3 4.4 C 0 km/h
Sensor: Nr:Datum:Temp:Abs-Feuchte:Windchill:Wind:
Aussen-T/F 726 23-11-2010 01:11:04 4.5 C 4.93 g/m*3 4.5 C 0 km/h
727 23-11-2010 01:23:04 4.5 C 4.86 g/m*3 4.5 C 0 km/h
728 23-11-2010 01:35:04 4.5 C 4.86 g/m*3 4.5 C 0 km/h
729 23-11-2010 01:47:04 4.4 C 4.83 g/m*3 4.4 C 0 km/h
730 23-11-2010 01:59:04 4.4 C 4.77 g/m*3 4.4 C 0 km/h
731 23-11-2010 02:11:04 4.3 C 4.74 g/m*3 4.3 C 0 km/h
732 23-11-2010 02:23:04 4.3 C 4.8 g/m*3 4.3 C 0 km/h
733 23-11-2010 02:35:04 4.3 C 4.61 g/m*3 4.3 C 0 km/h
734 23-11-2010 02:47:04 4.2 C 4.51 g/m*3 4.2 C 0 km/h
735 23-11-2010 02:59:04 4.2 C 4.45 g/m*3 4.2 C 0 km/h
736 23-11-2010 03:11:04 4.2 C 4.45 g/m*3 4.2 C 0 km/h
737 23-11-2010 03:23:04 4.1 C 4.42 g/m*3 4.1 C 0 km/h
738 23-11-2010 03:35:04 4.2 C 4.38 g/m*3 4.2 C 0 km/h
739 23-11-2010 03:47:04 4 C 4.39 g/m*3 4 C 0 km/h
740 23-11-2010 03:59:04 3.9 C 4.48 g/m*3 3.9 C 0 km/h
741 23-11-2010 04:11:04 3.8 C 4.39 g/m*3 3.8 C 0 km/h
742 23-11-2010 04:23:05 3.8 C 4.45 g/m*3 3.8 C 0 km/h
743 23-11-2010 04:35:05 3.7 C 4.55 g/m*3 3.7 C 0 km/h
744 23-11-2010 04:47:05 3.6 C 4.58 g/m*3 3.6 C 0 km/h
745 23-11-2010 04:59:05 3.5 C 4.61 g/m*3 3.5 C 0 km/h
746 23-11-2010 05:11:05 3.5 C 4.55 g/m*3 3.5 C 0 km/h
747 23-11-2010 05:23:05 3.5 C 4.61 g/m*3 3.5 C 0 km/h
748 23-11-2010 05:35:05 3.4 C 4.58 g/m*3 3.4 C 0 km/h
749 23-11-2010 05:47:05 2.9 C 4.67 g/m*3 2.9 C 0 km/h
750 23-11-2010 05:59:05 2.7 C 4.84 g/m*3 2.7 C 0 km/h
Sensor: Nr:Datum:Temp:Abs-Feuchte:Windchill:Wind:
Aussen-T/F 751 23-11-2010 06:11:05 2.6 C 4.92 g/m*3 2.6 C 0 km/h
752 23-11-2010 06:23:05 2.7 C 4.95 g/m*3 2.7 C 0 km/h
753 23-11-2010 06:35:05 2.6 C 5.03 g/m*3 2.6 C 0 km/h
754 23-11-2010 06:47:05 2.7 C 5.07 g/m*3 2.7 C 0 km/h
755 23-11-2010 06:59:05 2.7 C 5.07 g/m*3 2.7 C 0 km/h
756 23-11-2010 07:11:05 2.6 C 5.09 g/m*3 2.6 C 0 km/h
757 23-11-2010 07:23:02 2.8 C 5.16 g/m*3 2.8 C 0 km/h
758 23-11-2010 07:35:03 3.1 C 5.09 g/m*3 3.1 C 0 km/h
759 23-11-2010 07:47:02 3.2 C 5.06 g/m*3 3.2 C 0 km/h
760 23-11-2010 07:59:02 3.1 C 4.97 g/m*3 3.1 C 0 km/h
761 23-11-2010 08:11:02 3.1 C 4.91 g/m*3 3.1 C 0 km/h
762 23-11-2010 08:23:01 3 C 4.88 g/m*3 3 C 0 km/h
763 23-11-2010 08:35:02 3.1 C 4.97 g/m*3 3.1 C 0 km/h
764 23-11-2010 08:47:02 3.3 C 4.85 g/m*3 3.3 C 0 km/h
765 23-11-2010 08:59:02 3.4 C 4.83 g/m*3 3.4 C 0 km/h
766 23-11-2010 09:11:03 3.6 C 4.77 g/m*3 3.6 C 0 km/h
767 23-11-2010 09:23:02 3.7 C 4.74 g/m*3 3.7 C 0 km/h
768 23-11-2010 09:35:02 3.6 C 4.77 g/m*3 3.6 C 0 km/h
769 23-11-2010 09:47:01 3.7 C 4.8 g/m*3 3.7 C 0 km/h
770 23-11-2010 09:59:01 3.8 C 4.71 g/m*3 3.8 C 0 km/h
771 23-11-2010 10:11:02 4 C 4.64 g/m*3 4 C 0 km/h
772 23-11-2010 10:23:01 4.1 C 4.61 g/m*3 4.1 C 0 km/h
773 23-11-2010 10:35:01 4.3 C 4.54 g/m*3 4.3 C 0 km/h
774 23-11-2010 10:47:01 4.4 C 4.57 g/m*3 4.4 C 0 km/h
775 23-11-2010 10:59:01 4.5 C 4.54 g/m*3 4.5 C 0 km/h
Sensor: Nr:Datum:Temp:Abs-Feuchte:Windchill:Wind:
Aussen-T/F 776 23-11-2010 11:11:02 4.4 C 4.57 g/m*3 4.4 C 0 km/h
777 23-11-2010 11:23:02 4.7 C 4.73 g/m*3 4.7 C 0 km/h
778 23-11-2010 11:35:01 4.8 C 4.76 g/m*3 4.8 C 0 km/h
779 23-11-2010 11:47:01 4.9 C 4.66 g/m*3 4.9 C 0 km/h
780 23-11-2010 11:59:01 4.8 C 4.56 g/m*3 4.8 C 0 km/h
781 23-11-2010 12:11:01 5.2 C 4.61 g/m*3 5.2 C 0 km/h
782 23-11-2010 12:23:01 5.2 C 4.48 g/m*3 5.2 C 0 km/h
783 23-11-2010 12:35:01 5.1 C 4.38 g/m*3 5.1 C 0 km/h
784 23-11-2010 12:47:01 5.4 C 4.47 g/m*3 5.4 C 0 km/h
785 23-11-2010 12:59:01 5.5 C 4.42 g/m*3 5.5 C 0 km/h
786 23-11-2010 13:11:02 5.8 C 4.44 g/m*3 5.8 C 0 km/h
787 23-11-2010 13:23:01 6 C 4.43 g/m*3 6 C 0 km/h
788 23-11-2010 13:35:02 6.2 C 4.34 g/m*3 6.2 C 0 km/h
789 23-11-2010 13:47:01 6.1 C 4.31 g/m*3 6.1 C 0 km/h
790 23-11-2010 13:59:01 6.1 C 4.31 g/m*3 6.1 C 0 km/h
791 23-11-2010 14:11:02 5.9 C 4.25 g/m*3 5.9 C 0 km/h
792 23-11-2010 14:23:01 5.8 C 4.23 g/m*3 5.8 C 0 km/h
793 23-11-2010 14:35:02 5.7 C 4.27 g/m*3 5.7 C 0 km/h
794 23-11-2010 14:47:01 5.7 C 4.27 g/m*3 5.7 C 0 km/h
795 23-11-2010 14:59:01 5.6 C 4.24 g/m*3 5.6 C 0 km/h
796 23-11-2010 15:11:02 5.7 C 4.2 g/m*3 5.7 C 0 km/h
797 23-11-2010 15:23:02 5.6 C 4.17 g/m*3 5.6 C 0 km/h
798 23-11-2010 15:35:01 5.6 C 4.24 g/m*3 5.6 C 0 km/h
799 23-11-2010 15:47:02 5.5 C 4.28 g/m*3 5.5 C 0 km/h
800 23-11-2010 15:59:02 5.3 C 4.37 g/m*3 5.3 C 0 km/h
Sensor: Nr:Datum:Temp:Abs-Feuchte:Windchill:Wind:
Aussen-T/F 801 23-11-2010 16:11:01 5.3 C 4.44 g/m*3 5.3 C 0 km/h
802 23-11-2010 16:23:02 5.4 C 4.47 g/m*3 5.4 C 0 km/h
803 23-11-2010 16:35:01 5.4 C 4.47 g/m*3 5.4 C 0 km/h
804 23-11-2010 16:47:03 5.5 C 4.49 g/m*3 5.5 C 0 km/h
805 23-11-2010 16:59:03 5.3 C 4.51 g/m*3 5.3 C 0 km/h
806 23-11-2010 17:11:02 5.3 C 4.51 g/m*3 5.3 C 0 km/h
807 23-11-2010 17:23:02 5.3 C 4.51 g/m*3 5.3 C 0 km/h
808 23-11-2010 17:35:02 5.3 C 4.44 g/m*3 5.3 C 0 km/h
809 23-11-2010 17:47:02 5.4 C 4.4 g/m*3 5.4 C 0 km/h
810 23-11-2010 17:59:03 5.3 C 4.44 g/m*3 5.3 C 0 km/h
811 23-11-2010 18:11:01 5.2 C 4.48 g/m*3 5.2 C 0 km/h
812 23-11-2010 18:23:02 5.4 C 4.47 g/m*3 5.4 C 0 km/h
813 23-11-2010 18:35:02 5.2 C 4.41 g/m*3 5.2 C 0 km/h
814 23-11-2010 18:47:02 5.4 C 4.33 g/m*3 5.4 C 0 km/h
815 23-11-2010 18:59:02 5.2 C 4.41 g/m*3 5.2 C 0 km/h
816 23-11-2010 19:11:03 5.2 C 4.48 g/m*3 5.2 C 0 km/h
817 23-11-2010 19:23:02 5.3 C 4.51 g/m*3 5.3 C 0 km/h
818 23-11-2010 19:35:02 5.2 C 4.48 g/m*3 5.2 C 0 km/h
819 23-11-2010 19:47:01 5.1 C 4.51 g/m*3 5.1 C 0 km/h
820 23-11-2010 19:59:01 5.2 C 4.54 g/m*3 5.2 C 0 km/h
821 23-11-2010 20:11:02 5 C 4.48 g/m*3 5 C 0 km/h
822 23-11-2010 20:23:01 5.2 C 4.48 g/m*3 5.2 C 0 km/h
823 23-11-2010 20:35:02 5.2 C 4.41 g/m*3 5.2 C 0 km/h
824 23-11-2010 20:47:01 5.2 C 4.34 g/m*3 5.2 C 0 km/h
825 23-11-2010 20:59:01 5.1 C 4.58 g/m*3 5.1 C 0 km/h
Sensor: Nr:Datum:Temp:Abs-Feuchte:Windchill:Wind:
Aussen-T/F 826 23-11-2010 21:11:02 4.8 C 4.49 g/m*3 4.8 C 0 km/h
827 23-11-2010 21:23:01 5.1 C 4.31 g/m*3 5.1 C 0 km/h
828 23-11-2010 21:35:02 5 C 4.28 g/m*3 5 C 0 km/h
829 23-11-2010 21:47:01 5 C 4.28 g/m*3 5 C 0 km/h
830 23-11-2010 21:59:01 5 C 4.28 g/m*3 5 C 0 km/h
831 23-11-2010 22:12:03 5 C 4.28 g/m*3 5 C 0 km/h
832 23-11-2010 22:24:03 5 C 4.28 g/m*3 5 C 0 km/h
833 23-11-2010 22:36:03 4.9 C 4.39 g/m*3 4.9 C 0 km/h
834 23-11-2010 22:48:03 4.9 C 4.39 g/m*3 4.9 C 0 km/h
835 23-11-2010 23:00:03 4.8 C 4.36 g/m*3 4.8 C 0 km/h
836 23-11-2010 23:12:03 4.8 C 4.36 g/m*3 4.8 C 0 km/h
837 23-11-2010 23:24:03 4.6 C 4.37 g/m*3 4.6 C 0 km/h
838 23-11-2010 23:36:03 4.6 C 4.43 g/m*3 4.6 C 0 km/h
839 23-11-2010 23:48:03 4.4 C 4.44 g/m*3 4.4 C 0 km/h
840 24-11-2010 00:00:03 4.2 C 4.45 g/m*3 4.2 C 0 km/h
841 24-11-2010 00:12:03 4.4 C 4.51 g/m*3 4.4 C 0 km/h
842 24-11-2010 00:24:03 4.4 C 4.44 g/m*3 4.4 C 0 km/h
843 24-11-2010 00:36:03 4.3 C 4.41 g/m*3 4.3 C 0 km/h
844 24-11-2010 00:48:04 4.3 C 4.41 g/m*3 4.3 C 0 km/h
845 24-11-2010 01:00:04 4.3 C 4.41 g/m*3 4.3 C 0 km/h
846 24-11-2010 01:12:04 4.3 C 4.41 g/m*3 4.3 C 0 km/h
847 24-11-2010 01:24:04 3.6 C 4.39 g/m*3 3.6 C 0 km/h
848 24-11-2010 01:36:04 3.6 C 4.52 g/m*3 3.6 C 0 km/h
849 24-11-2010 01:48:04 4 C 4.58 g/m*3 4 C 0 km/h
850 24-11-2010 02:00:04 3.5 C 4.49 g/m*3 3.5 C 0 km/h
Sensor: Nr:Datum:Temp:Abs-Feuchte:Windchill:Wind:
Aussen-T/F 851 24-11-2010 02:12:04 3.4 C 4.52 g/m*3 3.4 C 0 km/h
852 24-11-2010 02:24:04 3.5 C 4.55 g/m*3 3.5 C 0 km/h
853 24-11-2010 02:36:04 3.3 C 4.43 g/m*3 3.3 C 0 km/h
854 24-11-2010 02:48:04 3.4 C 4.52 g/m*3 3.4 C 0 km/h
855 24-11-2010 03:00:04 3.5 C 4.49 g/m*3 3.5 C 0 km/h
856 24-11-2010 03:12:04 3.5 C 4.61 g/m*3 3.5 C 0 km/h
857 24-11-2010 03:24:04 3.5 C 4.61 g/m*3 3.5 C 0 km/h
858 24-11-2010 03:36:04 3.5 C 4.67 g/m*3 3.5 C 0 km/h
859 24-11-2010 03:48:04 3.6 C 4.7 g/m*3 3.6 C 0 km/h
860 24-11-2010 04:00:04 3.6 C 4.7 g/m*3 3.6 C 0 km/h
861 24-11-2010 04:12:04 3.5 C 4.67 g/m*3 3.5 C 0 km/h
862 24-11-2010 04:24:04 3.5 C 4.73 g/m*3 3.5 C 0 km/h
863 24-11-2010 04:36:04 3.4 C 4.7 g/m*3 3.4 C 0 km/h
864 24-11-2010 04:48:05 3.3 C 4.79 g/m*3 3.3 C 0 km/h
865 24-11-2010 05:00:05 3.1 C 4.85 g/m*3 3.1 C 0 km/h
866 24-11-2010 05:12:05 2.9 C 4.96 g/m*3 2.9 C 0 km/h
867 24-11-2010 05:24:05 2.9 C 5.02 g/m*3 2.9 C 0 km/h
868 24-11-2010 05:36:05 2.8 C 5.04 g/m*3 2.8 C 0 km/h
869 24-11-2010 05:48:05 2.9 C 5.14 g/m*3 2.9 C 0 km/h
870 24-11-2010 06:00:05 3 C 5.11 g/m*3 3 C 0 km/h
871 24-11-2010 06:12:05 3.2 C 5.12 g/m*3 3.2 C 0 km/h
872 24-11-2010 06:24:05 3.2 C 5.06 g/m*3 3.2 C 0 km/h
873 24-11-2010 06:36:05 3.3 C 5.04 g/m*3 3.3 C 0 km/h
874 24-11-2010 06:48:05 3.3 C 5.04 g/m*3 3.3 C 0 km/h
875 24-11-2010 07:00:05 3.4 C 5.01 g/m*3 3.4 C 0 km/h
Sensor: Nr:Datum:Temp:Abs-Feuchte:Windchill:Wind:
Aussen-T/F 876 24-11-2010 07:12:02 3.4 C 5.01 g/m*3 3.4 C 0 km/h
877 24-11-2010 07:24:03 3.3 C 5.04 g/m*3 3.3 C 0 km/h
878 24-11-2010 07:36:03 3.2 C 5 g/m*3 3.2 C 0 km/h
879 24-11-2010 07:48:01 3.4 C 5.01 g/m*3 3.4 C 0 km/h
880 24-11-2010 08:00:01 3.5 C 5.04 g/m*3 3.5 C 0 km/h
881 24-11-2010 08:12:01 3.4 C 4.95 g/m*3 3.4 C 0 km/h
882 24-11-2010 08:24:01 3.3 C 5.04 g/m*3 3.3 C 0 km/h
883 24-11-2010 08:36:02 3.3 C 5.1 g/m*3 3.3 C 0 km/h
884 24-11-2010 08:48:02 3.6 C 5.26 g/m*3 3.6 C 0 km/h
885 24-11-2010 09:00:02 3.6 C 5.14 g/m*3 3.6 C 0 km/h
886 24-11-2010 09:12:02 4.1 C 5.06 g/m*3 4.1 C 0 km/h
887 24-11-2010 09:24:01 4.3 C 4.93 g/m*3 4.3 C 0 km/h
888 24-11-2010 09:36:02 4.5 C 4.93 g/m*3 4.5 C 0 km/h
889 24-11-2010 09:48:02 4.6 C 4.9 g/m*3 4.6 C 0 km/h
890 24-11-2010 10:00:02 4.8 C 4.83 g/m*3 4.8 C 0 km/h
891 24-11-2010 10:12:02 5.1 C 4.72 g/m*3 5.1 C 0 km/h
892 24-11-2010 10:24:02 5.2 C 4.68 g/m*3 5.2 C 0 km/h
893 24-11-2010 10:36:01 5.4 C 4.67 g/m*3 5.4 C 0 km/h
894 24-11-2010 10:48:02 5.6 C 4.6 g/m*3 5.6 C 0 km/h
895 24-11-2010 11:00:02 5.7 C 4.63 g/m*3 5.7 C 0 km/h
896 24-11-2010 11:12:01 4.9 C 4.73 g/m*3 4.9 C 0 km/h
897 24-11-2010 11:24:01 4.9 C 4.86 g/m*3 4.9 C 0 km/h
898 24-11-2010 11:36:02 5 C 4.89 g/m*3 5 C 0 km/h
899 24-11-2010 11:48:02 5.6 C 4.81 g/m*3 5.6 C 0 km/h
900 24-11-2010 12:00:02 5.6 C 4.6 g/m*3 5.6 C 0 km/h
Sensor: Nr:Datum:Temp:Abs-Feuchte:Windchill:Wind:
Aussen-T/F 901 24-11-2010 12:12:01 5.8 C 4.58 g/m*3 5.8 C 0 km/h
902 24-11-2010 12:24:02 6.1 C 4.53 g/m*3 6.1 C 0 km/h
903 24-11-2010 12:36:02 5.9 C 4.61 g/m*3 5.9 C 0 km/h
904 24-11-2010 12:48:01 5.6 C 4.52 g/m*3 5.6 C 0 km/h
905 24-11-2010 13:00:01 5.6 C 4.6 g/m*3 5.6 C 0 km/h
906 24-11-2010 13:12:02 5.6 C 4.67 g/m*3 5.6 C 0 km/h
907 24-11-2010 13:24:01 5.4 C 4.54 g/m*3 5.4 C 0 km/h
908 24-11-2010 13:36:01 5.1 C 4.58 g/m*3 5.1 C 0 km/h
909 24-11-2010 13:48:01 5.1 C 4.65 g/m*3 5.1 C 0 km/h
910 24-11-2010 14:00:01 4.9 C 4.73 g/m*3 4.9 C 0 km/h
911 24-11-2010 14:12:02 4.7 C 5 g/m*3 4.7 C 0 km/h
912 24-11-2010 14:24:01 4.5 C 5.19 g/m*3 4.5 C 0 km/h
913 24-11-2010 14:36:01 4.3 C 5.25 g/m*3 4.3 C 0 km/h
914 24-11-2010 14:48:01 4 C 5.21 g/m*3 4 C 0 km/h
915 24-11-2010 15:00:01 3.5 C 5.04 g/m*3 3.5 C 0 km/h
916 24-11-2010 15:12:02 3.4 C 5.13 g/m*3 3.4 C 0 km/h
917 24-11-2010 15:24:02 3.5 C 5.29 g/m*3 3.5 C 0 km/h
918 24-11-2010 15:36:01 3.5 C 5.35 g/m*3 3.5 C 0 km/h
919 24-11-2010 15:48:02 3.5 C 5.41 g/m*3 3.5 C 0 km/h
920 24-11-2010 16:00:02 3.5 C 5.41 g/m*3 3.5 C 0 km/h
921 24-11-2010 16:12:01 3.5 C 5.35 g/m*3 3.5 C 0 km/h
922 24-11-2010 16:24:02 3.3 C 5.16 g/m*3 3.3 C 0 km/h
923 24-11-2010 16:36:01 3.1 C 5.09 g/m*3 3.1 C 0 km/h
924 24-11-2010 16:48:02 3.1 C 5.09 g/m*3 3.1 C 0 km/h
925 24-11-2010 17:00:02 3 C 5.05 g/m*3 3 C 0 km/h
Sensor: Nr:Datum:Temp:Abs-Feuchte:Windchill:Wind:
Aussen-T/F 926 24-11-2010 17:12:02 3 C 5.05 g/m*3 3 C 0 km/h
927 24-11-2010 17:24:02 2.4 C 4.91 g/m*3 2.4 C 0 km/h
928 24-11-2010 17:36:02 1.6 C 4.7 g/m*3 1.6 C 0 km/h
929 24-11-2010 17:48:02 1.4 C 4.69 g/m*3 1.4 C 0 km/h
930 24-11-2010 18:00:02 1.4 C 4.75 g/m*3 1.4 C 0 km/h
931 24-11-2010 18:12:01 1.5 C 4.83 g/m*3 1.5 C 0 km/h
932 24-11-2010 18:24:01 1.6 C 4.92 g/m*3 1.6 C 0 km/h
933 24-11-2010 18:36:02 1.7 C 4.95 g/m*3 1.7 C 0 km/h
934 24-11-2010 18:48:02 2 C 5.06 g/m*3 2 C 0 km/h
935 24-11-2010 19:00:02 2 C 5.06 g/m*3 2 C 0 km/h
936 24-11-2010 19:12:02 2.2 C 5.13 g/m*3 2.2 C 0 km/h
937 24-11-2010 19:24:02 2.1 C 5.09 g/m*3 2.1 C 0 km/h
938 24-11-2010 19:36:02 1.9 C 5.08 g/m*3 1.9 C 0 km/h
939 24-11-2010 19:48:02 1.9 C 5.08 g/m*3 1.9 C 0 km/h
940 24-11-2010 20:00:02 1.5 C 4.94 g/m*3 1.5 C 0 km/h
941 24-11-2010 20:12:02 1.3 C 4.87 g/m*3 1.3 C 0 km/h
942 24-11-2010 20:24:02 1.4 C 4.91 g/m*3 1.4 C 0 km/h
943 24-11-2010 20:36:02 1.3 C 4.87 g/m*3 1.3 C 0 km/h
944 24-11-2010 20:48:02 1.6 C 4.97 g/m*3 1.6 C 0 km/h
945 24-11-2010 21:00:02 1.9 C 5.08 g/m*3 1.9 C 0 km/h
946 24-11-2010 21:12:02 1.3 C 4.87 g/m*3 1.3 C 0 km/h
947 24-11-2010 21:24:02 1 C 4.78 g/m*3 1 C 0 km/h
948 24-11-2010 21:36:03 1.2 C 4.84 g/m*3 1.2 C 0 km/h
949 24-11-2010 21:49:04 1.7 C 5.01 g/m*3 1.7 C 0 km/h
950 24-11-2010 22:01:04 2 C 5.11 g/m*3 2 C 0 km/h
Sensor: Nr:Datum:Temp:Abs-Feuchte:Windchill:Wind:
Aussen-T/F 951 24-11-2010 22:13:04 2.2 C 5.18 g/m*3 2.2 C 0 km/h
952 24-11-2010 22:25:04 2.3 C 5.22 g/m*3 2.3 C 0 km/h
953 24-11-2010 22:37:05 2.1 C 5.09 g/m*3 2.1 C 0 km/h
954 24-11-2010 22:49:05 2.1 C 5.04 g/m*3 2.1 C 0 km/h
955 24-11-2010 23:01:05 2.1 C 5.04 g/m*3 2.1 C 0 km/h
956 24-11-2010 23:13:05 2.1 C 4.98 g/m*3 2.1 C 0 km/h
957 24-11-2010 23:25:05 2.6 C 5.15 g/m*3 2.6 C 0 km/h
958 24-11-2010 23:37:05 2.6 C 5.09 g/m*3 2.6 C 0 km/h
959 24-11-2010 23:49:05 2.6 C 5.03 g/m*3 2.6 C 0 km/h
960 25-11-2010 00:01:05 2.4 C 4.91 g/m*3 2.4 C 0 km/h
961 25-11-2010 00:13:05 2.6 C 4.98 g/m*3 2.6 C 0 km/h
962 25-11-2010 00:25:05 2.4 C 4.91 g/m*3 2.4 C 0 km/h
963 25-11-2010 00:37:05 2.5 C 4.94 g/m*3 2.5 C 0 km/h
964 25-11-2010 00:49:05 2.6 C 4.92 g/m*3 2.6 C 0 km/h
965 25-11-2010 01:01:05 2.6 C 4.92 g/m*3 2.6 C 0 km/h
966 25-11-2010 01:13:05 3.1 C 4.97 g/m*3 3.1 C 0 km/h
967 25-11-2010 01:25:05 3 C 4.76 g/m*3 3 C 0 km/h
968 25-11-2010 01:37:05 2.9 C 4.78 g/m*3 2.9 C 0 km/h
969 25-11-2010 01:49:05 3.1 C 4.67 g/m*3 3.1 C 0 km/h
970 25-11-2010 02:01:05 3 C 4.52 g/m*3 3 C 0 km/h
971 25-11-2010 02:13:05 2.9 C 4.55 g/m*3 2.9 C 0 km/h
972 25-11-2010 02:25:05 2.7 C 4.54 g/m*3 2.7 C 0 km/h
973 25-11-2010 02:37:05 2.6 C 4.57 g/m*3 2.6 C 0 km/h
974 25-11-2010 02:49:06 2.6 C 4.57 g/m*3 2.6 C 0 km/h
975 25-11-2010 03:01:06 2.5 C 4.6 g/m*3 2.5 C 0 km/h
Sensor: Nr:Datum:Temp:Abs-Feuchte:Windchill:Wind:
Aussen-T/F 976 25-11-2010 03:13:06 3 C 4.52 g/m*3 3 C 0 km/h
977 25-11-2010 03:25:06 3.1 C 4.37 g/m*3 3.1 C 0 km/h
978 25-11-2010 03:37:06 2.9 C 4.31 g/m*3 2.9 C 0 km/h
979 25-11-2010 03:49:06 2.6 C 4.34 g/m*3 2.6 C 0 km/h
980 25-11-2010 04:01:06 2.5 C 4.31 g/m*3 2.5 C 0 km/h
981 25-11-2010 04:13:06 2 C 4.17 g/m*3 2 C 0 km/h
982 25-11-2010 04:25:06 1.9 C 4.19 g/m*3 1.9 C 0 km/h
983 25-11-2010 04:37:06 1.7 C 4.14 g/m*3 1.7 C 0 km/h
984 25-11-2010 04:49:06 2 C 4.17 g/m*3 2 C 0 km/h
985 25-11-2010 05:01:06 1.5 C 4.03 g/m*3 1.5 C 0 km/h
986 25-11-2010 05:13:06 1.4 C 4.11 g/m*3 1.4 C 0 km/h
987 25-11-2010 05:25:06 1.7 C 4.19 g/m*3 1.7 C 0 km/h
988 25-11-2010 05:37:06 0.9 C 4.02 g/m*3 0.9 C 0 km/h
989 25-11-2010 05:49:06 1 C 4.05 g/m*3 1 C 0 km/h
990 25-11-2010 06:01:06 0.9 C 4.02 g/m*3 0.9 C 0 km/h
991 25-11-2010 06:13:06 1.4 C 4.21 g/m*3 1.4 C 0 km/h
992 25-11-2010 06:25:06 0.7 C 4.12 g/m*3 0.7 C 0 km/h
993 25-11-2010 06:37:06 0.1 C 4.05 g/m*3 0.1 C 0 km/h
994 25-11-2010 06:49:06 0.2 C 4.18 g/m*3 0.2 C 0 km/h
995 25-11-2010 07:01:07 0.3 C 4.25 g/m*3 0.3 C 0 km/h
996 25-11-2010 07:13:07 0.3 C 4.3 g/m*3 0.3 C 0 km/h
997 25-11-2010 07:25:04 0.2 C 4.27 g/m*3 0.2 C 0 km/h
998 25-11-2010 07:37:04 -0.2 C 4.21 g/m*3 -0.2 C 0 km/h
999 25-11-2010 07:49:02 -0.3 C 4.18 g/m*3 -0.3 C 0 km/h
1000 25-11-2010 08:01:01 -0.4 C 4.15 g/m*3 -0.4 C 0 km/h
Sensor: Nr:Datum:Temp:Abs-Feuchte:Windchill:Wind:
Aussen-T/F 1001 25-11-2010 08:13:01 -0.2 C 4.25 g/m*3 -0.2 C 0 km/h
1002 25-11-2010 08:25:02 -0.4 C 4.19 g/m*3 -0.4 C 0 km/h
1003 25-11-2010 08:37:02 -0.4 C 4.19 g/m*3 -0.4 C 0 km/h
1004 25-11-2010 08:49:02 0 C 4.36 g/m*3 0 C 0 km/h
1005 25-11-2010 09:01:02 0.4 C 4.48 g/m*3 0.4 C 0 km/h
1006 25-11-2010 09:13:02 0.5 C 4.46 g/m*3 0.5 C 0 km/h
1007 25-11-2010 09:25:01 0.7 C 4.47 g/m*3 0.7 C 0 km/h
1008 25-11-2010 09:37:01 0.7 C 4.42 g/m*3 0.7 C 0 km/h
1009 25-11-2010 09:49:03 0.6 C 4.39 g/m*3 0.6 C 0 km/h
1010 25-11-2010 10:01:02 0.4 C 4.28 g/m*3 0.4 C 0 km/h
1011 25-11-2010 10:13:02 0.6 C 4.39 g/m*3 0.6 C 0 km/h
1012 25-11-2010 10:25:02 0.9 C 4.48 g/m*3 0.9 C 0 km/h
1013 25-11-2010 10:37:02 1 C 4.46 g/m*3 1 C 0 km/h
1014 25-11-2010 10:49:02 1.1 C 4.49 g/m*3 1.1 C 0 km/h
1015 25-11-2010 11:01:01 1.2 C 4.47 g/m*3 1.2 C 0 km/h
1016 25-11-2010 11:13:01 1.4 C 4.53 g/m*3 1.4 C 0 km/h
1017 25-11-2010 11:25:02 1.9 C 4.58 g/m*3 1.9 C 0 km/h
1018 25-11-2010 11:37:02 2.2 C 4.56 g/m*3 2.2 C 0 km/h
1019 25-11-2010 11:49:02 2.1 C 4.48 g/m*3 2.1 C 0 km/h
1020 25-11-2010 12:01:02 1.7 C 4.41 g/m*3 1.7 C 0 km/h
1021 25-11-2010 12:13:02 1.5 C 4.4 g/m*3 1.5 C 0 km/h
1022 25-11-2010 12:25:02 1.4 C 4.43 g/m*3 1.4 C 0 km/h
1023 25-11-2010 12:37:02 2.4 C 4.74 g/m*3 2.4 C 0 km/h
1024 25-11-2010 12:49:01 3 C 4.58 g/m*3 3 C 0 km/h
1025 25-11-2010 13:01:02 3.3 C 4.43 g/m*3 3.3 C 0 km/h
Sensor: Nr:Datum:Temp:Abs-Feuchte:Windchill:Wind:
Aussen-T/F 1026 25-11-2010 13:13:03 3.4 C 4.28 g/m*3 3.4 C 0 km/h
1027 25-11-2010 13:25:01 3.6 C 4.15 g/m*3 3.6 C 0 km/h
1028 25-11-2010 13:37:01 3.5 C 4.12 g/m*3 3.5 C 0 km/h
1029 25-11-2010 13:49:01 3.6 C 4.15 g/m*3 3.6 C 0 km/h
1030 25-11-2010 14:01:01 3.6 C 4.09 g/m*3 3.6 C 0 km/h
1031 25-11-2010 14:13:01 3.7 C 4.11 g/m*3 3.7 C 0 km/h
1032 25-11-2010 14:25:02 3.7 C 4.05 g/m*3 3.7 C 0 km/h
1033 25-11-2010 14:37:01 3.6 C 4.09 g/m*3 3.6 C 0 km/h
1034 25-11-2010 14:49:02 3.7 C 3.8 g/m*3 3.7 C 0 km/h
1035 25-11-2010 15:01:01 3.8 C 3.89 g/m*3 3.8 C 0 km/h
1036 25-11-2010 15:13:01 3.8 C 3.89 g/m*3 3.8 C 0 km/h
1037 25-11-2010 15:25:01 3.5 C 3.75 g/m*3 3.5 C 0 km/h
1038 25-11-2010 15:37:01 2.9 C 4.07 g/m*3 2.9 C 0 km/h
1039 25-11-2010 15:49:02 2.4 C 4.17 g/m*3 2.4 C 0 km/h
1040 25-11-2010 16:01:02 2.2 C 4.17 g/m*3 2.2 C 0 km/h
1041 25-11-2010 16:13:02 2 C 4.17 g/m*3 2 C 0 km/h
1042 25-11-2010 16:25:02 1.8 C 4.22 g/m*3 1.8 C 0 km/h
1043 25-11-2010 16:37:02 2.1 C 4.25 g/m*3 2.1 C 0 km/h
1044 25-11-2010 16:49:02 2.1 C 4.25 g/m*3 2.1 C 0 km/h
1045 25-11-2010 17:01:02 2.1 C 4.25 g/m*3 2.1 C 0 km/h
1046 25-11-2010 17:13:02 2.1 C 4.36 g/m*3 2.1 C 0 km/h
1047 25-11-2010 17:25:01 2 C 4.39 g/m*3 2 C 0 km/h
1048 25-11-2010 17:37:02 2 C 4.33 g/m*3 2 C 0 km/h
1049 25-11-2010 17:49:02 2 C 4.39 g/m*3 2 C 0 km/h
1050 25-11-2010 18:01:02 2 C 4.39 g/m*3 2 C 0 km/h
Sensor: Nr:Datum:Temp:Abs-Feuchte:Windchill:Wind:
Aussen-T/F 1051 25-11-2010 18:13:02 1.8 C 4.39 g/m*3 1.8 C 0 km/h
1052 25-11-2010 18:25:02 1.9 C 4.53 g/m*3 1.9 C 0 km/h
1053 25-11-2010 18:37:02 1.8 C 4.49 g/m*3 1.8 C 0 km/h
1054 25-11-2010 18:49:02 1.2 C 4.31 g/m*3 1.2 C 0 km/h
1055 25-11-2010 19:01:02 0.9 C 4.28 g/m*3 0.9 C 0 km/h
1056 25-11-2010 19:13:02 0.8 C 4.3 g/m*3 0.8 C 0 km/h
1057 25-11-2010 19:25:01 0.9 C 4.38 g/m*3 0.9 C 0 km/h
1058 25-11-2010 19:37:02 1.1 C 4.49 g/m*3 1.1 C 0 km/h
1059 25-11-2010 19:49:01 1.2 C 4.47 g/m*3 1.2 C 0 km/h
1060 25-11-2010 20:01:02 0.8 C 4.4 g/m*3 0.8 C 0 km/h
1061 25-11-2010 20:13:03 0.8 C 4.4 g/m*3 0.8 C 0 km/h
1062 25-11-2010 20:25:01 0.7 C 4.42 g/m*3 0.7 C 0 km/h
1063 25-11-2010 20:37:02 0.5 C 4.36 g/m*3 0.5 C 0 km/h
1064 25-11-2010 20:50:04 0.7 C 4.42 g/m*3 0.7 C 0 km/h
1065 25-11-2010 21:02:04 0.9 C 4.48 g/m*3 0.9 C 0 km/h
1066 25-11-2010 21:14:04 1.2 C 4.53 g/m*3 1.2 C 0 km/h
1067 25-11-2010 21:26:04 1.4 C 4.53 g/m*3 1.4 C 0 km/h
1068 25-11-2010 21:38:04 1.4 C 4.48 g/m*3 1.4 C 0 km/h
1069 25-11-2010 21:50:04 1.3 C 4.45 g/m*3 1.3 C 0 km/h
1070 25-11-2010 22:02:04 1.4 C 4.48 g/m*3 1.4 C 0 km/h
1071 25-11-2010 22:14:04 1.3 C 4.45 g/m*3 1.3 C 0 km/h
1072 25-11-2010 22:26:04 1.3 C 4.5 g/m*3 1.3 C 0 km/h
1073 25-11-2010 22:38:05 1.3 C 4.5 g/m*3 1.3 C 0 km/h
1074 25-11-2010 22:50:05 1.4 C 4.53 g/m*3 1.4 C 0 km/h
1075 25-11-2010 23:02:05 1.2 C 4.47 g/m*3 1.2 C 0 km/h
Sensor: Nr:Datum:Temp:Abs-Feuchte:Windchill:Wind:
Aussen-T/F 1076 25-11-2010 23:14:05 1.3 C 4.5 g/m*3 1.3 C 0 km/h
1077 25-11-2010 23:26:05 1.4 C 4.53 g/m*3 1.4 C 0 km/h
1078 25-11-2010 23:38:05 1.5 C 4.57 g/m*3 1.5 C 0 km/h
1079 25-11-2010 23:50:05 1.4 C 4.53 g/m*3 1.4 C 0 km/h
1080 26-11-2010 00:02:05 1.4 C 4.53 g/m*3 1.4 C 0 km/h
1081 26-11-2010 00:14:05 1.6 C 4.6 g/m*3 1.6 C 0 km/h
1082 26-11-2010 00:26:05 1.6 C 4.6 g/m*3 1.6 C 0 km/h
1083 26-11-2010 00:38:05 1.4 C 4.48 g/m*3 1.4 C 0 km/h
1084 26-11-2010 00:50:05 1 C 4.36 g/m*3 1 C 0 km/h
1085 26-11-2010 01:02:05 0.9 C 4.43 g/m*3 0.9 C 0 km/h
1086 26-11-2010 01:14:05 1.1 C 4.49 g/m*3 1.1 C 0 km/h
1087 26-11-2010 01:26:05 1.1 C 4.55 g/m*3 1.1 C 0 km/h
1088 26-11-2010 01:38:05 1.2 C 4.53 g/m*3 1.2 C 0 km/h
1089 26-11-2010 01:50:05 1 C 4.46 g/m*3 1 C 0 km/h
1090 26-11-2010 02:02:05 1 C 4.46 g/m*3 1 C 0 km/h
1091 26-11-2010 02:14:05 1.1 C 4.49 g/m*3 1.1 C 0 km/h
1092 26-11-2010 02:26:05 1 C 4.46 g/m*3 1 C 0 km/h
1093 26-11-2010 02:38:05 1.1 C 4.49 g/m*3 1.1 C 0 km/h
1094 26-11-2010 02:50:06 1.1 C 4.44 g/m*3 1.1 C 0 km/h
1095 26-11-2010 03:02:06 1.1 C 4.49 g/m*3 1.1 C 0 km/h
1096 26-11-2010 03:14:06 1.2 C 4.47 g/m*3 1.2 C 0 km/h
1097 26-11-2010 03:26:06 0.6 C 4.29 g/m*3 0.6 C 0 km/h
1098 26-11-2010 03:38:06 0.4 C 4.28 g/m*3 0.4 C 0 km/h
1099 26-11-2010 03:50:06 0.4 C 4.33 g/m*3 0.4 C 0 km/h
1100 26-11-2010 04:02:06 0.4 C 4.38 g/m*3 0.4 C 0 km/h
Sensor: Nr:Datum:Temp:Abs-Feuchte:Windchill:Wind:
Aussen-T/F 1101 26-11-2010 04:14:06 0.3 C 4.35 g/m*3 0.3 C 0 km/h
1102 26-11-2010 04:26:06 0.3 C 4.4 g/m*3 0.3 C 0 km/h
1103 26-11-2010 04:38:06 0.3 C 4.4 g/m*3 0.3 C 0 km/h
1104 26-11-2010 04:50:06 0.3 C 4.45 g/m*3 0.3 C 0 km/h
1105 26-11-2010 05:02:06 0.3 C 4.45 g/m*3 0.3 C 0 km/h
1106 26-11-2010 05:14:06 0.1 C 4.39 g/m*3 0.1 C 0 km/h
1107 26-11-2010 05:26:06 0.2 C 4.47 g/m*3 0.2 C 0 km/h
1108 26-11-2010 05:38:06 0.3 C 4.5 g/m*3 0.3 C 0 km/h
1109 26-11-2010 05:50:06 0.4 C 4.53 g/m*3 0.4 C 0 km/h
1110 26-11-2010 06:02:06 0.4 C 4.53 g/m*3 0.4 C 0 km/h
1111 26-11-2010 06:14:06 0.4 C 4.53 g/m*3 0.4 C 0 km/h
1112 26-11-2010 06:26:06 0.2 C 4.47 g/m*3 0.2 C 0 km/h
1113 26-11-2010 06:38:06 0.1 C 4.44 g/m*3 0.1 C 0 km/h
1114 26-11-2010 06:50:07 0 C 4.46 g/m*3 0 C 0 km/h
1115 26-11-2010 07:02:03 0 C 4.46 g/m*3 0 C 0 km/h
1116 26-11-2010 07:14:03 0 C 4.46 g/m*3 0 C 0 km/h
1117 26-11-2010 07:26:03 0 C 4.46 g/m*3 0 C 0 km/h
1118 26-11-2010 07:38:03 0 C 4.46 g/m*3 0 C 0 km/h
1119 26-11-2010 07:50:01 0 C 4.46 g/m*3 0 C 0 km/h
1120 26-11-2010 08:02:02 0 C 4.46 g/m*3 0 C 0 km/h
1121 26-11-2010 08:14:02 0 C 4.46 g/m*3 0 C 0 km/h
1122 26-11-2010 08:26:01 0 C 4.46 g/m*3 0 C 0 km/h
1123 26-11-2010 08:38:01 0.1 C 4.54 g/m*3 0.1 C 0 km/h
1124 26-11-2010 08:50:01 0.1 C 4.54 g/m*3 0.1 C 0 km/h
1125 26-11-2010 09:02:01 0.1 C 4.54 g/m*3 0.1 C 0 km/h
Sensor: Nr:Datum:Temp:Abs-Feuchte:Windchill:Wind:
Aussen-T/F 1126 26-11-2010 09:14:01 0.1 C 4.54 g/m*3 0.1 C 0 km/h
1127 26-11-2010 09:26:01 0.1 C 4.54 g/m*3 0.1 C 0 km/h
1128 26-11-2010 09:38:02 0.2 C 4.57 g/m*3 0.2 C 0 km/h
1129 26-11-2010 09:50:02 0.2 C 4.57 g/m*3 0.2 C 0 km/h
1130 26-11-2010 10:02:01 0.4 C 4.63 g/m*3 0.4 C 0 km/h
1131 26-11-2010 10:14:01 0.4 C 4.63 g/m*3 0.4 C 0 km/h
1132 26-11-2010 10:26:02 0.5 C 4.61 g/m*3 0.5 C 0 km/h
1133 26-11-2010 10:38:02 0.7 C 4.68 g/m*3 0.7 C 0 km/h
1134 26-11-2010 10:50:01 0.9 C 4.74 g/m*3 0.9 C 0 km/h
1135 26-11-2010 11:02:02 1 C 4.67 g/m*3 1 C 0 km/h
1136 26-11-2010 11:14:02 1 C 4.62 g/m*3 1 C 0 km/h
1137 26-11-2010 11:26:01 1.2 C 4.63 g/m*3 1.2 C 0 km/h
1138 26-11-2010 11:38:01 1.2 C 4.58 g/m*3 1.2 C 0 km/h
1139 26-11-2010 11:50:01 1.2 C 4.53 g/m*3 1.2 C 0 km/h
1140 26-11-2010 12:02:02 1.1 C 4.49 g/m*3 1.1 C 0 km/h
1141 26-11-2010 12:14:02 1.1 C 4.49 g/m*3 1.1 C 0 km/h
1142 26-11-2010 12:26:01 0.8 C 4.4 g/m*3 0.8 C 0 km/h
1143 26-11-2010 12:38:02 0.7 C 4.37 g/m*3 0.7 C 0 km/h
1144 26-11-2010 12:50:01 0.5 C 4.31 g/m*3 0.5 C 0 km/h
1145 26-11-2010 13:02:02 0.4 C 4.28 g/m*3 0.4 C 0 km/h
1146 26-11-2010 13:14:02 0.6 C 4.34 g/m*3 0.6 C 0 km/h
1147 26-11-2010 13:26:02 1 C 4.46 g/m*3 1 C 0 km/h
1148 26-11-2010 13:38:01 1.3 C 4.5 g/m*3 1.3 C 0 km/h
1149 26-11-2010 13:50:01 1.2 C 4.26 g/m*3 1.2 C 0 km/h
1150 26-11-2010 14:02:01 1.4 C 4.21 g/m*3 1.4 C 0 km/h
Sensor: Nr:Datum:Temp:Abs-Feuchte:Windchill:Wind:
Aussen-T/F 1151 26-11-2010 14:14:01 1.5 C 4.19 g/m*3 1.5 C 0 km/h
1152 26-11-2010 14:26:02 1.5 C 4.14 g/m*3 1.5 C 0 km/h
1153 26-11-2010 14:38:01 1.8 C 4.17 g/m*3 1.8 C 0 km/h
1154 26-11-2010 14:50:03 1.8 C 4.17 g/m*3 1.8 C 0 km/h
1155 26-11-2010 15:02:02 1.4 C 3.79 g/m*3 1.4 C 0 km/h
1156 26-11-2010 15:14:02 1 C 3.74 g/m*3 1 C 0 km/h
1157 26-11-2010 15:26:02 0.9 C 3.81 g/m*3 0.9 C 0 km/h
1158 26-11-2010 15:38:02 0.7 C 3.86 g/m*3 0.7 C 0 km/h
1159 26-11-2010 15:50:02 0 C 3.78 g/m*3 0 C 0 km/h
1160 26-11-2010 16:02:01 -0.8 C 3.71 g/m*3 -0.8 C 0 km/h
1161 26-11-2010 16:14:01 -1.1 C 3.73 g/m*3 -1.1 C 0 km/h
1162 26-11-2010 16:26:02 -1.6 C 3.68 g/m*3 -1.6 C 0 km/h
1163 26-11-2010 16:38:02 -1.8 C 3.68 g/m*3 -1.8 C 0 km/h
1164 26-11-2010 16:50:02 -2.1 C 3.64 g/m*3 -2.1 C 0 km/h
1165 26-11-2010 17:02:03 -2.2 C 3.66 g/m*3 -2.2 C 0 km/h
1166 26-11-2010 17:14:03 -2.4 C 3.61 g/m*3 -2.4 C 0 km/h
1167 26-11-2010 17:26:02 -2.5 C 3.62 g/m*3 -2.5 C 0 km/h
1168 26-11-2010 17:38:02 -2.5 C 3.62 g/m*3 -2.5 C 0 km/h
1169 26-11-2010 17:50:01 -2.2 C 3.74 g/m*3 -2.2 C 0 km/h
1170 26-11-2010 18:02:02 -1.5 C 3.93 g/m*3 -1.5 C 0 km/h
1171 26-11-2010 18:14:02 -1.3 C 4.03 g/m*3 -1.3 C 0 km/h
1172 26-11-2010 18:26:01 -1.3 C 4.03 g/m*3 -1.3 C 0 km/h
1173 26-11-2010 18:38:01 -1.4 C 4 g/m*3 -1.4 C 0 km/h
1174 26-11-2010 18:50:01 -1.4 C 4 g/m*3 -1.4 C 0 km/h
1175 26-11-2010 19:02:02 -1.4 C 4 g/m*3 -1.4 C 0 km/h
Sensor: Nr:Datum:Temp:Abs-Feuchte:Windchill:Wind:
Aussen-T/F 1176 26-11-2010 19:14:02 -1.4 C 4 g/m*3 -1.4 C 0 km/h
1177 26-11-2010 19:26:01 -1.4 C 4 g/m*3 -1.4 C 0 km/h
1178 26-11-2010 19:38:01 -1.6 C 3.94 g/m*3 -1.6 C 0 km/h
1179 26-11-2010 19:50:02 -1.9 C 3.86 g/m*3 -1.9 C 0 km/h
1180 26-11-2010 20:02:02 -1.8 C 3.89 g/m*3 -1.8 C 0 km/h
1181 26-11-2010 20:14:02 -1.9 C 3.86 g/m*3 -1.9 C 0 km/h
1182 26-11-2010 20:26:02 -1.7 C 3.92 g/m*3 -1.7 C 0 km/h
1183 26-11-2010 20:38:02 -1.9 C 3.86 g/m*3 -1.9 C 0 km/h
1184 26-11-2010 20:50:02 -2.5 C 3.7 g/m*3 -2.5 C 0 km/h
1185 26-11-2010 21:02:01 -2.2 C 3.78 g/m*3 -2.2 C 0 km/h
1186 26-11-2010 21:14:01 -2 C 3.84 g/m*3 -2 C 0 km/h
1187 26-11-2010 21:26:02 -2.3 C 3.76 g/m*3 -2.3 C 0 km/h
1188 26-11-2010 21:38:02 -2.6 C 3.68 g/m*3 -2.6 C 0 km/h
1189 26-11-2010 21:50:02 -2.6 C 3.68 g/m*3 -2.6 C 0 km/h
1190 26-11-2010 22:02:02 -3 C 3.57 g/m*3 -3 C 0 km/h
1191 26-11-2010 22:14:02 -3.3 C 3.46 g/m*3 -3.3 C 0 km/h
1192 26-11-2010 22:26:02 -3.1 C 3.55 g/m*3 -3.1 C 0 km/h
1193 26-11-2010 22:38:02 -3.2 C 3.52 g/m*3 -3.2 C 0 km/h
1194 26-11-2010 22:50:02 -3.6 C 3.39 g/m*3 -3.6 C 0 km/h
1195 26-11-2010 23:03:02 -3.8 C 3.34 g/m*3 -3.8 C 0 km/h
1196 26-11-2010 23:15:02 -3.8 C 3.34 g/m*3 -3.8 C 0 km/h
1197 26-11-2010 23:27:02 -3.9 C 3.32 g/m*3 -3.9 C 0 km/h
1198 26-11-2010 23:39:02 -3.7 C 3.36 g/m*3 -3.7 C 0 km/h
1199 26-11-2010 23:51:02 -3.6 C 3.39 g/m*3 -3.6 C 0 km/h
1200 27-11-2010 00:03:02 -4 C 3.29 g/m*3 -4 C 0 km/h
Sensor: Nr:Datum:Temp:Abs-Feuchte:Windchill:Wind:
Aussen-T/F 1201 27-11-2010 00:15:02 -4.1 C 3.27 g/m*3 -4.1 C 0 km/h
1202 27-11-2010 00:27:02 -4.2 C 3.25 g/m*3 -4.2 C 0 km/h
1203 27-11-2010 00:39:02 -4.1 C 3.27 g/m*3 -4.1 C 0 km/h
1204 27-11-2010 00:51:02 -4 C 3.29 g/m*3 -4 C 0 km/h
1205 27-11-2010 01:03:02 -3.1 C 3.51 g/m*3 -3.1 C 0 km/h
1206 27-11-2010 01:15:02 -2.7 C 3.61 g/m*3 -2.7 C 0 km/h
1207 27-11-2010 01:27:02 -3.7 C 3.36 g/m*3 -3.7 C 0 km/h
1208 27-11-2010 01:39:02 -4.3 C 3.19 g/m*3 -4.3 C 0 km/h
1209 27-11-2010 01:51:03 -3.9 C 3.28 g/m*3 -3.9 C 0 km/h
1210 27-11-2010 02:03:03 -3.9 C 3.28 g/m*3 -3.9 C 0 km/h
1211 27-11-2010 02:15:03 -4.1 C 3.2 g/m*3 -4.1 C 0 km/h
1212 27-11-2010 02:27:03 -4.5 C 3.11 g/m*3 -4.5 C 0 km/h
1213 27-11-2010 02:39:03 -4 C 3.22 g/m*3 -4 C 0 km/h
1214 27-11-2010 02:51:03 -3.2 C 3.45 g/m*3 -3.2 C 0 km/h
1215 27-11-2010 03:03:03 -2.8 C 3.55 g/m*3 -2.8 C 0 km/h
1216 27-11-2010 03:15:03 -2.7 C 3.61 g/m*3 -2.7 C 0 km/h
1217 27-11-2010 03:27:03 -2.9 C 3.52 g/m*3 -2.9 C 0 km/h
1218 27-11-2010 03:39:03 -3.5 C 3.37 g/m*3 -3.5 C 0 km/h
1219 27-11-2010 03:51:03 -3.9 C 3.24 g/m*3 -3.9 C 0 km/h
1220 27-11-2010 04:03:03 -4.1 C 3.2 g/m*3 -4.1 C 0 km/h
1221 27-11-2010 04:15:03 -4 C 3.22 g/m*3 -4 C 0 km/h
1222 27-11-2010 04:27:03 -4.1 C 3.2 g/m*3 -4.1 C 0 km/h
1223 27-11-2010 04:39:03 -4 C 3.22 g/m*3 -4 C 0 km/h
1224 27-11-2010 04:51:03 -4.4 C 3.13 g/m*3 -4.4 C 0 km/h
1225 27-11-2010 05:03:03 -4.5 C 3.11 g/m*3 -4.5 C 0 km/h
Sensor: Nr:Datum:Temp:Abs-Feuchte:Windchill:Wind:
Aussen-T/F 1226 27-11-2010 05:15:03 -4.7 C 3.03 g/m*3 -4.7 C 0 km/h
1227 27-11-2010 05:27:03 -4.4 C 3.13 g/m*3 -4.4 C 0 km/h
1228 27-11-2010 05:39:03 -4 C 3.22 g/m*3 -4 C 0 km/h
1229 27-11-2010 05:51:03 -3.8 C 3.27 g/m*3 -3.8 C 0 km/h
1230 27-11-2010 06:03:04 -3.7 C 3.29 g/m*3 -3.7 C 0 km/h
1231 27-11-2010 06:15:04 -3.4 C 3.4 g/m*3 -3.4 C 0 km/h
1232 27-11-2010 06:27:04 -3.4 C 3.4 g/m*3 -3.4 C 0 km/h
1233 27-11-2010 06:39:04 -3.5 C 3.34 g/m*3 -3.5 C 0 km/h
1234 27-11-2010 06:51:04 -3.6 C 3.31 g/m*3 -3.6 C 0 km/h
1235 27-11-2010 07:03:04 -3.8 C 3.27 g/m*3 -3.8 C 0 km/h
1236 27-11-2010 07:15:04 -3.4 C 3.36 g/m*3 -3.4 C 0 km/h
1237 27-11-2010 07:27:04 -3.5 C 3.34 g/m*3 -3.5 C 0 km/h
1238 27-11-2010 07:39:04 -3.6 C 3.31 g/m*3 -3.6 C 0 km/h
1239 27-11-2010 07:51:04 -3.4 C 3.36 g/m*3 -3.4 C 0 km/h
1240 27-11-2010 08:03:04 -3.5 C 3.34 g/m*3 -3.5 C 0 km/h
1241 27-11-2010 08:15:04 -3.4 C 3.36 g/m*3 -3.4 C 0 km/h
1242 27-11-2010 08:27:04 -2.9 C 3.52 g/m*3 -2.9 C 0 km/h
1243 27-11-2010 08:39:04 -2.6 C 3.6 g/m*3 -2.6 C 0 km/h
1244 27-11-2010 08:51:04 -2.6 C 3.6 g/m*3 -2.6 C 0 km/h
1245 27-11-2010 09:03:04 -2.3 C 3.67 g/m*3 -2.3 C 0 km/h
1246 27-11-2010 09:15:04 -2 C 3.75 g/m*3 -2 C 0 km/h
1247 27-11-2010 09:27:04 -1.9 C 3.78 g/m*3 -1.9 C 0 km/h
1248 27-11-2010 09:39:04 -1.7 C 3.83 g/m*3 -1.7 C 0 km/h
1249 27-11-2010 09:51:04 -1.1 C 4 g/m*3 -1.1 C 0 km/h
1250 27-11-2010 10:03:02 -0.8 C 4.13 g/m*3 -0.8 C 0 km/h
Sensor: Nr:Datum:Temp:Abs-Feuchte:Windchill:Wind:
Aussen-T/F 1251 27-11-2010 10:15:02 -0.8 C 4.08 g/m*3 -0.8 C 0 km/h
1252 27-11-2010 10:27:02 -1 C 4.02 g/m*3 -1 C 0 km/h
1253 27-11-2010 10:39:01 -1 C 3.98 g/m*3 -1 C 0 km/h
1254 27-11-2010 10:51:02 -0.6 C 4.09 g/m*3 -0.6 C 0 km/h
1255 27-11-2010 11:03:01 -0.4 C 4.15 g/m*3 -0.4 C 0 km/h
1256 27-11-2010 11:15:02 -0.4 C 4.15 g/m*3 -0.4 C 0 km/h
1257 27-11-2010 11:27:02 -0.3 C 4.18 g/m*3 -0.3 C 0 km/h
1258 27-11-2010 11:39:01 0 C 4.26 g/m*3 0 C 0 km/h
1259 27-11-2010 11:51:02 0.1 C 4.2 g/m*3 0.1 C 0 km/h
1260 27-11-2010 12:03:02 0.2 C 4.13 g/m*3 0.2 C 0 km/h
1261 27-11-2010 12:15:02 0.3 C 4.06 g/m*3 0.3 C 0 km/h
1262 27-11-2010 12:27:02 0.4 C 4.03 g/m*3 0.4 C 0 km/h
1263 27-11-2010 12:39:03 0.6 C 3.99 g/m*3 0.6 C 0 km/h
1264 27-11-2010 12:51:02 0.4 C 3.79 g/m*3 0.4 C 0 km/h
1265 27-11-2010 13:03:02 0.7 C 3.86 g/m*3 0.7 C 0 km/h
1266 27-11-2010 13:15:02 0.7 C 3.86 g/m*3 0.7 C 0 km/h
1267 27-11-2010 13:27:02 0.7 C 3.92 g/m*3 0.7 C 0 km/h
1268 27-11-2010 13:39:02 1 C 4 g/m*3 1 C 0 km/h
1269 27-11-2010 13:51:02 1.2 C 3.89 g/m*3 1.2 C 0 km/h
1270 27-11-2010 14:03:02 1.4 C 3.95 g/m*3 1.4 C 0 km/h
1271 27-11-2010 14:15:02 1.5 C 3.87 g/m*3 1.5 C 0 km/h
1272 27-11-2010 14:27:02 1.5 C 3.71 g/m*3 1.5 C 0 km/h
1273 27-11-2010 14:39:02 1.7 C 3.7 g/m*3 1.7 C 0 km/h
1274 27-11-2010 14:51:01 1.3 C 3.71 g/m*3 1.3 C 0 km/h
1275 27-11-2010 15:03:02 1 C 3.74 g/m*3 1 C 0 km/h
Sensor: Nr:Datum:Temp:Abs-Feuchte:Windchill:Wind:
Aussen-T/F 1276 27-11-2010 15:15:01 1 C 3.84 g/m*3 1 C 0 km/h
1277 27-11-2010 15:27:01 0.8 C 3.79 g/m*3 0.8 C 0 km/h
1278 27-11-2010 15:39:01 0.7 C 3.81 g/m*3 0.7 C 0 km/h
1279 27-11-2010 15:51:01 0.3 C 3.81 g/m*3 0.3 C 0 km/h
1280 27-11-2010 16:03:01 -0.3 C 3.56 g/m*3 -0.3 C 0 km/h
1281 27-11-2010 16:15:02 -0.5 C 3.6 g/m*3 -0.5 C 0 km/h
1282 27-11-2010 16:27:02 -0.7 C 3.6 g/m*3 -0.7 C 0 km/h
1283 27-11-2010 16:39:01 -1 C 3.57 g/m*3 -1 C 0 km/h
1284 27-11-2010 16:51:02 -1.1 C 3.59 g/m*3 -1.1 C 0 km/h
1285 27-11-2010 17:03:01 -1 C 3.66 g/m*3 -1 C 0 km/h
1286 27-11-2010 17:15:02 -0.7 C 3.69 g/m*3 -0.7 C 0 km/h
1287 27-11-2010 17:27:02 -0.7 C 3.65 g/m*3 -0.7 C 0 km/h
1288 27-11-2010 17:39:01 -0.8 C 3.67 g/m*3 -0.8 C 0 km/h
1289 27-11-2010 17:51:02 -1.1 C 3.59 g/m*3 -1.1 C 0 km/h
1290 27-11-2010 18:03:02 -1.6 C 3.51 g/m*3 -1.6 C 0 km/h
1291 27-11-2010 18:15:02 -1.8 C 3.51 g/m*3 -1.8 C 0 km/h
1292 27-11-2010 18:27:02 -1.8 C 3.55 g/m*3 -1.8 C 0 km/h
1293 27-11-2010 18:39:02 -1.7 C 3.62 g/m*3 -1.7 C 0 km/h
1294 27-11-2010 18:51:02 -1 C 3.8 g/m*3 -1 C 0 km/h
1295 27-11-2010 19:03:01 -0.9 C 3.78 g/m*3 -0.9 C 0 km/h
1296 27-11-2010 19:15:02 -1 C 3.71 g/m*3 -1 C 0 km/h
1297 27-11-2010 19:27:02 -1.1 C 3.73 g/m*3 -1.1 C 0 km/h
1298 27-11-2010 19:39:02 -0.9 C 3.78 g/m*3 -0.9 C 0 km/h
1299 27-11-2010 19:51:02 -0.7 C 3.78 g/m*3 -0.7 C 0 km/h
1300 27-11-2010 20:03:03 -0.7 C 3.78 g/m*3 -0.7 C 0 km/h
Sensor: Nr:Datum:Temp:Abs-Feuchte:Windchill:Wind:
Aussen-T/F 1301 27-11-2010 20:15:02 -0.7 C 3.74 g/m*3 -0.7 C 0 km/h
1302 27-11-2010 20:27:02 -1.2 C 3.52 g/m*3 -1.2 C 0 km/h
1303 27-11-2010 20:39:02 -2.2 C 3.33 g/m*3 -2.2 C 0 km/h
1304 27-11-2010 20:51:01 -2.7 C 3.25 g/m*3 -2.7 C 0 km/h
1305 27-11-2010 21:03:02 -3 C 3.22 g/m*3 -3 C 0 km/h
1306 27-11-2010 21:15:01 -3 C 3.3 g/m*3 -3 C 0 km/h
1307 27-11-2010 21:27:01 -3 C 3.3 g/m*3 -3 C 0 km/h
1308 27-11-2010 21:39:01 -3.2 C 3.25 g/m*3 -3.2 C 0 km/h
1309 27-11-2010 21:51:01 -3.3 C 3.27 g/m*3 -3.3 C 0 km/h
1310 27-11-2010 22:03:02 -3.8 C 3.15 g/m*3 -3.8 C 0 km/h
1311 27-11-2010 22:15:01 -3.8 C 3.19 g/m*3 -3.8 C 0 km/h
1312 27-11-2010 22:27:01 -3.2 C 3.37 g/m*3 -3.2 C 0 km/h
1313 27-11-2010 22:40:03 -3.3 C 3.31 g/m*3 -3.3 C 0 km/h
1314 27-11-2010 22:52:03 -2.7 C 3.49 g/m*3 -2.7 C 0 km/h
1315 27-11-2010 23:04:03 -2.8 C 3.43 g/m*3 -2.8 C 0 km/h
1316 27-11-2010 23:16:03 -2.8 C 3.43 g/m*3 -2.8 C 0 km/h
1317 27-11-2010 23:28:03 -3 C 3.38 g/m*3 -3 C 0 km/h
1318 27-11-2010 23:40:03 -3.6 C 3.2 g/m*3 -3.6 C 0 km/h
1319 27-11-2010 23:52:03 -3.9 C 3.13 g/m*3 -3.9 C 0 km/h
1320 28-11-2010 00:04:03 -3.9 C 3.17 g/m*3 -3.9 C 0 km/h
1321 28-11-2010 00:16:03 -3.8 C 3.19 g/m*3 -3.8 C 0 km/h
1322 28-11-2010 00:28:03 -3.7 C 3.21 g/m*3 -3.7 C 0 km/h
1323 28-11-2010 00:40:03 -3.8 C 3.19 g/m*3 -3.8 C 0 km/h
1324 28-11-2010 00:52:03 -3.6 C 3.24 g/m*3 -3.6 C 0 km/h
1325 28-11-2010 01:04:03 -3.4 C 3.32 g/m*3 -3.4 C 0 km/h
Sensor: Nr:Datum:Temp:Abs-Feuchte:Windchill:Wind:
Aussen-T/F 1326 28-11-2010 01:16:03 -3 C 3.42 g/m*3 -3 C 0 km/h
1327 28-11-2010 01:28:03 -2.7 C 3.53 g/m*3 -2.7 C 0 km/h
1328 28-11-2010 01:40:03 -2.4 C 3.61 g/m*3 -2.4 C 0 km/h
1329 28-11-2010 01:52:03 -2.3 C 3.63 g/m*3 -2.3 C 0 km/h
1330 28-11-2010 02:04:03 -2.1 C 3.64 g/m*3 -2.1 C 0 km/h
1331 28-11-2010 02:16:03 -2.2 C 3.62 g/m*3 -2.2 C 0 km/h
1332 28-11-2010 02:28:04 -2.1 C 3.64 g/m*3 -2.1 C 0 km/h
1333 28-11-2010 02:40:04 -2.1 C 3.6 g/m*3 -2.1 C 0 km/h
1334 28-11-2010 02:52:04 -2.4 C 3.52 g/m*3 -2.4 C 0 km/h
1335 28-11-2010 03:04:04 -2.6 C 3.43 g/m*3 -2.6 C 0 km/h
1336 28-11-2010 03:16:04 -3.3 C 3.23 g/m*3 -3.3 C 0 km/h
1337 28-11-2010 03:28:04 -3.8 C 3.12 g/m*3 -3.8 C 0 km/h
1338 28-11-2010 03:40:04 -3.6 C 3.16 g/m*3 -3.6 C 0 km/h
1339 28-11-2010 03:52:04 -3.7 C 3.18 g/m*3 -3.7 C 0 km/h
1340 28-11-2010 04:04:04 -3.2 C 3.33 g/m*3 -3.2 C 0 km/h
1341 28-11-2010 04:16:04 -2.8 C 3.43 g/m*3 -2.8 C 0 km/h
1342 28-11-2010 04:28:04 -2.5 C 3.5 g/m*3 -2.5 C 0 km/h
1343 28-11-2010 04:40:04 -2.4 C 3.52 g/m*3 -2.4 C 0 km/h
1344 28-11-2010 04:52:04 -2.3 C 3.55 g/m*3 -2.3 C 0 km/h
1345 28-11-2010 05:04:04 -2.3 C 3.55 g/m*3 -2.3 C 0 km/h
1346 28-11-2010 05:16:04 -2.6 C 3.48 g/m*3 -2.6 C 0 km/h
1347 28-11-2010 05:28:04 -3 C 3.34 g/m*3 -3 C 0 km/h
1348 28-11-2010 05:40:04 -3 C 3.34 g/m*3 -3 C 0 km/h
1349 28-11-2010 05:52:04 -2.7 C 3.41 g/m*3 -2.7 C 0 km/h
1350 28-11-2010 06:04:04 -2.5 C 3.5 g/m*3 -2.5 C 0 km/h
Sensor: Nr:Datum:Temp:Abs-Feuchte:Windchill:Wind:
Aussen-T/F 1351 28-11-2010 06:16:04 -2.3 C 3.55 g/m*3 -2.3 C 0 km/h
1352 28-11-2010 06:28:04 -2.1 C 3.6 g/m*3 -2.1 C 0 km/h
1353 28-11-2010 06:40:04 -2 C 3.58 g/m*3 -2 C 0 km/h
1354 28-11-2010 06:52:05 -2 C 3.58 g/m*3 -2 C 0 km/h
1355 28-11-2010 07:04:05 -2 C 3.58 g/m*3 -2 C 0 km/h
1356 28-11-2010 07:16:05 -1.9 C 3.57 g/m*3 -1.9 C 0 km/h
1357 28-11-2010 07:28:05 -1.9 C 3.57 g/m*3 -1.9 C 0 km/h
1358 28-11-2010 07:40:05 -1.8 C 3.59 g/m*3 -1.8 C 0 km/h
1359 28-11-2010 07:52:05 -1.8 C 3.59 g/m*3 -1.8 C 0 km/h
1360 28-11-2010 08:04:05 -1.8 C 3.55 g/m*3 -1.8 C 0 km/h
1361 28-11-2010 08:16:05 -1.7 C 3.62 g/m*3 -1.7 C 0 km/h
1362 28-11-2010 08:28:05 -1.6 C 3.64 g/m*3 -1.6 C 0 km/h
1363 28-11-2010 08:40:05 -1.6 C 3.6 g/m*3 -1.6 C 0 km/h
1364 28-11-2010 08:52:05 -1.6 C 3.6 g/m*3 -1.6 C 0 km/h
1365 28-11-2010 09:04:05 -1.4 C 3.6 g/m*3 -1.4 C 0 km/h
1366 28-11-2010 09:16:05 -1.3 C 3.63 g/m*3 -1.3 C 0 km/h
1367 28-11-2010 09:28:05 -1.2 C 3.61 g/m*3 -1.2 C 0 km/h
1368 28-11-2010 09:40:03 -1.1 C 3.59 g/m*3 -1.1 C 0 km/h
1369 28-11-2010 09:52:01 -0.9 C 3.64 g/m*3 -0.9 C 0 km/h
1370 28-11-2010 10:04:02 -0.4 C 3.72 g/m*3 -0.4 C 0 km/h
1371 28-11-2010 10:16:02 -0.5 C 3.6 g/m*3 -0.5 C 0 km/h
1372 28-11-2010 10:28:02 -0.4 C 3.63 g/m*3 -0.4 C 0 km/h
1373 28-11-2010 10:40:02 -0.4 C 3.58 g/m*3 -0.4 C 0 km/h
1374 28-11-2010 10:52:02 -0.2 C 3.63 g/m*3 -0.2 C 0 km/h
1375 28-11-2010 11:04:01 -0.1 C 3.61 g/m*3 -0.1 C 0 km/h
Sensor: Nr:Datum:Temp:Abs-Feuchte:Windchill:Wind:
Aussen-T/F 1376 28-11-2010 11:16:02 -0.2 C 3.54 g/m*3 -0.2 C 0 km/h
1377 28-11-2010 11:28:02 -0.3 C 3.51 g/m*3 -0.3 C 0 km/h
1378 28-11-2010 11:40:01 -0.1 C 3.56 g/m*3 -0.1 C 0 km/h
1379 28-11-2010 11:52:02 -0.2 C 3.54 g/m*3 -0.2 C 0 km/h
1380 28-11-2010 12:04:01 0 C 3.59 g/m*3 0 C 0 km/h
1381 28-11-2010 12:16:01 0.1 C 3.61 g/m*3 0.1 C 0 km/h
1382 28-11-2010 12:28:01 0 C 3.59 g/m*3 0 C 0 km/h
1383 28-11-2010 12:40:02 0 C 3.59 g/m*3 0 C 0 km/h
1384 28-11-2010 12:52:02 0 C 3.59 g/m*3 0 C 0 km/h
1385 28-11-2010 13:04:02 0 C 3.59 g/m*3 0 C 0 km/h
1386 28-11-2010 13:16:02 0.1 C 3.61 g/m*3 0.1 C 0 km/h
1387 28-11-2010 13:28:02 0.1 C 3.66 g/m*3 0.1 C 0 km/h
1388 28-11-2010 13:40:02 0.2 C 3.64 g/m*3 0.2 C 0 km/h
1389 28-11-2010 13:52:02 0.3 C 3.66 g/m*3 0.3 C 0 km/h
1390 28-11-2010 14:04:02 0.2 C 3.64 g/m*3 0.2 C 0 km/h
1391 28-11-2010 14:16:02 0.3 C 3.66 g/m*3 0.3 C 0 km/h
1392 28-11-2010 14:28:02 0.5 C 3.71 g/m*3 0.5 C 0 km/h
1393 28-11-2010 14:40:02 0.7 C 3.71 g/m*3 0.7 C 0 km/h
1394 28-11-2010 14:52:01 0.8 C 3.74 g/m*3 0.8 C 0 km/h
1395 28-11-2010 15:04:02 0.7 C 3.71 g/m*3 0.7 C 0 km/h
1396 28-11-2010 15:16:01 0.7 C 3.71 g/m*3 0.7 C 0 km/h
1397 28-11-2010 15:28:01 0.6 C 3.74 g/m*3 0.6 C 0 km/h
1398 28-11-2010 15:40:01 0.5 C 3.71 g/m*3 0.5 C 0 km/h
1399 28-11-2010 15:52:01 0.2 C 3.68 g/m*3 0.2 C 0 km/h
1400 28-11-2010 16:04:01 0 C 3.68 g/m*3 0 C 0 km/h
Sensor: Nr:Datum:Temp:Abs-Feuchte:Windchill:Wind:
Aussen-T/F 1401 28-11-2010 16:16:02 -0.3 C 3.65 g/m*3 -0.3 C 0 km/h
1402 28-11-2010 16:28:02 -0.6 C 3.63 g/m*3 -0.6 C 0 km/h
1403 28-11-2010 16:40:01 -0.5 C 3.7 g/m*3 -0.5 C 0 km/h
1404 28-11-2010 16:52:03 -0.3 C 3.75 g/m*3 -0.3 C 0 km/h
1405 28-11-2010 17:04:02 -0.3 C 3.75 g/m*3 -0.3 C 0 km/h
1406 28-11-2010 17:16:02 -0.3 C 3.75 g/m*3 -0.3 C 0 km/h
1407 28-11-2010 17:28:02 -0.6 C 3.67 g/m*3 -0.6 C 0 km/h
1408 28-11-2010 17:40:02 -0.9 C 3.6 g/m*3 -0.9 C 0 km/h
1409 28-11-2010 17:52:02 -1.1 C 3.59 g/m*3 -1.1 C 0 km/h
1410 28-11-2010 18:04:02 -1.8 C 3.42 g/m*3 -1.8 C 0 km/h
1411 28-11-2010 18:16:02 -1.4 C 3.65 g/m*3 -1.4 C 0 km/h
1412 28-11-2010 18:28:02 -1 C 3.8 g/m*3 -1 C 0 km/h
1413 28-11-2010 18:40:02 -0.7 C 3.88 g/m*3 -0.7 C 0 km/h
1414 28-11-2010 18:52:02 -0.6 C 3.81 g/m*3 -0.6 C 0 km/h
1415 28-11-2010 19:04:02 -0.6 C 3.76 g/m*3 -0.6 C 0 km/h
1416 28-11-2010 19:16:01 -0.6 C 3.76 g/m*3 -0.6 C 0 km/h
1417 28-11-2010 19:28:01 -0.8 C 3.67 g/m*3 -0.8 C 0 km/h
1418 28-11-2010 19:40:02 -0.8 C 3.67 g/m*3 -0.8 C 0 km/h
1419 28-11-2010 19:52:02 -0.7 C 3.65 g/m*3 -0.7 C 0 km/h
1420 28-11-2010 20:04:02 -1.1 C 3.55 g/m*3 -1.1 C 0 km/h
1421 28-11-2010 20:16:02 -0.9 C 3.6 g/m*3 -0.9 C 0 km/h
1422 28-11-2010 20:28:02 -0.7 C 3.6 g/m*3 -0.7 C 0 km/h
1423 28-11-2010 20:40:02 -0.6 C 3.53 g/m*3 -0.6 C 0 km/h
1424 28-11-2010 20:52:02 -0.7 C 3.46 g/m*3 -0.7 C 0 km/h
1425 28-11-2010 21:04:02 -0.7 C 3.46 g/m*3 -0.7 C 0 km/h
Sensor: Nr:Datum:Temp:Abs-Feuchte:Windchill:Wind:
Aussen-T/F 1426 28-11-2010 21:16:02 -0.9 C 3.46 g/m*3 -0.9 C 0 km/h
1427 28-11-2010 21:28:02 -0.9 C 3.46 g/m*3 -0.9 C 0 km/h
1428 28-11-2010 21:40:02 -0.9 C 3.46 g/m*3 -0.9 C 0 km/h
1429 28-11-2010 21:52:02 -0.9 C 3.46 g/m*3 -0.9 C 0 km/h
1430 28-11-2010 22:04:02 -1 C 3.44 g/m*3 -1 C 0 km/h
1431 28-11-2010 22:16:02 -1 C 3.44 g/m*3 -1 C 0 km/h
1432 28-11-2010 22:28:02 -1.4 C 3.39 g/m*3 -1.4 C 0 km/h
1433 28-11-2010 22:40:03 -2.2 C 3.24 g/m*3 -2.2 C 0 km/h
1434 28-11-2010 22:52:02 -2.4 C 3.28 g/m*3 -2.4 C 0 km/h
1435 28-11-2010 23:04:01 -2.7 C 3.25 g/m*3 -2.7 C 0 km/h
1436 28-11-2010 23:16:02 -2.6 C 3.35 g/m*3 -2.6 C 0 km/h
1437 28-11-2010 23:28:02 -2 C 3.54 g/m*3 -2 C 0 km/h
1438 28-11-2010 23:40:02 -1.5 C 3.54 g/m*3 -1.5 C 0 km/h
1439 28-11-2010 23:52:02 -1.4 C 3.43 g/m*3 -1.4 C 0 km/h
1440 29-11-2010 00:04:02 -1.4 C 3.34 g/m*3 -1.4 C 0 km/h
1441 29-11-2010 00:16:02 -1.4 C 3.34 g/m*3 -1.4 C 0 km/h
1442 29-11-2010 00:28:02 -1.4 C 3.43 g/m*3 -1.4 C 0 km/h
1443 29-11-2010 00:40:02 -1.5 C 3.41 g/m*3 -1.5 C 0 km/h
1444 29-11-2010 00:52:01 -1.7 C 3.31 g/m*3 -1.7 C 0 km/h
1445 29-11-2010 01:04:02 -1.8 C 3.29 g/m*3 -1.8 C 0 km/h
1446 29-11-2010 01:16:01 -1.9 C 3.27 g/m*3 -1.9 C 0 km/h
1447 29-11-2010 01:28:01 -1.8 C 3.33 g/m*3 -1.8 C 0 km/h
1448 29-11-2010 01:40:02 -1.7 C 3.36 g/m*3 -1.7 C 0 km/h
1449 29-11-2010 01:52:01 -1.8 C 3.29 g/m*3 -1.8 C 0 km/h
1450 29-11-2010 02:04:02 -1.8 C 3.29 g/m*3 -1.8 C 0 km/h
Sensor: Nr:Datum:Temp:Abs-Feuchte:Windchill:Wind:
Aussen-T/F 1451 29-11-2010 02:16:02 -1.9 C 3.27 g/m*3 -1.9 C 0 km/h
1452 29-11-2010 02:28:02 -1.9 C 3.27 g/m*3 -1.9 C 0 km/h
1453 29-11-2010 02:40:02 -1.9 C 3.27 g/m*3 -1.9 C 0 km/h
1454 29-11-2010 02:52:01 -1.9 C 3.23 g/m*3 -1.9 C 0 km/h
1455 29-11-2010 03:04:01 -2 C 3.2 g/m*3 -2 C 0 km/h
1456 29-11-2010 03:16:01 -1.9 C 3.23 g/m*3 -1.9 C 0 km/h
1457 29-11-2010 03:28:01 -2 C 3.2 g/m*3 -2 C 0 km/h
1458 29-11-2010 03:40:01 -2 C 3.2 g/m*3 -2 C 0 km/h
1459 29-11-2010 03:52:01 -2.1 C 3.22 g/m*3 -2.1 C 0 km/h
1460 29-11-2010 04:04:01 -2.1 C 3.18 g/m*3 -2.1 C 0 km/h
1461 29-11-2010 04:16:02 -2 C 3.25 g/m*3 -2 C 0 km/h
1462 29-11-2010 04:28:02 -2 C 3.2 g/m*3 -2 C 0 km/h
1463 29-11-2010 04:40:01 -2 C 3.2 g/m*3 -2 C 0 km/h
1464 29-11-2010 04:52:01 -1.9 C 3.27 g/m*3 -1.9 C 0 km/h
1465 29-11-2010 05:04:01 -1.9 C 3.27 g/m*3 -1.9 C 0 km/h
1466 29-11-2010 05:16:02 -1.8 C 3.29 g/m*3 -1.8 C 0 km/h
1467 29-11-2010 05:28:02 -1.8 C 3.29 g/m*3 -1.8 C 0 km/h
1468 29-11-2010 05:40:01 -1.8 C 3.25 g/m*3 -1.8 C 0 km/h
1469 29-11-2010 05:52:02 -1.8 C 3.25 g/m*3 -1.8 C 0 km/h
1470 29-11-2010 06:04:01 -1.7 C 3.27 g/m*3 -1.7 C 0 km/h
1471 29-11-2010 06:16:01 -1.7 C 3.31 g/m*3 -1.7 C 0 km/h
1472 29-11-2010 06:28:01 -1.7 C 3.31 g/m*3 -1.7 C 0 km/h
1473 29-11-2010 06:40:01 -1.7 C 3.31 g/m*3 -1.7 C 0 km/h
1474 29-11-2010 06:52:01 -1.6 C 3.34 g/m*3 -1.6 C 0 km/h
1475 29-11-2010 07:04:01 -1.6 C 3.34 g/m*3 -1.6 C 0 km/h
Sensor: Nr:Datum:Temp:Abs-Feuchte:Windchill:Wind:
Aussen-T/F 1476 29-11-2010 07:16:01 -1.7 C 3.27 g/m*3 -1.7 C 0 km/h
1477 29-11-2010 07:28:01 -1.7 C 3.27 g/m*3 -1.7 C 0 km/h
1478 29-11-2010 07:40:02 -1.7 C 3.27 g/m*3 -1.7 C 0 km/h
1479 29-11-2010 07:52:01 -1.6 C 3.29 g/m*3 -1.6 C 0 km/h
1480 29-11-2010 08:04:02 -1.7 C 3.27 g/m*3 -1.7 C 0 km/h
1481 29-11-2010 08:16:01 -1.6 C 3.34 g/m*3 -1.6 C 0 km/h
1482 29-11-2010 08:28:01 -1.7 C 3.31 g/m*3 -1.7 C 0 km/h
1483 29-11-2010 08:40:01 -1.6 C 3.34 g/m*3 -1.6 C 0 km/h
1484 29-11-2010 08:52:01 -1.4 C 3.39 g/m*3 -1.4 C 0 km/h
1485 29-11-2010 09:04:01 -1.4 C 3.34 g/m*3 -1.4 C 0 km/h
1486 29-11-2010 09:16:01 -1.4 C 3.3 g/m*3 -1.4 C 0 km/h
1487 29-11-2010 09:28:01 -1.4 C 3.3 g/m*3 -1.4 C 0 km/h
1488 29-11-2010 09:40:01 -1.4 C 3.25 g/m*3 -1.4 C 0 km/h
1489 29-11-2010 09:52:01 -1.3 C 3.32 g/m*3 -1.3 C 0 km/h
1490 29-11-2010 10:04:01 -1.2 C 3.39 g/m*3 -1.2 C 0 km/h
1491 29-11-2010 10:16:02 -1.3 C 3.36 g/m*3 -1.3 C 0 km/h
1492 29-11-2010 10:28:02 -1.3 C 3.36 g/m*3 -1.3 C 0 km/h
1493 29-11-2010 10:40:01 -1.4 C 3.34 g/m*3 -1.4 C 0 km/h
1494 29-11-2010 10:52:02 -1.3 C 3.41 g/m*3 -1.3 C 0 km/h
1495 29-11-2010 11:04:01 -1.2 C 3.43 g/m*3 -1.2 C 0 km/h
1496 29-11-2010 11:16:02 -1.2 C 3.43 g/m*3 -1.2 C 0 km/h
1497 29-11-2010 11:28:02 -1.2 C 3.43 g/m*3 -1.2 C 0 km/h
1498 29-11-2010 11:40:01 -1.2 C 3.48 g/m*3 -1.2 C 0 km/h
1499 29-11-2010 11:52:02 -1.3 C 3.45 g/m*3 -1.3 C 0 km/h
1500 29-11-2010 12:04:01 -1.3 C 3.45 g/m*3 -1.3 C 0 km/h
Sensor: Nr:Datum:Temp:Abs-Feuchte:Windchill:Wind:
Aussen-T/F 1501 29-11-2010 12:16:02 -1.3 C 3.5 g/m*3 -1.3 C 0 km/h
1502 29-11-2010 12:28:02 -1.2 C 3.52 g/m*3 -1.2 C 0 km/h
1503 29-11-2010 12:40:01 -1.1 C 3.55 g/m*3 -1.1 C 0 km/h
1504 29-11-2010 12:52:02 -0.8 C 3.58 g/m*3 -0.8 C 0 km/h
1505 29-11-2010 13:04:01 -0.7 C 3.55 g/m*3 -0.7 C 0 km/h
1506 29-11-2010 13:16:01 -0.6 C 3.58 g/m*3 -0.6 C 0 km/h
1507 29-11-2010 13:28:01 -0.8 C 3.58 g/m*3 -0.8 C 0 km/h
1508 29-11-2010 13:40:02 -1.1 C 3.55 g/m*3 -1.1 C 0 km/h
1509 29-11-2010 13:52:01 -1 C 3.62 g/m*3 -1 C 0 km/h
1510 29-11-2010 14:04:02 -1 C 3.62 g/m*3 -1 C 0 km/h
1511 29-11-2010 14:16:01 -1 C 3.66 g/m*3 -1 C 0 km/h
1512 29-11-2010 14:28:01 -1 C 3.66 g/m*3 -1 C 0 km/h
1513 29-11-2010 14:40:02 -1 C 3.71 g/m*3 -1 C 0 km/h
1514 29-11-2010 14:52:01 -1.1 C 3.73 g/m*3 -1.1 C 0 km/h
1515 29-11-2010 15:04:02 -1.1 C 3.73 g/m*3 -1.1 C 0 km/h
1516 29-11-2010 15:16:01 -1.2 C 3.74 g/m*3 -1.2 C 0 km/h
1517 29-11-2010 15:28:01 -1.4 C 3.69 g/m*3 -1.4 C 0 km/h
1518 29-11-2010 15:40:01 -1.4 C 3.69 g/m*3 -1.4 C 0 km/h
1519 29-11-2010 15:52:01 -1.4 C 3.74 g/m*3 -1.4 C 0 km/h
1520 29-11-2010 16:04:01 -1.4 C 3.74 g/m*3 -1.4 C 0 km/h
1521 29-11-2010 16:16:02 -1.4 C 3.74 g/m*3 -1.4 C 0 km/h
1522 29-11-2010 16:28:02 -1.5 C 3.71 g/m*3 -1.5 C 0 km/h
1523 29-11-2010 16:40:01 -1.5 C 3.71 g/m*3 -1.5 C 0 km/h
1524 29-11-2010 16:52:01 -1.5 C 3.75 g/m*3 -1.5 C 0 km/h
1525 29-11-2010 17:04:01 -1.7 C 3.7 g/m*3 -1.7 C 0 km/h
Sensor: Nr:Datum:Temp:Abs-Feuchte:Windchill:Wind:
Aussen-T/F 1526 29-11-2010 17:16:02 -1.7 C 3.7 g/m*3 -1.7 C 0 km/h
1527 29-11-2010 17:28:02 -1.7 C 3.7 g/m*3 -1.7 C 0 km/h
1528 29-11-2010 17:40:01 -1.7 C 3.7 g/m*3 -1.7 C 0 km/h
1529 29-11-2010 17:52:02 -1.6 C 3.73 g/m*3 -1.6 C 0 km/h
1530 29-11-2010 18:04:01 -1.6 C 3.77 g/m*3 -1.6 C 0 km/h
1531 29-11-2010 18:16:01 -1.7 C 3.75 g/m*3 -1.7 C 0 km/h
1532 29-11-2010 18:28:01 -1.7 C 3.75 g/m*3 -1.7 C 0 km/h
1533 29-11-2010 18:40:01 -1.7 C 3.75 g/m*3 -1.7 C 0 km/h
1534 29-11-2010 18:52:01 -1.7 C 3.75 g/m*3 -1.7 C 0 km/h
1535 29-11-2010 19:04:01 -1.7 C 3.75 g/m*3 -1.7 C 0 km/h
1536 29-11-2010 19:16:01 -1.7 C 3.75 g/m*3 -1.7 C 0 km/h
1537 29-11-2010 19:28:01 -1.7 C 3.75 g/m*3 -1.7 C 0 km/h
1538 29-11-2010 19:40:02 -1.7 C 3.75 g/m*3 -1.7 C 0 km/h
1539 29-11-2010 19:52:01 -1.7 C 3.75 g/m*3 -1.7 C 0 km/h
1540 29-11-2010 20:04:02 -1.7 C 3.75 g/m*3 -1.7 C 0 km/h
1541 29-11-2010 20:16:01 -1.7 C 3.79 g/m*3 -1.7 C 0 km/h
1542 29-11-2010 20:28:01 -1.6 C 3.81 g/m*3 -1.6 C 0 km/h
1543 29-11-2010 20:40:01 -1.6 C 3.81 g/m*3 -1.6 C 0 km/h
1544 29-11-2010 20:52:01 -1.6 C 3.81 g/m*3 -1.6 C 0 km/h
1545 29-11-2010 21:04:01 -1.6 C 3.81 g/m*3 -1.6 C 0 km/h
1546 29-11-2010 21:16:01 -1.6 C 3.81 g/m*3 -1.6 C 0 km/h
1547 29-11-2010 21:28:01 -1.7 C 3.79 g/m*3 -1.7 C 0 km/h
1548 29-11-2010 21:40:01 -1.7 C 3.79 g/m*3 -1.7 C 0 km/h
1549 29-11-2010 21:52:01 -1.7 C 3.79 g/m*3 -1.7 C 0 km/h
1550 29-11-2010 22:04:01 -1.7 C 3.79 g/m*3 -1.7 C 0 km/h
Sensor: Nr:Datum:Temp:Abs-Feuchte:Windchill:Wind:
Aussen-T/F 1551 29-11-2010 22:16:01 -1.7 C 3.79 g/m*3 -1.7 C 0 km/h
1552 29-11-2010 22:28:01 -1.9 C 3.74 g/m*3 -1.9 C 0 km/h
1553 29-11-2010 22:40:02 -1.8 C 3.76 g/m*3 -1.8 C 0 km/h
1554 29-11-2010 22:52:01 -1.8 C 3.76 g/m*3 -1.8 C 0 km/h
1555 29-11-2010 23:04:02 -1.8 C 3.76 g/m*3 -1.8 C 0 km/h
1556 29-11-2010 23:16:01 -1.7 C 3.83 g/m*3 -1.7 C 0 km/h
1557 29-11-2010 23:28:01 -1.7 C 3.83 g/m*3 -1.7 C 0 km/h
1558 29-11-2010 23:40:02 -1.6 C 3.86 g/m*3 -1.6 C 0 km/h
1559 29-11-2010 23:52:01 -1.6 C 3.86 g/m*3 -1.6 C 0 km/h
1560 30-11-2010 00:04:02 -1.6 C 3.86 g/m*3 -1.6 C 0 km/h
1561 30-11-2010 00:16:01 -1.7 C 3.83 g/m*3 -1.7 C 0 km/h
1562 30-11-2010 00:28:01 -1.8 C 3.8 g/m*3 -1.8 C 0 km/h
1563 30-11-2010 00:40:01 -1.9 C 3.78 g/m*3 -1.9 C 0 km/h
1564 30-11-2010 00:52:01 -1.9 C 3.78 g/m*3 -1.9 C 0 km/h
1565 30-11-2010 01:04:01 -2 C 3.75 g/m*3 -2 C 0 km/h
1566 30-11-2010 01:16:01 -2 C 3.75 g/m*3 -2 C 0 km/h
1567 30-11-2010 01:28:01 -2 C 3.75 g/m*3 -2 C 0 km/h
1568 30-11-2010 01:40:01 -1.9 C 3.78 g/m*3 -1.9 C 0 km/h
1569 30-11-2010 01:52:01 -1.9 C 3.78 g/m*3 -1.9 C 0 km/h
1570 30-11-2010 02:04:01 -1.8 C 3.8 g/m*3 -1.8 C 0 km/h
1571 30-11-2010 02:16:02 -1.7 C 3.83 g/m*3 -1.7 C 0 km/h
1572 30-11-2010 02:28:02 -1.7 C 3.83 g/m*3 -1.7 C 0 km/h
1573 30-11-2010 02:40:01 -1.6 C 3.86 g/m*3 -1.6 C 0 km/h
1574 30-11-2010 02:53:05 -1.6 C 3.86 g/m*3 -1.6 C 0 km/h
1575 30-11-2010 03:05:05 -1.6 C 3.86 g/m*3 -1.6 C 0 km/h
Sensor: Nr:Datum:Temp:Abs-Feuchte:Windchill:Wind:
Aussen-T/F 1576 30-11-2010 03:17:05 -1.6 C 3.86 g/m*3 -1.6 C 0 km/h
1577 30-11-2010 03:29:05 -1.6 C 3.86 g/m*3 -1.6 C 0 km/h
1578 30-11-2010 03:41:01 -1.8 C 3.8 g/m*3 -1.8 C 0 km/h
1579 30-11-2010 03:53:01 -1.9 C 3.74 g/m*3 -1.9 C 0 km/h
1580 30-11-2010 04:05:02 -2.1 C 3.68 g/m*3 -2.1 C 0 km/h
1581 30-11-2010 04:17:02 -2.3 C 3.63 g/m*3 -2.3 C 0 km/h
1582 30-11-2010 04:29:02 -2.4 C 3.61 g/m*3 -2.4 C 0 km/h
1583 30-11-2010 04:41:02 -2.5 C 3.58 g/m*3 -2.5 C 0 km/h
1584 30-11-2010 04:53:02 -2.5 C 3.58 g/m*3 -2.5 C 0 km/h
1585 30-11-2010 05:05:01 -2.5 C 3.58 g/m*3 -2.5 C 0 km/h
1586 30-11-2010 05:17:02 -2.5 C 3.58 g/m*3 -2.5 C 0 km/h
1587 30-11-2010 05:29:03 -2.5 C 3.58 g/m*3 -2.5 C 0 km/h
1588 30-11-2010 05:41:01 -2.3 C 3.67 g/m*3 -2.3 C 0 km/h
1589 30-11-2010 05:53:02 -2.2 C 3.7 g/m*3 -2.2 C 0 km/h
1590 30-11-2010 06:05:02 -2.2 C 3.7 g/m*3 -2.2 C 0 km/h
1591 30-11-2010 06:17:02 -2.2 C 3.7 g/m*3 -2.2 C 0 km/h
1592 30-11-2010 06:29:02 -2.3 C 3.63 g/m*3 -2.3 C 0 km/h
1593 30-11-2010 06:41:03 -2.3 C 3.63 g/m*3 -2.3 C 0 km/h
1594 30-11-2010 06:53:02 -2.3 C 3.63 g/m*3 -2.3 C 0 km/h
1595 30-11-2010 07:05:02 -2.3 C 3.63 g/m*3 -2.3 C 0 km/h
1596 30-11-2010 07:17:01 -2.3 C 3.67 g/m*3 -2.3 C 0 km/h
1597 30-11-2010 07:29:01 -2.3 C 3.67 g/m*3 -2.3 C 0 km/h
1598 30-11-2010 07:41:02 -2.3 C 3.67 g/m*3 -2.3 C 0 km/h
1599 30-11-2010 07:53:02 -2.2 C 3.66 g/m*3 -2.2 C 0 km/h
1600 30-11-2010 08:05:02 -2.1 C 3.68 g/m*3 -2.1 C 0 km/h
Sensor: Nr:Datum:Temp:Abs-Feuchte:Windchill:Wind:
Aussen-T/F 1601 30-11-2010 08:17:01 -2.1 C 3.68 g/m*3 -2.1 C 0 km/h
1602 30-11-2010 08:29:01 -2.1 C 3.68 g/m*3 -2.1 C 0 km/h
1603 30-11-2010 08:41:02 -2.1 C 3.68 g/m*3 -2.1 C 0 km/h
1604 30-11-2010 08:53:02 -2 C 3.58 g/m*3 -2 C 0 km/h
1605 30-11-2010 09:05:02 -2 C 3.58 g/m*3 -2 C 0 km/h
1606 30-11-2010 09:17:02 -2 C 3.58 g/m*3 -2 C 0 km/h
1607 30-11-2010 09:29:02 -2 C 3.58 g/m*3 -2 C 0 km/h
1608 30-11-2010 09:41:02 -2 C 3.58 g/m*3 -2 C 0 km/h
1609 30-11-2010 09:53:01 -2 C 3.58 g/m*3 -2 C 0 km/h
1610 30-11-2010 10:05:02 -2 C 3.58 g/m*3 -2 C 0 km/h
1611 30-11-2010 10:17:02 -2 C 3.58 g/m*3 -2 C 0 km/h
1612 30-11-2010 10:29:02 -1.7 C 3.49 g/m*3 -1.7 C 0 km/h
1613 30-11-2010 10:41:01 -1.8 C 3.42 g/m*3 -1.8 C 0 km/h
1614 30-11-2010 10:53:02 -1.6 C 3.47 g/m*3 -1.6 C 0 km/h
1615 30-11-2010 11:05:01 -1.6 C 3.47 g/m*3 -1.6 C 0 km/h
1616 30-11-2010 11:17:02 -1.6 C 3.47 g/m*3 -1.6 C 0 km/h
1617 30-11-2010 11:29:02 -1.6 C 3.47 g/m*3 -1.6 C 0 km/h
1618 30-11-2010 11:41:01 -1.3 C 3.41 g/m*3 -1.3 C 0 km/h
1619 30-11-2010 11:53:02 -1.4 C 3.39 g/m*3 -1.4 C 0 km/h
1620 30-11-2010 12:05:02 -1.3 C 3.32 g/m*3 -1.3 C 0 km/h
1621 30-11-2010 12:17:02 -1.2 C 3.34 g/m*3 -1.2 C 0 km/h
1622 30-11-2010 12:29:02 -1.3 C 3.23 g/m*3 -1.3 C 0 km/h
1623 30-11-2010 12:41:02 -1.3 C 3.28 g/m*3 -1.3 C 0 km/h
1624 30-11-2010 12:53:01 -1.4 C 3.21 g/m*3 -1.4 C 0 km/h
1625 30-11-2010 13:05:02 -1.2 C 3.25 g/m*3 -1.2 C 0 km/h
Sensor: Nr:Datum:Temp:Abs-Feuchte:Windchill:Wind:
Aussen-T/F 1626 30-11-2010 13:17:01 -1.1 C 3.28 g/m*3 -1.1 C 0 km/h
1627 30-11-2010 13:29:01 -1 C 3.25 g/m*3 -1 C 0 km/h
1628 30-11-2010 13:41:02 -1 C 3.25 g/m*3 -1 C 0 km/h
1629 30-11-2010 13:53:01 -1.1 C 3.19 g/m*3 -1.1 C 0 km/h
1630 30-11-2010 14:05:01 -1.2 C 3.17 g/m*3 -1.2 C 0 km/h
1631 30-11-2010 14:17:01 -1.3 C 3.19 g/m*3 -1.3 C 0 km/h
1632 30-11-2010 14:29:01 -1.4 C 3.21 g/m*3 -1.4 C 0 km/h
1633 30-11-2010 14:41:02 -1.3 C 3.23 g/m*3 -1.3 C 0 km/h
1634 30-11-2010 14:53:02 -1.4 C 3.21 g/m*3 -1.4 C 0 km/h
1635 30-11-2010 15:05:02 -1.4 C 3.21 g/m*3 -1.4 C 0 km/h
1636 30-11-2010 15:17:02 -1.5 C 3.23 g/m*3 -1.5 C 0 km/h
1637 30-11-2010 15:29:02 -1.5 C 3.23 g/m*3 -1.5 C 0 km/h
1638 30-11-2010 15:41:02 -1.5 C 3.23 g/m*3 -1.5 C 0 km/h
1639 30-11-2010 15:53:01 -1.5 C 3.23 g/m*3 -1.5 C 0 km/h
1640 30-11-2010 16:05:02 -1.5 C 3.23 g/m*3 -1.5 C 0 km/h
1641 30-11-2010 16:17:01 -1.5 C 3.23 g/m*3 -1.5 C 0 km/h
1642 30-11-2010 16:29:01 -1.5 C 3.23 g/m*3 -1.5 C 0 km/h
1643 30-11-2010 16:41:01 -1.5 C 3.23 g/m*3 -1.5 C 0 km/h
1644 30-11-2010 16:53:01 -1.5 C 3.23 g/m*3 -1.5 C 0 km/h
1645 30-11-2010 17:05:01 -1.5 C 3.23 g/m*3 -1.5 C 0 km/h
1646 30-11-2010 17:17:01 -2 C 3.25 g/m*3 -2 C 0 km/h
1647 30-11-2010 17:29:01 -1.9 C 3.23 g/m*3 -1.9 C 0 km/h
1648 30-11-2010 17:41:01 -2.1 C 3.18 g/m*3 -2.1 C 0 km/h
1649 30-11-2010 17:53:01 -2.1 C 3.18 g/m*3 -2.1 C 0 km/h
1650 30-11-2010 18:05:01 -2.1 C 3.18 g/m*3 -2.1 C 0 km/h
Sensor: Nr:Datum:Temp:Abs-Feuchte:Windchill:Wind:
Aussen-T/F 1651 30-11-2010 18:17:02 -2.1 C 3.18 g/m*3 -2.1 C 0 km/h
1652 30-11-2010 18:29:02 -2.1 C 3.18 g/m*3 -2.1 C 0 km/h
1653 30-11-2010 18:41:01 -2.1 C 3.18 g/m*3 -2.1 C 0 km/h
1654 30-11-2010 18:53:03 -2.1 C 3.18 g/m*3 -2.1 C 0 km/h
1655 30-11-2010 19:05:02 -2.1 C 3.18 g/m*3 -2.1 C 0 km/h
1656 30-11-2010 19:17:02 -2.1 C 3.18 g/m*3 -2.1 C 0 km/h
1657 30-11-2010 19:29:02 -2.1 C 3.18 g/m*3 -2.1 C 0 km/h
1658 30-11-2010 19:41:02 -2.1 C 3.18 g/m*3 -2.1 C 0 km/h
1659 30-11-2010 19:53:02 -2.1 C 3.14 g/m*3 -2.1 C 0 km/h
1660 30-11-2010 20:05:02 -2.1 C 3.14 g/m*3 -2.1 C 0 km/h
1661 30-11-2010 20:17:02 -2.2 C 3.12 g/m*3 -2.2 C 0 km/h
1662 30-11-2010 20:29:02 -2.3 C 3.1 g/m*3 -2.3 C 0 km/h
1663 30-11-2010 20:41:02 -2.4 C 3.07 g/m*3 -2.4 C 0 km/h
1664 30-11-2010 20:53:02 -2.3 C 3.14 g/m*3 -2.3 C 0 km/h
1665 30-11-2010 21:05:01 -2.4 C 3.07 g/m*3 -2.4 C 0 km/h
1666 30-11-2010 21:17:01 -2.4 C 3.07 g/m*3 -2.4 C 0 km/h
1667 30-11-2010 21:29:01 -2.4 C 3.07 g/m*3 -2.4 C 0 km/h
1668 30-11-2010 21:41:02 -2.4 C 3.03 g/m*3 -2.4 C 0 km/h
1669 30-11-2010 21:53:02 -2.4 C 2.99 g/m*3 -2.4 C 0 km/h
1670 30-11-2010 22:05:02 -2.5 C 2.97 g/m*3 -2.5 C 0 km/h
1671 30-11-2010 22:18:02 -2.6 C 2.95 g/m*3 -2.6 C 0 km/h
1672 30-11-2010 22:30:02 -2.6 C 2.95 g/m*3 -2.6 C 0 km/h
1673 30-11-2010 22:42:02 -2.6 C 2.91 g/m*3 -2.6 C 0 km/h
1674 30-11-2010 22:54:02 -2.6 C 2.91 g/m*3 -2.6 C 0 km/h
1675 30-11-2010 23:06:03 -2.6 C 2.87 g/m*3 -2.6 C 0 km/h
Sensor: Nr:Datum:Temp:Abs-Feuchte:Windchill:Wind:
Aussen-T/F 1676 30-11-2010 23:18:03 -2.7 C 2.85 g/m*3 -2.7 C 0 km/h
1677 30-11-2010 23:30:03 -2.8 C 2.83 g/m*3 -2.8 C 0 km/h
1678 30-11-2010 23:42:03 -2.8 C 2.83 g/m*3 -2.8 C 0 km/h
1679 30-11-2010 23:54:03 -2.9 C 2.77 g/m*3 -2.9 C 0 km/h
1680 01-12-2010 00:06:03 -2.9 C 2.81 g/m*3 -2.9 C 0 km/h
1681 01-12-2010 00:18:03 -3 C 2.75 g/m*3 -3 C 0 km/h
1682 01-12-2010 00:30:03 -3 C 2.75 g/m*3 -3 C 0 km/h
1683 01-12-2010 00:42:03 -3 C 2.75 g/m*3 -3 C 0 km/h
1684 01-12-2010 00:54:03 -3.1 C 2.73 g/m*3 -3.1 C 0 km/h
1685 01-12-2010 01:06:03 -3.2 C 2.71 g/m*3 -3.2 C 0 km/h
1686 01-12-2010 01:18:03 -3.2 C 2.71 g/m*3 -3.2 C 0 km/h
1687 01-12-2010 01:30:03 -3.3 C 2.65 g/m*3 -3.3 C 0 km/h
1688 01-12-2010 01:42:03 -3.3 C 2.65 g/m*3 -3.3 C 0 km/h
1689 01-12-2010 01:54:03 -3.5 C 2.62 g/m*3 -3.5 C 0 km/h
1690 01-12-2010 02:06:03 -3.6 C 2.6 g/m*3 -3.6 C 0 km/h
1691 01-12-2010 02:18:03 -3.8 C 2.52 g/m*3 -3.8 C 0 km/h
1692 01-12-2010 02:30:03 -4 C 2.49 g/m*3 -4 C 0 km/h
1693 01-12-2010 02:42:03 -4 C 2.49 g/m*3 -4 C 0 km/h
1694 01-12-2010 02:54:03 -4 C 2.45 g/m*3 -4 C 0 km/h
1695 01-12-2010 03:06:03 -4.1 C 2.43 g/m*3 -4.1 C 0 km/h
1696 01-12-2010 03:18:03 -4.2 C 2.42 g/m*3 -4.2 C 0 km/h
1697 01-12-2010 03:30:04 -4.3 C 2.36 g/m*3 -4.3 C 0 km/h
1698 01-12-2010 03:42:04 -4.5 C 2.33 g/m*3 -4.5 C 0 km/h
1699 01-12-2010 03:54:04 -4.6 C 2.28 g/m*3 -4.6 C 0 km/h
1700 01-12-2010 04:06:04 -4.8 C 2.28 g/m*3 -4.8 C 0 km/h
Sensor: Nr:Datum:Temp:Abs-Feuchte:Windchill:Wind:
Aussen-T/F 1701 01-12-2010 04:18:04 -4.9 C 2.26 g/m*3 -4.9 C 0 km/h
1702 01-12-2010 04:30:04 -5 C 2.21 g/m*3 -5 C 0 km/h
1703 01-12-2010 04:42:04 -5.1 C 2.2 g/m*3 -5.1 C 0 km/h
1704 01-12-2010 04:54:04 -5.2 C 2.22 g/m*3 -5.2 C 0 km/h
1705 01-12-2010 05:06:04 -5.3 C 2.17 g/m*3 -5.3 C 0 km/h
1706 01-12-2010 05:18:04 -5.4 C 2.18 g/m*3 -5.4 C 0 km/h
1707 01-12-2010 05:30:04 -5.4 C 2.18 g/m*3 -5.4 C 0 km/h
1708 01-12-2010 05:42:04 -5.5 C 2.17 g/m*3 -5.5 C 0 km/h
1709 01-12-2010 05:54:04 -5.4 C 2.22 g/m*3 -5.4 C 0 km/h
1710 01-12-2010 06:06:04 -5.4 C 2.18 g/m*3 -5.4 C 0 km/h
1711 01-12-2010 06:18:04 -5.4 C 2.18 g/m*3 -5.4 C 0 km/h
1712 01-12-2010 06:30:04 -5.6 C 2.12 g/m*3 -5.6 C 0 km/h
1713 01-12-2010 06:42:04 -5.6 C 2.12 g/m*3 -5.6 C 0 km/h
1714 01-12-2010 06:54:04 -5.8 C 2.09 g/m*3 -5.8 C 0 km/h
1715 01-12-2010 07:06:04 -5.8 C 2.09 g/m*3 -5.8 C 0 km/h
1716 01-12-2010 07:18:04 -5.8 C 2.09 g/m*3 -5.8 C 0 km/h
1717 01-12-2010 07:30:04 -5.9 C 2.04 g/m*3 -5.9 C 0 km/h
1718 01-12-2010 07:42:03 -6 C 2.03 g/m*3 -6 C 0 km/h
1719 01-12-2010 07:54:02 -6 C 2.03 g/m*3 -6 C 0 km/h
1720 01-12-2010 08:06:02 -6.1 C 1.98 g/m*3 -6.1 C 0 km/h
1721 01-12-2010 08:18:02 -6.2 C 1.97 g/m*3 -6.2 C 0 km/h
1722 01-12-2010 08:30:02 -6.2 C 1.97 g/m*3 -6.2 C 0 km/h
1723 01-12-2010 08:42:02 -6.4 C 1.91 g/m*3 -6.4 C 0 km/h
1724 01-12-2010 08:54:01 -6.4 C 1.91 g/m*3 -6.4 C 0 km/h
1725 01-12-2010 09:06:02 -6.2 C 1.94 g/m*3 -6.2 C 0 km/h
Sensor: Nr:Datum:Temp:Abs-Feuchte:Windchill:Wind:
Aussen-T/F 1726 01-12-2010 09:18:01 -6.1 C 1.92 g/m*3 -6.1 C 0 km/h
1727 01-12-2010 09:30:01 -6 C 1.9 g/m*3 -6 C 0 km/h
1728 01-12-2010 09:42:02 -5.8 C 1.93 g/m*3 -5.8 C 0 km/h
1729 01-12-2010 09:54:02 -5.7 C 1.94 g/m*3 -5.7 C 0 km/h
1730 01-12-2010 10:06:02 -5.6 C 1.96 g/m*3 -5.6 C 0 km/h
1731 01-12-2010 10:18:01 -5.5 C 1.97 g/m*3 -5.5 C 0 km/h
1732 01-12-2010 10:30:01 -5.4 C 1.95 g/m*3 -5.4 C 0 km/h
1733 01-12-2010 10:42:02 -5.6 C 1.92 g/m*3 -5.6 C 0 km/h
1734 01-12-2010 10:54:01 -5.6 C 1.96 g/m*3 -5.6 C 0 km/h
1735 01-12-2010 11:06:02 -5.5 C 1.97 g/m*3 -5.5 C 0 km/h
1736 01-12-2010 11:18:02 -5.4 C 1.98 g/m*3 -5.4 C 0 km/h
1737 01-12-2010 11:30:02 -5.4 C 1.98 g/m*3 -5.4 C 0 km/h
1738 01-12-2010 11:42:02 -5.6 C 1.96 g/m*3 -5.6 C 0 km/h
1739 01-12-2010 11:54:02 -5.5 C 1.97 g/m*3 -5.5 C 0 km/h
1740 01-12-2010 12:06:01 -5.6 C 1.96 g/m*3 -5.6 C 0 km/h
1741 01-12-2010 12:18:02 -5.7 C 1.94 g/m*3 -5.7 C 0 km/h
1742 01-12-2010 12:30:03 -5.8 C 1.93 g/m*3 -5.8 C 0 km/h
1743 01-12-2010 12:42:01 -6 C 1.9 g/m*3 -6 C 0 km/h
1744 01-12-2010 12:54:02 -6 C 1.9 g/m*3 -6 C 0 km/h
1745 01-12-2010 13:06:01 -6 C 1.87 g/m*3 -6 C 0 km/h
1746 01-12-2010 13:18:01 -6.1 C 1.89 g/m*3 -6.1 C 0 km/h
1747 01-12-2010 13:30:01 -6.1 C 1.86 g/m*3 -6.1 C 0 km/h
1748 01-12-2010 13:42:02 -6.1 C 1.82 g/m*3 -6.1 C 0 km/h
1749 01-12-2010 13:54:02 -6.2 C 1.81 g/m*3 -6.2 C 0 km/h
1750 01-12-2010 14:06:02 -6.2 C 1.81 g/m*3 -6.2 C 0 km/h
Sensor: Nr:Datum:Temp:Abs-Feuchte:Windchill:Wind:
Aussen-T/F 1751 01-12-2010 14:18:02 -6.2 C 1.78 g/m*3 -6.2 C 0 km/h
1752 01-12-2010 14:30:02 -6.2 C 1.78 g/m*3 -6.2 C 0 km/h
1753 01-12-2010 14:42:02 -6.1 C 1.79 g/m*3 -6.1 C 0 km/h
1754 01-12-2010 14:54:02 -6.2 C 1.78 g/m*3 -6.2 C 0 km/h
1755 01-12-2010 15:06:02 -6.2 C 1.78 g/m*3 -6.2 C 0 km/h
1756 01-12-2010 15:18:02 -6.2 C 1.78 g/m*3 -6.2 C 0 km/h
1757 01-12-2010 15:30:02 -6.3 C 1.77 g/m*3 -6.3 C 0 km/h
1758 01-12-2010 15:42:02 -6.3 C 1.8 g/m*3 -6.3 C 0 km/h
1759 01-12-2010 15:54:01 -6.4 C 1.78 g/m*3 -6.4 C 0 km/h
1760 01-12-2010 16:06:01 -6.5 C 1.74 g/m*3 -6.5 C 0 km/h
1761 01-12-2010 16:18:02 -6.6 C 1.73 g/m*3 -6.6 C 0 km/h
1762 01-12-2010 16:30:02 -6.6 C 1.76 g/m*3 -6.6 C 0 km/h
1763 01-12-2010 16:42:01 -6.6 C 1.76 g/m*3 -6.6 C 0 km/h
1764 01-12-2010 16:54:01 -6.6 C 1.76 g/m*3 -6.6 C 0 km/h
1765 01-12-2010 17:06:01 -6.6 C 1.79 g/m*3 -6.6 C 0 km/h
1766 01-12-2010 17:18:02 -6.6 C 1.79 g/m*3 -6.6 C 0 km/h
1767 01-12-2010 17:30:02 -6.6 C 1.79 g/m*3 -6.6 C 0 km/h
1768 01-12-2010 17:42:01 -6.6 C 1.79 g/m*3 -6.6 C 0 km/h
1769 01-12-2010 17:54:03 -6.5 C 1.83 g/m*3 -6.5 C 0 km/h
1770 01-12-2010 18:06:02 -6.5 C 1.83 g/m*3 -6.5 C 0 km/h
1771 01-12-2010 18:18:02 -6.5 C 1.83 g/m*3 -6.5 C 0 km/h
1772 01-12-2010 18:30:02 -6.6 C 1.79 g/m*3 -6.6 C 0 km/h
1773 01-12-2010 18:42:02 -6.5 C 1.83 g/m*3 -6.5 C 0 km/h
1774 01-12-2010 18:54:02 -6.6 C 1.82 g/m*3 -6.6 C 0 km/h
1775 01-12-2010 19:06:01 -6.6 C 1.82 g/m*3 -6.6 C 0 km/h
Sensor: Nr:Datum:Temp:Abs-Feuchte:Windchill:Wind:
Aussen-T/F 1776 01-12-2010 19:18:02 -6.5 C 1.8 g/m*3 -6.5 C 0 km/h
1777 01-12-2010 19:30:02 -6.6 C 1.82 g/m*3 -6.6 C 0 km/h
1778 01-12-2010 19:42:02 -6.6 C 1.82 g/m*3 -6.6 C 0 km/h
1779 01-12-2010 19:54:02 -6.6 C 1.79 g/m*3 -6.6 C 0 km/h
1780 01-12-2010 20:06:03 -6.6 C 1.79 g/m*3 -6.6 C 0 km/h
1781 01-12-2010 20:18:02 -6.6 C 1.76 g/m*3 -6.6 C 0 km/h
1782 01-12-2010 20:30:02 -6.7 C 1.75 g/m*3 -6.7 C 0 km/h
1783 01-12-2010 20:42:02 -6.7 C 1.75 g/m*3 -6.7 C 0 km/h
1784 01-12-2010 20:54:01 -6.6 C 1.82 g/m*3 -6.6 C 0 km/h
1785 01-12-2010 21:06:02 -6.6 C 1.82 g/m*3 -6.6 C 0 km/h
1786 01-12-2010 21:18:01 -6.8 C 1.73 g/m*3 -6.8 C 0 km/h
1787 01-12-2010 21:30:01 -6.8 C 1.7 g/m*3 -6.8 C 0 km/h
1788 01-12-2010 21:42:01 -6.7 C 1.75 g/m*3 -6.7 C 0 km/h
1789 01-12-2010 21:54:01 -6.8 C 1.7 g/m*3 -6.8 C 0 km/h
1790 01-12-2010 22:06:01 -6.8 C 1.67 g/m*3 -6.8 C 0 km/h
1791 01-12-2010 22:18:02 -6.8 C 1.7 g/m*3 -6.8 C 0 km/h
1792 01-12-2010 22:30:02 -6.9 C 1.72 g/m*3 -6.9 C 0 km/h
1793 01-12-2010 22:42:01 -6.9 C 1.75 g/m*3 -6.9 C 0 km/h
1794 01-12-2010 22:54:02 -6.9 C 1.78 g/m*3 -6.9 C 0 km/h
1795 01-12-2010 23:06:02 -7 C 1.74 g/m*3 -7 C 0 km/h
1796 01-12-2010 23:18:02 -7 C 1.77 g/m*3 -7 C 0 km/h
1797 01-12-2010 23:30:02 -7 C 1.8 g/m*3 -7 C 0 km/h
1798 01-12-2010 23:42:03 -7.1 C 1.78 g/m*3 -7.1 C 0 km/h
1799 01-12-2010 23:54:02 -7.2 C 1.77 g/m*3 -7.2 C 0 km/h
1800 02-12-2010 00:06:02 -7.1 C 1.81 g/m*3 -7.1 C 0 km/h
Sensor: Nr:Datum:Temp:Abs-Feuchte:Windchill:Wind:
Aussen-T/F 1801 02-12-2010 00:18:01 -7.1 C 1.81 g/m*3 -7.1 C 0 km/h
1802 02-12-2010 00:30:01 -7.1 C 1.84 g/m*3 -7.1 C 0 km/h
1803 02-12-2010 00:42:02 -7.2 C 1.8 g/m*3 -7.2 C 0 km/h
1804 02-12-2010 00:54:02 -7.2 C 1.8 g/m*3 -7.2 C 0 km/h
1805 02-12-2010 01:06:02 -7.2 C 1.8 g/m*3 -7.2 C 0 km/h
1806 02-12-2010 01:18:02 -7.1 C 1.81 g/m*3 -7.1 C 0 km/h
1807 02-12-2010 01:30:02 -7.1 C 1.78 g/m*3 -7.1 C 0 km/h
1808 02-12-2010 01:42:02 -7.1 C 1.78 g/m*3 -7.1 C 0 km/h
1809 02-12-2010 01:54:02 -7.1 C 1.75 g/m*3 -7.1 C 0 km/h
1810 02-12-2010 02:06:02 -7.2 C 1.74 g/m*3 -7.2 C 0 km/h
1811 02-12-2010 02:18:03 -7.3 C 1.67 g/m*3 -7.3 C 0 km/h
1812 02-12-2010 02:30:03 -7.3 C 1.7 g/m*3 -7.3 C 0 km/h
1813 02-12-2010 02:42:02 -7.3 C 1.7 g/m*3 -7.3 C 0 km/h
1814 02-12-2010 02:55:04 -7.3 C 1.73 g/m*3 -7.3 C 0 km/h
1815 02-12-2010 03:07:04 -7.3 C 1.73 g/m*3 -7.3 C 0 km/h
1816 02-12-2010 03:19:04 -7.2 C 1.77 g/m*3 -7.2 C 0 km/h
1817 02-12-2010 03:31:01 -7.3 C 1.76 g/m*3 -7.3 C 0 km/h
1818 02-12-2010 03:43:01 -7.4 C 1.72 g/m*3 -7.4 C 0 km/h
1819 02-12-2010 03:55:01 -7.4 C 1.72 g/m*3 -7.4 C 0 km/h
1820 02-12-2010 04:07:01 -7.5 C 1.73 g/m*3 -7.5 C 0 km/h
1821 02-12-2010 04:19:01 -7.5 C 1.76 g/m*3 -7.5 C 0 km/h
1822 02-12-2010 04:31:01 -7.5 C 1.79 g/m*3 -7.5 C 0 km/h
1823 02-12-2010 04:43:01 -7.5 C 1.82 g/m*3 -7.5 C 0 km/h
1824 02-12-2010 04:55:01 -7.5 C 1.79 g/m*3 -7.5 C 0 km/h
1825 02-12-2010 05:07:01 -7.6 C 1.77 g/m*3 -7.6 C 0 km/h
Sensor: Nr:Datum:Temp:Abs-Feuchte:Windchill:Wind:
Aussen-T/F 1826 02-12-2010 05:19:02 -7.6 C 1.77 g/m*3 -7.6 C 0 km/h
1827 02-12-2010 05:31:01 -7.6 C 1.77 g/m*3 -7.6 C 0 km/h
1828 02-12-2010 05:43:01 -7.6 C 1.83 g/m*3 -7.6 C 0 km/h
1829 02-12-2010 05:55:03 -7.8 C 1.78 g/m*3 -7.8 C 0 km/h
1830 02-12-2010 06:07:02 -7.8 C 1.8 g/m*3 -7.8 C 0 km/h
1831 02-12-2010 06:19:02 -7.7 C 1.85 g/m*3 -7.7 C 0 km/h
1832 02-12-2010 06:31:02 -7.8 C 1.83 g/m*3 -7.8 C 0 km/h
1833 02-12-2010 06:43:02 -7.8 C 1.83 g/m*3 -7.8 C 0 km/h
1834 02-12-2010 06:55:02 -7.7 C 1.87 g/m*3 -7.7 C 0 km/h
1835 02-12-2010 07:07:01 -7.7 C 1.9 g/m*3 -7.7 C 0 km/h
1836 02-12-2010 07:19:02 -7.7 C 1.9 g/m*3 -7.7 C 0 km/h
1837 02-12-2010 07:31:02 -7.8 C 1.86 g/m*3 -7.8 C 0 km/h
1838 02-12-2010 07:43:02 -7.7 C 1.9 g/m*3 -7.7 C 0 km/h
1839 02-12-2010 07:55:02 -7.7 C 1.9 g/m*3 -7.7 C 0 km/h
1840 02-12-2010 08:07:02 -7.7 C 1.9 g/m*3 -7.7 C 0 km/h
1841 02-12-2010 08:19:02 -7.7 C 1.87 g/m*3 -7.7 C 0 km/h
1842 02-12-2010 08:31:03 -7.7 C 1.87 g/m*3 -7.7 C 0 km/h
1843 02-12-2010 08:43:03 -7.8 C 1.83 g/m*3 -7.8 C 0 km/h
1844 02-12-2010 08:55:02 -7.6 C 1.86 g/m*3 -7.6 C 0 km/h
1845 02-12-2010 09:07:01 -7.4 C 1.92 g/m*3 -7.4 C 0 km/h
1846 02-12-2010 09:19:01 -7.1 C 1.96 g/m*3 -7.1 C 0 km/h
1847 02-12-2010 09:31:02 -7.2 C 1.94 g/m*3 -7.2 C 0 km/h
1848 02-12-2010 09:43:02 -7.1 C 1.96 g/m*3 -7.1 C 0 km/h
1849 02-12-2010 09:55:02 -6.7 C 2.02 g/m*3 -6.7 C 0 km/h
1850 02-12-2010 10:07:02 -6.5 C 2.02 g/m*3 -6.5 C 0 km/h
Sensor: Nr:Datum:Temp:Abs-Feuchte:Windchill:Wind:
Aussen-T/F 1851 02-12-2010 10:19:02 -6.3 C 1.98 g/m*3 -6.3 C 0 km/h
1852 02-12-2010 10:31:02 -6.1 C 1.98 g/m*3 -6.1 C 0 km/h
1853 02-12-2010 10:43:02 -6 C 1.96 g/m*3 -6 C 0 km/h
1854 02-12-2010 10:55:02 -5.8 C 2.02 g/m*3 -5.8 C 0 km/h
1855 02-12-2010 11:07:02 -5.8 C 2.02 g/m*3 -5.8 C 0 km/h
1856 02-12-2010 11:19:01 -6.1 C 1.95 g/m*3 -6.1 C 0 km/h
1857 02-12-2010 11:31:02 -5.2 C 2.11 g/m*3 -5.2 C 0 km/h
1858 02-12-2010 11:43:02 -5.6 C 2.02 g/m*3 -5.6 C 0 km/h
1859 02-12-2010 11:55:01 -5.4 C 2.05 g/m*3 -5.4 C 0 km/h
1860 02-12-2010 12:07:02 -6.2 C 1.97 g/m*3 -6.2 C 0 km/h
1861 02-12-2010 12:19:02 -6.2 C 2.03 g/m*3 -6.2 C 0 km/h
1862 02-12-2010 12:31:01 -6.1 C 2.04 g/m*3 -6.1 C 0 km/h
1863 02-12-2010 12:43:01 -6.1 C 2.08 g/m*3 -6.1 C 0 km/h
1864 02-12-2010 12:55:02 -5.8 C 2.15 g/m*3 -5.8 C 0 km/h
1865 02-12-2010 13:07:01 -5.8 C 2.12 g/m*3 -5.8 C 0 km/h
1866 02-12-2010 13:19:02 -5.7 C 2.14 g/m*3 -5.7 C 0 km/h
1867 02-12-2010 13:31:01 -5.3 C 2.2 g/m*3 -5.3 C 0 km/h
1868 02-12-2010 13:43:01 -4.5 C 2.26 g/m*3 -4.5 C 0 km/h
1869 02-12-2010 13:55:02 -5.2 C 2.05 g/m*3 -5.2 C 0 km/h
1870 02-12-2010 14:07:02 -5.1 C 2.13 g/m*3 -5.1 C 0 km/h
1871 02-12-2010 14:19:02 -5.6 C 2.12 g/m*3 -5.6 C 0 km/h
1872 02-12-2010 14:31:02 -6 C 2.06 g/m*3 -6 C 0 km/h
1873 02-12-2010 14:43:02 -6 C 2.15 g/m*3 -6 C 0 km/h
1874 02-12-2010 14:55:02 -5.3 C 2.33 g/m*3 -5.3 C 0 km/h
1875 02-12-2010 15:07:02 -4.9 C 2.37 g/m*3 -4.9 C 0 km/h
Sensor: Nr:Datum:Temp:Abs-Feuchte:Windchill:Wind:
Aussen-T/F 1876 02-12-2010 15:19:01 -4.6 C 2.31 g/m*3 -4.6 C 0 km/h
1877 02-12-2010 15:31:02 -4.6 C 2.24 g/m*3 -4.6 C 0 km/h
1878 02-12-2010 15:43:02 -4.8 C 2.21 g/m*3 -4.8 C 0 km/h
1879 02-12-2010 15:55:02 -4.8 C 2.25 g/m*3 -4.8 C 0 km/h
1880 02-12-2010 16:07:02 -4.9 C 2.26 g/m*3 -4.9 C 0 km/h
1881 02-12-2010 16:19:01 -5.1 C 2.26 g/m*3 -5.1 C 0 km/h
1882 02-12-2010 16:31:02 -5.1 C 2.3 g/m*3 -5.1 C 0 km/h
1883 02-12-2010 16:43:02 -5.2 C 2.32 g/m*3 -5.2 C 0 km/h
1884 02-12-2010 16:55:02 -5.3 C 2.37 g/m*3 -5.3 C 0 km/h
1885 02-12-2010 17:07:02 -5.7 C 2.3 g/m*3 -5.7 C 0 km/h
1886 02-12-2010 17:19:02 -6.9 C 2.11 g/m*3 -6.9 C 0 km/h
1887 02-12-2010 17:31:02 -7.9 C 2.04 g/m*3 -7.9 C 0 km/h
1888 02-12-2010 17:43:02 -8.2 C 2.05 g/m*3 -8.2 C 0 km/h
1889 02-12-2010 17:55:01 -8.1 C 2.12 g/m*3 -8.1 C 0 km/h
1890 02-12-2010 18:07:02 -8.2 C 2.13 g/m*3 -8.2 C 0 km/h
1891 02-12-2010 18:19:02 -8 C 2.19 g/m*3 -8 C 0 km/h
1892 02-12-2010 18:31:02 -7.8 C 2.25 g/m*3 -7.8 C 0 km/h
1893 02-12-2010 18:43:02 -8.2 C 2.18 g/m*3 -8.2 C 0 km/h
1894 02-12-2010 18:55:02 -7.9 C 2.23 g/m*3 -7.9 C 0 km/h
1895 02-12-2010 19:07:01 -7.9 C 2.26 g/m*3 -7.9 C 0 km/h
1896 02-12-2010 19:19:02 -7.9 C 2.26 g/m*3 -7.9 C 0 km/h
1897 02-12-2010 19:31:02 -8.6 C 2.12 g/m*3 -8.6 C 0 km/h
1898 02-12-2010 19:43:02 -8.9 C 2.07 g/m*3 -8.9 C 0 km/h
1899 02-12-2010 19:55:02 -8.8 C 2.09 g/m*3 -8.8 C 0 km/h
1900 02-12-2010 20:07:01 -9.4 C 2 g/m*3 -9.4 C 0 km/h
Sensor: Nr:Datum:Temp:Abs-Feuchte:Windchill:Wind:
Aussen-T/F 1901 02-12-2010 20:19:01 -9 C 2.06 g/m*3 -9 C 0 km/h
1902 02-12-2010 20:31:02 -7.7 C 2.32 g/m*3 -7.7 C 0 km/h
1903 02-12-2010 20:43:02 -7.2 C 2.41 g/m*3 -7.2 C 0 km/h
1904 02-12-2010 20:55:02 -6.9 C 2.49 g/m*3 -6.9 C 0 km/h
1905 02-12-2010 21:07:02 -6.9 C 2.46 g/m*3 -6.9 C 0 km/h
1906 02-12-2010 21:19:02 -7 C 2.44 g/m*3 -7 C 0 km/h
1907 02-12-2010 21:31:02 -7.5 C 2.33 g/m*3 -7.5 C 0 km/h
1908 02-12-2010 21:43:02 -7.9 C 2.26 g/m*3 -7.9 C 0 km/h
1909 02-12-2010 21:55:02 -8.4 C 2.15 g/m*3 -8.4 C 0 km/h
1910 02-12-2010 22:07:02 -8.2 C 2.21 g/m*3 -8.2 C 0 km/h
1911 02-12-2010 22:20:04 -8.5 C 2.13 g/m*3 -8.5 C 0 km/h
1912 02-12-2010 22:32:04 -8.9 C 2.07 g/m*3 -8.9 C 0 km/h
1913 02-12-2010 22:44:04 -8.9 C 2.05 g/m*3 -8.9 C 0 km/h
1914 02-12-2010 22:56:04 -8.2 C 2.18 g/m*3 -8.2 C 0 km/h
1915 02-12-2010 23:08:04 -8.3 C 2.17 g/m*3 -8.3 C 0 km/h
1916 02-12-2010 23:20:04 -7.8 C 2.28 g/m*3 -7.8 C 0 km/h
1917 02-12-2010 23:32:04 -7.9 C 2.23 g/m*3 -7.9 C 0 km/h
1918 02-12-2010 23:44:04 -7.8 C 2.25 g/m*3 -7.8 C 0 km/h
1919 02-12-2010 23:56:04 -8 C 2.22 g/m*3 -8 C 0 km/h
1920 03-12-2010 00:08:04 -8.5 C 2.11 g/m*3 -8.5 C 0 km/h
1921 03-12-2010 00:20:04 -9.5 C 1.93 g/m*3 -9.5 C 0 km/h
1922 03-12-2010 00:32:04 -10.1 C 1.82 g/m*3 -10.1 C 0 km/h
1923 03-12-2010 00:44:04 -10.7 C 1.72 g/m*3 -10.7 C 0 km/h
1924 03-12-2010 00:56:04 -10.6 C 1.73 g/m*3 -10.6 C 0 km/h
1925 03-12-2010 01:08:04 -10.4 C 1.76 g/m*3 -10.4 C 0 km/h
Sensor: Nr:Datum:Temp:Abs-Feuchte:Windchill:Wind:
Aussen-T/F 1926 03-12-2010 01:20:04 -9.8 C 1.89 g/m*3 -9.8 C 0 km/h
1927 03-12-2010 01:32:04 -9.7 C 1.9 g/m*3 -9.7 C 0 km/h
1928 03-12-2010 01:44:04 -9.3 C 1.99 g/m*3 -9.3 C 0 km/h
1929 03-12-2010 01:56:04 -9.1 C 2.02 g/m*3 -9.1 C 0 km/h
1930 03-12-2010 02:08:04 -9.1 C 2.02 g/m*3 -9.1 C 0 km/h
1931 03-12-2010 02:20:04 -9 C 2.03 g/m*3 -9 C 0 km/h
1932 03-12-2010 02:32:05 -9.1 C 1.99 g/m*3 -9.1 C 0 km/h
1933 03-12-2010 02:44:05 -9.1 C 1.99 g/m*3 -9.1 C 0 km/h
1934 03-12-2010 02:56:05 -9.3 C 1.96 g/m*3 -9.3 C 0 km/h
1935 03-12-2010 03:08:05 -9.2 C 1.98 g/m*3 -9.2 C 0 km/h
1936 03-12-2010 03:20:05 -9 C 2.01 g/m*3 -9 C 0 km/h
1937 03-12-2010 03:32:05 -8.7 C 2.05 g/m*3 -8.7 C 0 km/h
1938 03-12-2010 03:44:05 -8.5 C 2.11 g/m*3 -8.5 C 0 km/h
1939 03-12-2010 03:56:05 -8.5 C 2.08 g/m*3 -8.5 C 0 km/h
1940 03-12-2010 04:08:05 -8.2 C 2.13 g/m*3 -8.2 C 0 km/h
1941 03-12-2010 04:20:05 -8.1 C 2.14 g/m*3 -8.1 C 0 km/h
1942 03-12-2010 04:32:05 -7.9 C 2.18 g/m*3 -7.9 C 0 km/h
1943 03-12-2010 04:44:05 -8 C 2.16 g/m*3 -8 C 0 km/h
1944 03-12-2010 04:56:05 -8.1 C 2.12 g/m*3 -8.1 C 0 km/h
1945 03-12-2010 05:08:05 -8.6 C 2.04 g/m*3 -8.6 C 0 km/h
1946 03-12-2010 05:20:05 -8.8 C 1.98 g/m*3 -8.8 C 0 km/h
1947 03-12-2010 05:32:05 -8.6 C 2.04 g/m*3 -8.6 C 0 km/h
1948 03-12-2010 05:44:05 -8.5 C 2.08 g/m*3 -8.5 C 0 km/h
1949 03-12-2010 05:56:05 -8.9 C 2 g/m*3 -8.9 C 0 km/h
1950 03-12-2010 06:08:05 -9.5 C 1.91 g/m*3 -9.5 C 0 km/h
Sensor: Nr:Datum:Temp:Abs-Feuchte:Windchill:Wind:
Aussen-T/F 1951 03-12-2010 06:20:05 -9.8 C 1.84 g/m*3 -9.8 C 0 km/h
1952 03-12-2010 06:32:06 -9.6 C 1.89 g/m*3 -9.6 C 0 km/h
1953 03-12-2010 06:44:06 -9.4 C 1.92 g/m*3 -9.4 C 0 km/h
1954 03-12-2010 06:56:06 -9.1 C 1.99 g/m*3 -9.1 C 0 km/h
1955 03-12-2010 07:08:03 -8.7 C 2.08 g/m*3 -8.7 C 0 km/h
1956 03-12-2010 07:20:04 -8.7 C 2.08 g/m*3 -8.7 C 0 km/h
1957 03-12-2010 07:32:03 -8.9 C 2.02 g/m*3 -8.9 C 0 km/h
1958 03-12-2010 07:44:03 -9 C 2.01 g/m*3 -9 C 0 km/h
1959 03-12-2010 07:56:02 -9.3 C 1.96 g/m*3 -9.3 C 0 km/h
1960 03-12-2010 08:08:02 -9.5 C 1.93 g/m*3 -9.5 C 0 km/h
1961 03-12-2010 08:20:02 -9.9 C 1.85 g/m*3 -9.9 C 0 km/h
1962 03-12-2010 08:32:03 -10.2 C 1.81 g/m*3 -10.2 C 0 km/h
1963 03-12-2010 08:44:03 -10 C 1.84 g/m*3 -10 C 0 km/h
1964 03-12-2010 08:56:02 -10 C 1.84 g/m*3 -10 C 0 km/h
1965 03-12-2010 09:08:01 -10 C 1.84 g/m*3 -10 C 0 km/h
1966 03-12-2010 09:20:02 -9.8 C 1.87 g/m*3 -9.8 C 0 km/h
1967 03-12-2010 09:32:02 -10 C 1.81 g/m*3 -10 C 0 km/h
1968 03-12-2010 09:44:02 -9.8 C 1.84 g/m*3 -9.8 C 0 km/h
1969 03-12-2010 09:56:02 -9.4 C 1.87 g/m*3 -9.4 C 0 km/h
1970 03-12-2010 10:08:03 -9.1 C 1.92 g/m*3 -9.1 C 0 km/h
1971 03-12-2010 10:20:02 -8.6 C 1.96 g/m*3 -8.6 C 0 km/h
1972 03-12-2010 10:32:02 -8.2 C 2.05 g/m*3 -8.2 C 0 km/h
1973 03-12-2010 10:44:02 -7.5 C 2.16 g/m*3 -7.5 C 0 km/h
1974 03-12-2010 10:56:01 -7.1 C 2.19 g/m*3 -7.1 C 0 km/h
1975 03-12-2010 11:08:02 -6.6 C 2.24 g/m*3 -6.6 C 0 km/h
Sensor: Nr:Datum:Temp:Abs-Feuchte:Windchill:Wind:
Aussen-T/F 1976 03-12-2010 11:20:01 -6.6 C 2.21 g/m*3 -6.6 C 0 km/h
1977 03-12-2010 11:32:01 -6.4 C 2.21 g/m*3 -6.4 C 0 km/h
1978 03-12-2010 11:44:01 -6.2 C 2.22 g/m*3 -6.2 C 0 km/h
1979 03-12-2010 11:56:01 -5.8 C 2.25 g/m*3 -5.8 C 0 km/h
1980 03-12-2010 12:08:01 -5.7 C 2.23 g/m*3 -5.7 C 0 km/h
1981 03-12-2010 12:20:02 -5.4 C 2.25 g/m*3 -5.4 C 0 km/h
1982 03-12-2010 12:32:01 -4.9 C 2.33 g/m*3 -4.9 C 0 km/h
1983 03-12-2010 12:44:01 -4.8 C 2.31 g/m*3 -4.8 C 0 km/h
1984 03-12-2010 12:56:02 -5 C 2.28 g/m*3 -5 C 0 km/h
1985 03-12-2010 13:08:01 -4.9 C 2.3 g/m*3 -4.9 C 0 km/h
1986 03-12-2010 13:20:02 -4.7 C 2.33 g/m*3 -4.7 C 0 km/h
1987 03-12-2010 13:32:01 -4.8 C 2.31 g/m*3 -4.8 C 0 km/h
1988 03-12-2010 13:44:01 -4.7 C 2.33 g/m*3 -4.7 C 0 km/h
1989 03-12-2010 13:56:02 -4.6 C 2.35 g/m*3 -4.6 C 0 km/h
1990 03-12-2010 14:08:02 -4.4 C 2.35 g/m*3 -4.4 C 0 km/h
1991 03-12-2010 14:20:02 -4.3 C 2.4 g/m*3 -4.3 C 0 km/h
1992 03-12-2010 14:32:02 -4.3 C 2.36 g/m*3 -4.3 C 0 km/h
1993 03-12-2010 14:44:02 -4.2 C 2.38 g/m*3 -4.2 C 0 km/h
1994 03-12-2010 14:56:02 -4.1 C 2.4 g/m*3 -4.1 C 0 km/h
1995 03-12-2010 15:08:02 -4.2 C 2.42 g/m*3 -4.2 C 0 km/h
1996 03-12-2010 15:20:01 -4.4 C 2.42 g/m*3 -4.4 C 0 km/h
1997 03-12-2010 15:32:02 -4.7 C 2.4 g/m*3 -4.7 C 0 km/h
1998 03-12-2010 15:44:02 -4.8 C 2.42 g/m*3 -4.8 C 0 km/h
1999 03-12-2010 15:56:02 -5.3 C 2.37 g/m*3 -5.3 C 0 km/h
2000 03-12-2010 16:08:02 -5.7 C 2.36 g/m*3 -5.7 C 0 km/h
Sensor: Nr:Datum:Temp:Abs-Feuchte:Windchill:Wind:
Aussen-T/F 2001 03-12-2010 16:20:02 -6.1 C 2.36 g/m*3 -6.1 C 0 km/h
2002 03-12-2010 16:32:02 -6.3 C 2.35 g/m*3 -6.3 C 0 km/h
2003 03-12-2010 16:44:02 -6.3 C 2.39 g/m*3 -6.3 C 0 km/h
2004 03-12-2010 16:56:02 -6.5 C 2.38 g/m*3 -6.5 C 0 km/h
2005 03-12-2010 17:08:02 -6.8 C 2.33 g/m*3 -6.8 C 0 km/h
2006 03-12-2010 17:20:02 -6.8 C 2.36 g/m*3 -6.8 C 0 km/h
2007 03-12-2010 17:32:02 -7 C 2.33 g/m*3 -7 C 0 km/h
2008 03-12-2010 17:44:02 -7 C 2.36 g/m*3 -7 C 0 km/h
2009 03-12-2010 17:56:02 -7.3 C 2.3 g/m*3 -7.3 C 0 km/h
2010 03-12-2010 18:08:02 -7.4 C 2.29 g/m*3 -7.4 C 0 km/h
2011 03-12-2010 18:20:02 -7.3 C 2.3 g/m*3 -7.3 C 0 km/h
2012 03-12-2010 18:32:02 -7 C 2.36 g/m*3 -7 C 0 km/h
2013 03-12-2010 18:44:02 -6.8 C 2.42 g/m*3 -6.8 C 0 km/h
2014 03-12-2010 18:56:02 -6.6 C 2.46 g/m*3 -6.6 C 0 km/h
2015 03-12-2010 19:08:02 -6.1 C 2.58 g/m*3 -6.1 C 0 km/h
2016 03-12-2010 19:20:02 -5.8 C 2.64 g/m*3 -5.8 C 0 km/h
2017 03-12-2010 19:32:01 -5.7 C 2.65 g/m*3 -5.7 C 0 km/h
2018 03-12-2010 19:44:01 -5.6 C 2.64 g/m*3 -5.6 C 0 km/h
2019 03-12-2010 19:56:02 -5.5 C 2.66 g/m*3 -5.5 C 0 km/h
2020 03-12-2010 20:08:01 -5.5 C 2.63 g/m*3 -5.5 C 0 km/h
2021 03-12-2010 20:20:02 -5.4 C 2.65 g/m*3 -5.4 C 0 km/h
2022 03-12-2010 20:32:02 -5.3 C 2.67 g/m*3 -5.3 C 0 km/h
2023 03-12-2010 20:44:02 -5.3 C 2.63 g/m*3 -5.3 C 0 km/h
2024 03-12-2010 20:56:02 -5.3 C 2.63 g/m*3 -5.3 C 0 km/h
2025 03-12-2010 21:08:03 -5.3 C 2.63 g/m*3 -5.3 C 0 km/h
Sensor: Nr:Datum:Temp:Abs-Feuchte:Windchill:Wind:
Aussen-T/F 2026 03-12-2010 21:20:02 -5.5 C 2.56 g/m*3 -5.5 C 0 km/h
2027 03-12-2010 21:32:02 -6.1 C 2.45 g/m*3 -6.1 C 0 km/h
2028 03-12-2010 21:44:02 -6.1 C 2.48 g/m*3 -6.1 C 0 km/h
2029 03-12-2010 21:56:01 -5.6 C 2.61 g/m*3 -5.6 C 0 km/h
2030 03-12-2010 22:08:02 -5.9 C 2.55 g/m*3 -5.9 C 0 km/h
2031 03-12-2010 22:20:01 -6.5 C 2.41 g/m*3 -6.5 C 0 km/h
2032 03-12-2010 22:32:02 -6.9 C 2.37 g/m*3 -6.9 C 0 km/h
2033 03-12-2010 22:44:03 -7.2 C 2.32 g/m*3 -7.2 C 0 km/h
2034 03-12-2010 22:56:02 -7.4 C 2.32 g/m*3 -7.4 C 0 km/h
2035 03-12-2010 23:08:02 -8 C 2.22 g/m*3 -8 C 0 km/h
2036 03-12-2010 23:20:01 -8 C 2.22 g/m*3 -8 C 0 km/h
2037 03-12-2010 23:32:02 -8.2 C 2.18 g/m*3 -8.2 C 0 km/h
2038 03-12-2010 23:44:02 -7.2 C 2.41 g/m*3 -7.2 C 0 km/h
2039 03-12-2010 23:56:02 -8.2 C 2.21 g/m*3 -8.2 C 0 km/h
2040 04-12-2010 00:08:02 -8.7 C 2.13 g/m*3 -8.7 C 0 km/h
2041 04-12-2010 00:20:02 -8.4 C 2.18 g/m*3 -8.4 C 0 km/h
2042 04-12-2010 00:32:02 -8.5 C 2.16 g/m*3 -8.5 C 0 km/h
2043 04-12-2010 00:44:02 -8.6 C 2.14 g/m*3 -8.6 C 0 km/h
2044 04-12-2010 00:56:02 -8.3 C 2.22 g/m*3 -8.3 C 0 km/h
2045 04-12-2010 01:08:02 -8.2 C 2.24 g/m*3 -8.2 C 0 km/h
2046 04-12-2010 01:20:03 -9.1 C 2.04 g/m*3 -9.1 C 0 km/h
2047 04-12-2010 01:32:02 -9.4 C 2 g/m*3 -9.4 C 0 km/h
2048 04-12-2010 01:44:02 -9.4 C 2 g/m*3 -9.4 C 0 km/h
2049 04-12-2010 01:56:02 -9.4 C 2.02 g/m*3 -9.4 C 0 km/h
2050 04-12-2010 02:08:02 -9.6 C 1.97 g/m*3 -9.6 C 0 km/h
Sensor: Nr:Datum:Temp:Abs-Feuchte:Windchill:Wind:
Aussen-T/F 2051 04-12-2010 02:20:02 -9.4 C 2 g/m*3 -9.4 C 0 km/h
2052 04-12-2010 02:32:02 -9 C 2.08 g/m*3 -9 C 0 km/h
2053 04-12-2010 02:44:02 -9.1 C 2.04 g/m*3 -9.1 C 0 km/h
2054 04-12-2010 02:57:04 -9.2 C 2.03 g/m*3 -9.2 C 0 km/h
2055 04-12-2010 03:09:04 -9.8 C 1.94 g/m*3 -9.8 C 0 km/h
2056 04-12-2010 03:21:03 -10.4 C 1.83 g/m*3 -10.4 C 0 km/h
2057 04-12-2010 03:33:01 -10.5 C 1.79 g/m*3 -10.5 C 0 km/h
2058 04-12-2010 03:45:01 -10 C 1.88 g/m*3 -10 C 0 km/h
2059 04-12-2010 03:57:01 -9 C 2.06 g/m*3 -9 C 0 km/h
2060 04-12-2010 04:09:02 -8.8 C 2.09 g/m*3 -8.8 C 0 km/h
2061 04-12-2010 04:21:02 -8.2 C 2.21 g/m*3 -8.2 C 0 km/h
2062 04-12-2010 04:33:01 -8 C 2.24 g/m*3 -8 C 0 km/h
2063 04-12-2010 04:45:02 -7.6 C 2.31 g/m*3 -7.6 C 0 km/h
2064 04-12-2010 04:57:02 -7.2 C 2.38 g/m*3 -7.2 C 0 km/h
2065 04-12-2010 05:09:01 -6.9 C 2.43 g/m*3 -6.9 C 0 km/h
2066 04-12-2010 05:21:02 -6.3 C 2.57 g/m*3 -6.3 C 0 km/h
2067 04-12-2010 05:33:01 -5.1 C 2.81 g/m*3 -5.1 C 0 km/h
2068 04-12-2010 05:45:02 -4.5 C 2.82 g/m*3 -4.5 C 0 km/h
2069 04-12-2010 05:57:02 -4.8 C 2.73 g/m*3 -4.8 C 0 km/h
2070 04-12-2010 06:09:02 -4.5 C 2.68 g/m*3 -4.5 C 0 km/h
2071 04-12-2010 06:21:02 -4.9 C 2.57 g/m*3 -4.9 C 0 km/h
2072 04-12-2010 06:33:03 -5 C 2.55 g/m*3 -5 C 0 km/h
2073 04-12-2010 06:45:02 -5.3 C 2.53 g/m*3 -5.3 C 0 km/h
2074 04-12-2010 06:57:02 -5 C 2.62 g/m*3 -5 C 0 km/h
2075 04-12-2010 07:09:02 -5 C 2.62 g/m*3 -5 C 0 km/h
Sensor: Nr:Datum:Temp:Abs-Feuchte:Windchill:Wind:
Aussen-T/F 2076 04-12-2010 07:21:01 -5.3 C 2.53 g/m*3 -5.3 C 0 km/h
2077 04-12-2010 07:33:02 -5.4 C 2.51 g/m*3 -5.4 C 0 km/h
2078 04-12-2010 07:45:02 -5.2 C 2.58 g/m*3 -5.2 C 0 km/h
2079 04-12-2010 07:57:02 -4.8 C 2.66 g/m*3 -4.8 C 0 km/h
2080 04-12-2010 08:09:02 -4.8 C 2.63 g/m*3 -4.8 C 0 km/h
2081 04-12-2010 08:21:02 -4.1 C 2.76 g/m*3 -4.1 C 0 km/h
2082 04-12-2010 08:33:02 -3.8 C 2.71 g/m*3 -3.8 C 0 km/h
2083 04-12-2010 08:45:02 -3.5 C 2.65 g/m*3 -3.5 C 0 km/h
2084 04-12-2010 08:57:02 -3.5 C 2.58 g/m*3 -3.5 C 0 km/h
2085 04-12-2010 09:09:02 -3.3 C 2.61 g/m*3 -3.3 C 0 km/h
2086 04-12-2010 09:21:01 -3.1 C 2.57 g/m*3 -3.1 C 0 km/h
2087 04-12-2010 09:33:02 -3 C 2.59 g/m*3 -3 C 0 km/h
2088 04-12-2010 09:45:01 -2.9 C 2.61 g/m*3 -2.9 C 0 km/h
2089 04-12-2010 09:57:01 -3.2 C 2.52 g/m*3 -3.2 C 0 km/h
2090 04-12-2010 10:09:02 -2.9 C 2.57 g/m*3 -2.9 C 0 km/h
2091 04-12-2010 10:21:02 -2.4 C 2.66 g/m*3 -2.4 C 0 km/h
2092 04-12-2010 10:33:02 -2 C 2.82 g/m*3 -2 C 0 km/h
2093 04-12-2010 10:45:02 -1.8 C 2.69 g/m*3 -1.8 C 0 km/h
2094 04-12-2010 10:57:02 -1.5 C 2.62 g/m*3 -1.5 C 0 km/h
2095 04-12-2010 11:09:01 -1.5 C 2.58 g/m*3 -1.5 C 0 km/h
2096 04-12-2010 11:21:02 -1.3 C 2.43 g/m*3 -1.3 C 0 km/h
2097 04-12-2010 11:33:01 -1.5 C 2.4 g/m*3 -1.5 C 0 km/h
2098 04-12-2010 11:45:02 -1.3 C 2.43 g/m*3 -1.3 C 0 km/h
2099 04-12-2010 11:57:02 -1.3 C 2.39 g/m*3 -1.3 C 0 km/h
2100 04-12-2010 12:09:02 -1 C 2.49 g/m*3 -1 C 0 km/h
Sensor: Nr:Datum:Temp:Abs-Feuchte:Windchill:Wind:
Aussen-T/F 2101 04-12-2010 12:21:02 -0.9 C 2.41 g/m*3 -0.9 C 0 km/h
2102 04-12-2010 12:33:03 -0.7 C 2.49 g/m*3 -0.7 C 0 km/h
2103 04-12-2010 12:45:02 -0.8 C 2.43 g/m*3 -0.8 C 0 km/h
2104 04-12-2010 12:57:02 -0.9 C 2.46 g/m*3 -0.9 C 0 km/h
2105 04-12-2010 13:09:02 -1.3 C 2.39 g/m*3 -1.3 C 0 km/h
2106 04-12-2010 13:21:01 -1.6 C 2.38 g/m*3 -1.6 C 0 km/h
2107 04-12-2010 13:33:02 -1.6 C 2.38 g/m*3 -1.6 C 0 km/h
2108 04-12-2010 13:45:02 -1.3 C 2.43 g/m*3 -1.3 C 0 km/h
2109 04-12-2010 13:57:02 -1.2 C 2.45 g/m*3 -1.2 C 0 km/h
2110 04-12-2010 14:09:02 -1.1 C 2.47 g/m*3 -1.1 C 0 km/h
2111 04-12-2010 14:21:01 -1.1 C 2.47 g/m*3 -1.1 C 0 km/h
2112 04-12-2010 14:33:02 -0.9 C 2.46 g/m*3 -0.9 C 0 km/h
2113 04-12-2010 14:45:01 -1 C 2.49 g/m*3 -1 C 0 km/h
2114 04-12-2010 14:57:01 -0.9 C 2.46 g/m*3 -0.9 C 0 km/h
2115 04-12-2010 15:09:02 -0.9 C 2.5 g/m*3 -0.9 C 0 km/h
2116 04-12-2010 15:21:02 -0.9 C 2.5 g/m*3 -0.9 C 0 km/h
2117 04-12-2010 15:33:02 -0.9 C 2.5 g/m*3 -0.9 C 0 km/h
2118 04-12-2010 15:45:01 -0.9 C 2.5 g/m*3 -0.9 C 0 km/h
2119 04-12-2010 15:57:01 -1 C 2.58 g/m*3 -1 C 0 km/h
2120 04-12-2010 16:09:02 -1.1 C 2.6 g/m*3 -1.1 C 0 km/h
2121 04-12-2010 16:21:02 -1.1 C 2.6 g/m*3 -1.1 C 0 km/h
2122 04-12-2010 16:33:01 -1.3 C 2.66 g/m*3 -1.3 C 0 km/h
2123 04-12-2010 16:45:02 -1.2 C 2.67 g/m*3 -1.2 C 0 km/h
2124 04-12-2010 16:57:02 -1.4 C 2.68 g/m*3 -1.4 C 0 km/h
2125 04-12-2010 17:09:01 -1.2 C 2.72 g/m*3 -1.2 C 0 km/h
Sensor: Nr:Datum:Temp:Abs-Feuchte:Windchill:Wind:
Aussen-T/F 2126 04-12-2010 17:21:02 -1 C 2.76 g/m*3 -1 C 0 km/h
2127 04-12-2010 17:33:02 -1 C 2.76 g/m*3 -1 C 0 km/h
2128 04-12-2010 17:45:02 -1.1 C 2.78 g/m*3 -1.1 C 0 km/h
2129 04-12-2010 17:57:03 -1.1 C 2.78 g/m*3 -1.1 C 0 km/h
2130 04-12-2010 18:09:02 -1.1 C 2.78 g/m*3 -1.1 C 0 km/h
2131 04-12-2010 18:21:02 -1 C 2.8 g/m*3 -1 C 0 km/h
2132 04-12-2010 18:33:02 -0.8 C 2.8 g/m*3 -0.8 C 0 km/h
2133 04-12-2010 18:45:01 -0.8 C 2.8 g/m*3 -0.8 C 0 km/h
2134 04-12-2010 18:57:01 -0.8 C 2.8 g/m*3 -0.8 C 0 km/h
2135 04-12-2010 19:09:02 -0.9 C 2.78 g/m*3 -0.9 C 0 km/h
2136 04-12-2010 19:21:01 -0.8 C 2.8 g/m*3 -0.8 C 0 km/h
2137 04-12-2010 19:33:02 -0.8 C 2.8 g/m*3 -0.8 C 0 km/h
2138 04-12-2010 19:45:01 -1 C 2.8 g/m*3 -1 C 0 km/h
2139 04-12-2010 19:57:01 -1.1 C 2.78 g/m*3 -1.1 C 0 km/h
2140 04-12-2010 20:09:02 -1.1 C 2.83 g/m*3 -1.1 C 0 km/h
2141 04-12-2010 20:21:01 -1.2 C 2.85 g/m*3 -1.2 C 0 km/h
2142 04-12-2010 20:33:02 -0.9 C 2.87 g/m*3 -0.9 C 0 km/h
2143 04-12-2010 20:45:01 -0.7 C 2.91 g/m*3 -0.7 C 0 km/h
2144 04-12-2010 20:57:01 -0.9 C 2.91 g/m*3 -0.9 C 0 km/h
2145 04-12-2010 21:09:02 -1.2 C 2.94 g/m*3 -1.2 C 0 km/h
2146 04-12-2010 21:21:02 -1.1 C 3.01 g/m*3 -1.1 C 0 km/h
2147 04-12-2010 21:33:01 -1 C 3.12 g/m*3 -1 C 0 km/h
2148 04-12-2010 21:45:02 -1.1 C 3.28 g/m*3 -1.1 C 0 km/h
2149 04-12-2010 21:57:02 -1.1 C 3.32 g/m*3 -1.1 C 0 km/h
2150 04-12-2010 22:09:02 -1.3 C 3.32 g/m*3 -1.3 C 0 km/h
Sensor: Nr:Datum:Temp:Abs-Feuchte:Windchill:Wind:
Aussen-T/F 2151 04-12-2010 22:21:01 -1.1 C 3.46 g/m*3 -1.1 C 0 km/h
2152 04-12-2010 22:33:02 -1.3 C 3.45 g/m*3 -1.3 C 0 km/h
2153 04-12-2010 22:45:02 -1.1 C 3.55 g/m*3 -1.1 C 0 km/h
2154 04-12-2010 22:57:02 -1.1 C 3.55 g/m*3 -1.1 C 0 km/h
2155 04-12-2010 23:09:02 -1.3 C 3.5 g/m*3 -1.3 C 0 km/h
2156 04-12-2010 23:21:02 -1.4 C 3.47 g/m*3 -1.4 C 0 km/h
2157 04-12-2010 23:33:02 -1.1 C 3.5 g/m*3 -1.1 C 0 km/h
2158 04-12-2010 23:45:02 -1 C 3.53 g/m*3 -1 C 0 km/h
2159 04-12-2010 23:57:02 -0.8 C 3.53 g/m*3 -0.8 C 0 km/h
2160 05-12-2010 00:09:02 -0.8 C 3.48 g/m*3 -0.8 C 0 km/h
2161 05-12-2010 00:21:02 -0.7 C 3.51 g/m*3 -0.7 C 0 km/h
2162 05-12-2010 00:33:02 -0.5 C 3.51 g/m*3 -0.5 C 0 km/h
2163 05-12-2010 00:45:02 -0.4 C 3.49 g/m*3 -0.4 C 0 km/h
2164 05-12-2010 00:57:02 -0.1 C 3.42 g/m*3 -0.1 C 0 km/h
2165 05-12-2010 01:09:02 -0.1 C 3.42 g/m*3 -0.1 C 0 km/h
2166 05-12-2010 01:21:02 0.3 C 3.26 g/m*3 0.3 C 0 km/h
2167 05-12-2010 01:33:02 0.3 C 3.26 g/m*3 0.3 C 0 km/h
2168 05-12-2010 01:45:02 0.1 C 3.27 g/m*3 0.1 C 0 km/h
2169 05-12-2010 01:57:02 0 C 3.34 g/m*3 0 C 0 km/h
2170 05-12-2010 02:09:02 0 C 3.39 g/m*3 0 C 0 km/h
2171 05-12-2010 02:21:03 0.1 C 3.46 g/m*3 0.1 C 0 km/h
2172 05-12-2010 02:33:02 0 C 3.49 g/m*3 0 C 0 km/h
2173 05-12-2010 02:46:04 0 C 3.54 g/m*3 0 C 0 km/h
2174 05-12-2010 02:58:04 0 C 3.59 g/m*3 0 C 0 km/h
2175 05-12-2010 03:10:04 0 C 3.54 g/m*3 0 C 0 km/h
Sensor: Nr:Datum:Temp:Abs-Feuchte:Windchill:Wind:
Aussen-T/F 2176 05-12-2010 03:22:04 0.2 C 3.49 g/m*3 0.2 C 0 km/h
2177 05-12-2010 03:34:02 0.2 C 3.54 g/m*3 0.2 C 0 km/h
2178 05-12-2010 03:46:02 0.1 C 3.51 g/m*3 0.1 C 0 km/h
2179 05-12-2010 03:58:02 0.1 C 3.56 g/m*3 0.1 C 0 km/h
2180 05-12-2010 04:10:02 0.1 C 3.61 g/m*3 0.1 C 0 km/h
2181 05-12-2010 04:22:02 0.1 C 3.66 g/m*3 0.1 C 0 km/h
2182 05-12-2010 04:34:02 0.1 C 3.66 g/m*3 0.1 C 0 km/h
2183 05-12-2010 04:46:01 0.2 C 3.54 g/m*3 0.2 C 0 km/h
2184 05-12-2010 04:58:01 0.1 C 3.42 g/m*3 0.1 C 0 km/h
2185 05-12-2010 05:10:01 0.3 C 3.36 g/m*3 0.3 C 0 km/h
2186 05-12-2010 05:22:01 -0.1 C 3.32 g/m*3 -0.1 C 0 km/h
2187 05-12-2010 05:34:01 0.1 C 3.27 g/m*3 0.1 C 0 km/h
2188 05-12-2010 05:46:01 0.6 C 3.18 g/m*3 0.6 C 0 km/h
2189 05-12-2010 05:58:01 0.2 C 3.09 g/m*3 0.2 C 0 km/h
2190 05-12-2010 06:10:01 0.2 C 3.14 g/m*3 0.2 C 0 km/h
2191 05-12-2010 06:22:02 0.5 C 3.06 g/m*3 0.5 C 0 km/h
2192 05-12-2010 06:34:01 0.1 C 2.98 g/m*3 0.1 C 0 km/h
2193 05-12-2010 06:46:02 0.2 C 3 g/m*3 0.2 C 0 km/h
2194 05-12-2010 06:58:02 0.1 C 2.93 g/m*3 0.1 C 0 km/h
2195 05-12-2010 07:10:02 -0.2 C 3.01 g/m*3 -0.2 C 0 km/h
2196 05-12-2010 07:22:02 0.2 C 2.95 g/m*3 0.2 C 0 km/h
2197 05-12-2010 07:34:01 0.1 C 2.88 g/m*3 0.1 C 0 km/h
2198 05-12-2010 07:46:02 -0.2 C 2.82 g/m*3 -0.2 C 0 km/h
2199 05-12-2010 07:58:02 -0.3 C 2.89 g/m*3 -0.3 C 0 km/h
2200 05-12-2010 08:10:01 -0.5 C 2.9 g/m*3 -0.5 C 0 km/h
Sensor: Nr:Datum:Temp:Abs-Feuchte:Windchill:Wind:
Aussen-T/F 2201 05-12-2010 08:22:01 0.1 C 2.93 g/m*3 0.1 C 0 km/h
2202 05-12-2010 08:34:02 -0.1 C 2.84 g/m*3 -0.1 C 0 km/h
2203 05-12-2010 08:46:02 -0.4 C 2.83 g/m*3 -0.4 C 0 km/h
2204 05-12-2010 08:58:02 -0.7 C 3 g/m*3 -0.7 C 0 km/h
2205 05-12-2010 09:10:02 -0.6 C 3.02 g/m*3 -0.6 C 0 km/h
2206 05-12-2010 09:22:02 -0.4 C 3.02 g/m*3 -0.4 C 0 km/h
2207 05-12-2010 09:34:02 0 C 2.91 g/m*3 0 C 0 km/h
2208 05-12-2010 09:46:02 0.3 C 2.97 g/m*3 0.3 C 0 km/h
2209 05-12-2010 09:58:02 0.8 C 2.87 g/m*3 0.8 C 0 km/h
2210 05-12-2010 10:10:02 1.2 C 2.74 g/m*3 1.2 C 0 km/h
2211 05-12-2010 10:22:02 1.5 C 2.69 g/m*3 1.5 C 0 km/h
2212 05-12-2010 10:34:02 1.6 C 3.03 g/m*3 1.6 C 0 km/h
2213 05-12-2010 10:46:02 1.9 C 2.81 g/m*3 1.9 C 0 km/h
2214 05-12-2010 10:58:02 2.2 C 2.87 g/m*3 2.2 C 0 km/h
2215 05-12-2010 11:10:02 2.5 C 2.7 g/m*3 2.5 C 0 km/h
2216 05-12-2010 11:22:02 2.3 C 2.78 g/m*3 2.3 C 0 km/h
2217 05-12-2010 11:34:02 2.5 C 2.87 g/m*3 2.5 C 0 km/h
2218 05-12-2010 11:46:01 2.6 C 2.72 g/m*3 2.6 C 0 km/h
2219 05-12-2010 11:58:01 2.8 C 2.76 g/m*3 2.8 C 0 km/h
2220 05-12-2010 12:10:01 2.8 C 2.7 g/m*3 2.8 C 0 km/h
2221 05-12-2010 12:22:02 3 C 2.68 g/m*3 3 C 0 km/h
2222 05-12-2010 12:34:01 3.2 C 2.65 g/m*3 3.2 C 0 km/h
2223 05-12-2010 12:46:02 3.3 C 2.67 g/m*3 3.3 C 0 km/h
2224 05-12-2010 12:58:02 3.2 C 2.65 g/m*3 3.2 C 0 km/h
2225 05-12-2010 13:10:02 3.3 C 2.67 g/m*3 3.3 C 0 km/h
Sensor: Nr:Datum:Temp:Abs-Feuchte:Windchill:Wind:
Aussen-T/F 2226 05-12-2010 13:22:03 3.4 C 2.63 g/m*3 3.4 C 0 km/h
2227 05-12-2010 13:34:02 3.4 C 2.57 g/m*3 3.4 C 0 km/h
2228 05-12-2010 13:46:02 3.3 C 2.61 g/m*3 3.3 C 0 km/h
2229 05-12-2010 13:58:02 3.6 C 2.66 g/m*3 3.6 C 0 km/h
2230 05-12-2010 14:10:02 3.2 C 2.59 g/m*3 3.2 C 0 km/h
2231 05-12-2010 14:22:02 3.3 C 2.61 g/m*3 3.3 C 0 km/h
2232 05-12-2010 14:34:02 3.3 C 2.61 g/m*3 3.3 C 0 km/h
2233 05-12-2010 14:46:02 3.2 C 2.59 g/m*3 3.2 C 0 km/h
2234 05-12-2010 14:58:03 3.2 C 2.59 g/m*3 3.2 C 0 km/h
2235 05-12-2010 15:10:01 2.9 C 2.78 g/m*3 2.9 C 0 km/h
2236 05-12-2010 15:22:02 2.6 C 2.84 g/m*3 2.6 C 0 km/h
2237 05-12-2010 15:34:02 2.1 C 3.08 g/m*3 2.1 C 0 km/h
2238 05-12-2010 15:46:02 1.7 C 3.27 g/m*3 1.7 C 0 km/h
2239 05-12-2010 15:58:02 1.8 C 3.23 g/m*3 1.8 C 0 km/h
2240 05-12-2010 16:10:02 1.5 C 3.28 g/m*3 1.5 C 0 km/h
2241 05-12-2010 16:22:02 1.4 C 3.31 g/m*3 1.4 C 0 km/h
2242 05-12-2010 16:34:02 1.2 C 3.31 g/m*3 1.2 C 0 km/h
2243 05-12-2010 16:46:01 1.1 C 3.24 g/m*3 1.1 C 0 km/h
2244 05-12-2010 16:58:01 1 C 3.27 g/m*3 1 C 0 km/h
2245 05-12-2010 17:10:02 1 C 3.32 g/m*3 1 C 0 km/h
2246 05-12-2010 17:22:01 1.1 C 3.45 g/m*3 1.1 C 0 km/h
2247 05-12-2010 17:34:01 1.7 C 3.38 g/m*3 1.7 C 0 km/h
2248 05-12-2010 17:46:01 1.7 C 3.43 g/m*3 1.7 C 0 km/h
2249 05-12-2010 17:58:01 1.4 C 3.41 g/m*3 1.4 C 0 km/h
2250 05-12-2010 18:10:02 1 C 3.63 g/m*3 1 C 0 km/h
Sensor: Nr:Datum:Temp:Abs-Feuchte:Windchill:Wind:
Aussen-T/F 2251 05-12-2010 18:22:02 0.9 C 3.76 g/m*3 0.9 C 0 km/h
2252 05-12-2010 18:34:02 0.8 C 3.79 g/m*3 0.8 C 0 km/h
2253 05-12-2010 18:46:02 0.9 C 3.92 g/m*3 0.9 C 0 km/h
2254 05-12-2010 18:58:02 0.8 C 3.94 g/m*3 0.8 C 0 km/h
2255 05-12-2010 19:10:02 0.8 C 3.94 g/m*3 0.8 C 0 km/h
2256 05-12-2010 19:22:02 0.9 C 3.92 g/m*3 0.9 C 0 km/h
2257 05-12-2010 19:34:02 0.8 C 3.94 g/m*3 0.8 C 0 km/h
2258 05-12-2010 19:46:01 0.9 C 4.02 g/m*3 0.9 C 0 km/h
2259 05-12-2010 19:58:01 0.9 C 4.02 g/m*3 0.9 C 0 km/h
2260 05-12-2010 20:10:02 0.9 C 4.02 g/m*3 0.9 C 0 km/h
2261 05-12-2010 20:22:01 0.7 C 4.02 g/m*3 0.7 C 0 km/h
2262 05-12-2010 20:34:02 0.6 C 4.09 g/m*3 0.6 C 0 km/h
2263 05-12-2010 20:46:02 0.5 C 4.11 g/m*3 0.5 C 0 km/h
2264 05-12-2010 20:58:02 0.4 C 4.13 g/m*3 0.4 C 0 km/h
2265 05-12-2010 21:10:02 0.3 C 4.16 g/m*3 0.3 C 0 km/h
2266 05-12-2010 21:22:01 0.3 C 4.25 g/m*3 0.3 C 0 km/h
2267 05-12-2010 21:34:02 0.3 C 4.25 g/m*3 0.3 C 0 km/h
2268 05-12-2010 21:46:02 0.3 C 4.3 g/m*3 0.3 C 0 km/h
2269 05-12-2010 21:58:02 0.5 C 4.36 g/m*3 0.5 C 0 km/h
2270 05-12-2010 22:10:02 0.4 C 4.38 g/m*3 0.4 C 0 km/h
2271 05-12-2010 22:22:02 0.4 C 4.33 g/m*3 0.4 C 0 km/h
2272 05-12-2010 22:34:02 0.4 C 4.33 g/m*3 0.4 C 0 km/h
2273 05-12-2010 22:46:02 0.3 C 4.35 g/m*3 0.3 C 0 km/h
2274 05-12-2010 22:58:02 0.3 C 4.35 g/m*3 0.3 C 0 km/h
2275 05-12-2010 23:10:02 0.2 C 4.32 g/m*3 0.2 C 0 km/h
Sensor: Nr:Datum:Temp:Abs-Feuchte:Windchill:Wind:
Aussen-T/F 2276 05-12-2010 23:22:02 0.2 C 4.32 g/m*3 0.2 C 0 km/h
2277 05-12-2010 23:34:02 0.2 C 4.32 g/m*3 0.2 C 0 km/h
2278 05-12-2010 23:46:02 0.2 C 4.32 g/m*3 0.2 C 0 km/h
2279 05-12-2010 23:58:02 0.2 C 4.37 g/m*3 0.2 C 0 km/h
2280 06-12-2010 00:10:01 0.1 C 4.34 g/m*3 0.1 C 0 km/h
2281 06-12-2010 00:22:02 0.1 C 4.34 g/m*3 0.1 C 0 km/h
2282 06-12-2010 00:34:02 0.1 C 4.34 g/m*3 0.1 C 0 km/h
2283 06-12-2010 00:46:02 0.2 C 4.37 g/m*3 0.2 C 0 km/h
2284 06-12-2010 00:58:02 0.1 C 4.34 g/m*3 0.1 C 0 km/h
2285 06-12-2010 01:10:03 0.2 C 4.37 g/m*3 0.2 C 0 km/h
2286 06-12-2010 01:22:02 0.1 C 4.34 g/m*3 0.1 C 0 km/h
2287 06-12-2010 01:34:02 0.1 C 4.39 g/m*3 0.1 C 0 km/h
2288 06-12-2010 01:46:01 0.1 C 4.39 g/m*3 0.1 C 0 km/h
2289 06-12-2010 01:58:01 0.1 C 4.39 g/m*3 0.1 C 0 km/h
2290 06-12-2010 02:10:02 0.1 C 4.39 g/m*3 0.1 C 0 km/h
2291 06-12-2010 02:22:01 0.1 C 4.39 g/m*3 0.1 C 0 km/h
2292 06-12-2010 02:34:01 0.1 C 4.39 g/m*3 0.1 C 0 km/h
2293 06-12-2010 02:47:03 0.1 C 4.39 g/m*3 0.1 C 0 km/h
2294 06-12-2010 02:59:03 0.1 C 4.39 g/m*3 0.1 C 0 km/h
2295 06-12-2010 03:11:04 0.1 C 4.39 g/m*3 0.1 C 0 km/h
2296 06-12-2010 03:23:05 0.1 C 4.34 g/m*3 0.1 C 0 km/h
2297 06-12-2010 03:35:02 0.1 C 4.34 g/m*3 0.1 C 0 km/h
2298 06-12-2010 03:47:02 0.1 C 4.34 g/m*3 0.1 C 0 km/h
2299 06-12-2010 03:59:02 0.1 C 4.34 g/m*3 0.1 C 0 km/h
2300 06-12-2010 04:11:02 0.2 C 4.37 g/m*3 0.2 C 0 km/h
Sensor: Nr:Datum:Temp:Abs-Feuchte:Windchill:Wind:
Aussen-T/F 2301 06-12-2010 04:23:02 0.2 C 4.42 g/m*3 0.2 C 0 km/h
2302 06-12-2010 04:35:02 0.1 C 4.39 g/m*3 0.1 C 0 km/h
2303 06-12-2010 04:47:02 0.1 C 4.39 g/m*3 0.1 C 0 km/h
2304 06-12-2010 04:59:02 0.1 C 4.34 g/m*3 0.1 C 0 km/h
2305 06-12-2010 05:11:02 0 C 4.31 g/m*3 0 C 0 km/h
2306 06-12-2010 05:23:02 0 C 4.31 g/m*3 0 C 0 km/h
2307 06-12-2010 05:35:02 0.1 C 4.34 g/m*3 0.1 C 0 km/h
2308 06-12-2010 05:47:02 0 C 4.31 g/m*3 0 C 0 km/h
2309 06-12-2010 05:59:02 0.1 C 4.39 g/m*3 0.1 C 0 km/h
2310 06-12-2010 06:11:02 0.1 C 4.39 g/m*3 0.1 C 0 km/h
2311 06-12-2010 06:23:02 0 C 4.36 g/m*3 0 C 0 km/h
2312 06-12-2010 06:35:02 0 C 4.36 g/m*3 0 C 0 km/h
2313 06-12-2010 06:47:02 0 C 4.36 g/m*3 0 C 0 km/h
2314 06-12-2010 06:59:02 0 C 4.36 g/m*3 0 C 0 km/h
2315 06-12-2010 07:11:01 0 C 4.36 g/m*3 0 C 0 km/h
2316 06-12-2010 07:23:02 0 C 4.36 g/m*3 0 C 0 km/h
2317 06-12-2010 07:35:01 0 C 4.36 g/m*3 0 C 0 km/h
2318 06-12-2010 07:47:02 0 C 4.31 g/m*3 0 C 0 km/h
2319 06-12-2010 07:59:02 0 C 4.31 g/m*3 0 C 0 km/h
2320 06-12-2010 08:11:02 0 C 4.31 g/m*3 0 C 0 km/h
2321 06-12-2010 08:23:02 0 C 4.31 g/m*3 0 C 0 km/h
2322 06-12-2010 08:35:02 0 C 4.31 g/m*3 0 C 0 km/h
2323 06-12-2010 08:47:02 0.1 C 4.29 g/m*3 0.1 C 0 km/h
2324 06-12-2010 08:59:02 0.2 C 4.32 g/m*3 0.2 C 0 km/h
2325 06-12-2010 09:11:02 0.4 C 4.38 g/m*3 0.4 C 0 km/h
Sensor: Nr:Datum:Temp:Abs-Feuchte:Windchill:Wind:
Aussen-T/F 2326 06-12-2010 09:23:01 0.7 C 4.37 g/m*3 0.7 C 0 km/h
2327 06-12-2010 09:35:02 0.9 C 4.43 g/m*3 0.9 C 0 km/h
2328 06-12-2010 09:47:02 1.1 C 4.34 g/m*3 1.1 C 0 km/h
2329 06-12-2010 09:59:02 1.1 C 4.34 g/m*3 1.1 C 0 km/h
2330 06-12-2010 10:11:02 1.3 C 4.13 g/m*3 1.3 C 0 km/h
2331 06-12-2010 10:23:01 1.4 C 4.05 g/m*3 1.4 C 0 km/h
2332 06-12-2010 10:35:01 1.4 C 4.05 g/m*3 1.4 C 0 km/h
2333 06-12-2010 10:47:03 1.3 C 3.97 g/m*3 1.3 C 0 km/h
2334 06-12-2010 10:59:03 1.5 C 3.97 g/m*3 1.5 C 0 km/h
2335 06-12-2010 11:11:02 1.5 C 3.97 g/m*3 1.5 C 0 km/h
2336 06-12-2010 11:23:02 1.7 C 3.97 g/m*3 1.7 C 0 km/h
2337 06-12-2010 11:35:02 2 C 3.95 g/m*3 2 C 0 km/h
2338 06-12-2010 11:47:02 2 C 3.89 g/m*3 2 C 0 km/h
2339 06-12-2010 11:59:02 2.2 C 3.89 g/m*3 2.2 C 0 km/h
2340 06-12-2010 12:11:01 2.2 C 3.83 g/m*3 2.2 C 0 km/h
2341 06-12-2010 12:23:02 2.5 C 3.79 g/m*3 2.5 C 0 km/h
2342 06-12-2010 12:35:02 2.6 C 3.76 g/m*3 2.6 C 0 km/h
2343 06-12-2010 12:47:02 2.3 C 3.69 g/m*3 2.3 C 0 km/h
2344 06-12-2010 12:59:02 2.4 C 3.71 g/m*3 2.4 C 0 km/h
2345 06-12-2010 13:11:03 2.5 C 3.74 g/m*3 2.5 C 0 km/h
2346 06-12-2010 13:23:02 2.5 C 3.68 g/m*3 2.5 C 0 km/h
2347 06-12-2010 13:35:02 2.6 C 3.7 g/m*3 2.6 C 0 km/h
2348 06-12-2010 13:47:01 2.7 C 3.67 g/m*3 2.7 C 0 km/h
2349 06-12-2010 13:59:01 2.4 C 3.6 g/m*3 2.4 C 0 km/h
2350 06-12-2010 14:11:02 2.1 C 3.58 g/m*3 2.1 C 0 km/h
Sensor: Nr:Datum:Temp:Abs-Feuchte:Windchill:Wind:
Aussen-T/F 2351 06-12-2010 14:23:01 2.2 C 3.66 g/m*3 2.2 C 0 km/h
2352 06-12-2010 14:35:01 2 C 3.61 g/m*3 2 C 0 km/h
2353 06-12-2010 14:47:01 1.8 C 3.56 g/m*3 1.8 C 0 km/h
2354 06-12-2010 14:59:01 1.4 C 3.52 g/m*3 1.4 C 0 km/h
2355 06-12-2010 15:11:02 1.4 C 3.57 g/m*3 1.4 C 0 km/h
2356 06-12-2010 15:23:02 1.2 C 3.58 g/m*3 1.2 C 0 km/h
2357 06-12-2010 15:35:01 1 C 3.63 g/m*3 1 C 0 km/h
2358 06-12-2010 15:47:01 0.8 C 3.74 g/m*3 0.8 C 0 km/h
2359 06-12-2010 15:59:01 0.4 C 3.74 g/m*3 0.4 C 0 km/h
2360 06-12-2010 16:11:01 0 C 3.68 g/m*3 0 C 0 km/h
2361 06-12-2010 16:23:02 -0.2 C 3.68 g/m*3 -0.2 C 0 km/h
2362 06-12-2010 16:35:01 -0.3 C 3.7 g/m*3 -0.3 C 0 km/h
2363 06-12-2010 16:47:03 -0.4 C 3.68 g/m*3 -0.4 C 0 km/h
2364 06-12-2010 16:59:03 -0.4 C 3.72 g/m*3 -0.4 C 0 km/h
2365 06-12-2010 17:11:02 -0.5 C 3.7 g/m*3 -0.5 C 0 km/h
2366 06-12-2010 17:23:02 -0.6 C 3.72 g/m*3 -0.6 C 0 km/h
2367 06-12-2010 17:35:02 -0.7 C 3.74 g/m*3 -0.7 C 0 km/h
2368 06-12-2010 17:47:02 -0.8 C 3.71 g/m*3 -0.8 C 0 km/h
2369 06-12-2010 17:59:03 -0.8 C 3.76 g/m*3 -0.8 C 0 km/h
2370 06-12-2010 18:11:01 -1.1 C 3.68 g/m*3 -1.1 C 0 km/h
2371 06-12-2010 18:23:02 -1 C 3.75 g/m*3 -1 C 0 km/h
2372 06-12-2010 18:35:02 -0.8 C 3.8 g/m*3 -0.8 C 0 km/h
2373 06-12-2010 18:47:02 -0.7 C 3.83 g/m*3 -0.7 C 0 km/h
2374 06-12-2010 18:59:02 -0.9 C 3.73 g/m*3 -0.9 C 0 km/h
2375 06-12-2010 19:11:03 -0.8 C 3.76 g/m*3 -0.8 C 0 km/h
Sensor: Nr:Datum:Temp:Abs-Feuchte:Windchill:Wind:
Aussen-T/F 2376 06-12-2010 19:23:02 -0.9 C 3.73 g/m*3 -0.9 C 0 km/h
2377 06-12-2010 19:35:02 -0.8 C 3.76 g/m*3 -0.8 C 0 km/h
2378 06-12-2010 19:47:01 -0.9 C 3.73 g/m*3 -0.9 C 0 km/h
2379 06-12-2010 19:59:01 -0.8 C 3.76 g/m*3 -0.8 C 0 km/h
2380 06-12-2010 20:11:02 -1 C 3.71 g/m*3 -1 C 0 km/h
2381 06-12-2010 20:23:01 -1.2 C 3.66 g/m*3 -1.2 C 0 km/h
2382 06-12-2010 20:35:02 -1.1 C 3.68 g/m*3 -1.1 C 0 km/h
2383 06-12-2010 20:47:02 -1.2 C 3.66 g/m*3 -1.2 C 0 km/h
2384 06-12-2010 20:59:02 -1.2 C 3.66 g/m*3 -1.2 C 0 km/h
2385 06-12-2010 21:11:02 -1.3 C 3.63 g/m*3 -1.3 C 0 km/h
2386 06-12-2010 21:23:02 -1.3 C 3.63 g/m*3 -1.3 C 0 km/h
2387 06-12-2010 21:36:02 -1.2 C 3.66 g/m*3 -1.2 C 0 km/h
2388 06-12-2010 21:48:02 -1.3 C 3.63 g/m*3 -1.3 C 0 km/h
2389 06-12-2010 22:00:02 -1.5 C 3.58 g/m*3 -1.5 C 0 km/h
2390 06-12-2010 22:12:02 -1.4 C 3.65 g/m*3 -1.4 C 0 km/h
2391 06-12-2010 22:24:02 -1.3 C 3.67 g/m*3 -1.3 C 0 km/h
2392 06-12-2010 22:36:02 -1.1 C 3.73 g/m*3 -1.1 C 0 km/h
2393 06-12-2010 22:48:02 -0.9 C 3.78 g/m*3 -0.9 C 0 km/h
2394 06-12-2010 23:00:02 -0.8 C 3.76 g/m*3 -0.8 C 0 km/h
2395 06-12-2010 23:12:02 -0.6 C 3.81 g/m*3 -0.6 C 0 km/h
2396 06-12-2010 23:24:02 -0.5 C 3.79 g/m*3 -0.5 C 0 km/h
2397 06-12-2010 23:36:03 -0.6 C 3.72 g/m*3 -0.6 C 0 km/h
2398 06-12-2010 23:48:03 -0.9 C 3.64 g/m*3 -0.9 C 0 km/h
2399 07-12-2010 00:00:03 -0.8 C 3.67 g/m*3 -0.8 C 0 km/h
2400 07-12-2010 00:12:03 -0.8 C 3.67 g/m*3 -0.8 C 0 km/h
Sensor: Nr:Datum:Temp:Abs-Feuchte:Windchill:Wind:
Aussen-T/F 2401 07-12-2010 00:24:03 -0.9 C 3.64 g/m*3 -0.9 C 0 km/h
2402 07-12-2010 00:36:03 -1.4 C 3.47 g/m*3 -1.4 C 0 km/h
2403 07-12-2010 00:48:03 -1.4 C 3.56 g/m*3 -1.4 C 0 km/h
2404 07-12-2010 01:00:03 -1.4 C 3.6 g/m*3 -1.4 C 0 km/h
2405 07-12-2010 01:12:03 -1.4 C 3.6 g/m*3 -1.4 C 0 km/h
2406 07-12-2010 01:24:03 -1.4 C 3.6 g/m*3 -1.4 C 0 km/h
2407 07-12-2010 01:36:03 -0.9 C 3.78 g/m*3 -0.9 C 0 km/h
2408 07-12-2010 01:48:03 -0.7 C 3.83 g/m*3 -0.7 C 0 km/h
2409 07-12-2010 02:00:03 -0.6 C 3.81 g/m*3 -0.6 C 0 km/h
2410 07-12-2010 02:12:03 -0.5 C 3.79 g/m*3 -0.5 C 0 km/h
2411 07-12-2010 02:24:03 -0.5 C 3.79 g/m*3 -0.5 C 0 km/h
2412 07-12-2010 02:36:03 -0.6 C 3.72 g/m*3 -0.6 C 0 km/h
2413 07-12-2010 02:48:03 -0.6 C 3.72 g/m*3 -0.6 C 0 km/h
2414 07-12-2010 03:00:03 -0.5 C 3.74 g/m*3 -0.5 C 0 km/h
2415 07-12-2010 03:12:03 -0.5 C 3.74 g/m*3 -0.5 C 0 km/h
2416 07-12-2010 03:24:03 -0.6 C 3.72 g/m*3 -0.6 C 0 km/h
2417 07-12-2010 03:36:03 -0.6 C 3.72 g/m*3 -0.6 C 0 km/h
2418 07-12-2010 03:48:03 -0.6 C 3.72 g/m*3 -0.6 C 0 km/h
2419 07-12-2010 04:00:04 -0.6 C 3.76 g/m*3 -0.6 C 0 km/h
2420 07-12-2010 04:12:04 -0.7 C 3.69 g/m*3 -0.7 C 0 km/h
2421 07-12-2010 04:24:04 -0.7 C 3.69 g/m*3 -0.7 C 0 km/h
2422 07-12-2010 04:36:04 -0.9 C 3.64 g/m*3 -0.9 C 0 km/h
2423 07-12-2010 04:48:04 -0.8 C 3.71 g/m*3 -0.8 C 0 km/h
2424 07-12-2010 05:00:04 -1 C 3.66 g/m*3 -1 C 0 km/h
2425 07-12-2010 05:12:04 -1 C 3.66 g/m*3 -1 C 0 km/h
Sensor: Nr:Datum:Temp:Abs-Feuchte:Windchill:Wind:
Aussen-T/F 2426 07-12-2010 05:24:04 -0.9 C 3.69 g/m*3 -0.9 C 0 km/h
2427 07-12-2010 05:36:04 -0.9 C 3.69 g/m*3 -0.9 C 0 km/h
2428 07-12-2010 05:48:04 -0.9 C 3.69 g/m*3 -0.9 C 0 km/h
2429 07-12-2010 06:00:04 -0.8 C 3.71 g/m*3 -0.8 C 0 km/h
2430 07-12-2010 06:12:04 -0.7 C 3.69 g/m*3 -0.7 C 0 km/h
2431 07-12-2010 06:24:04 -0.7 C 3.69 g/m*3 -0.7 C 0 km/h
2432 07-12-2010 06:36:04 -0.8 C 3.67 g/m*3 -0.8 C 0 km/h
2433 07-12-2010 06:48:04 -0.9 C 3.64 g/m*3 -0.9 C 0 km/h
2434 07-12-2010 07:00:04 -1 C 3.57 g/m*3 -1 C 0 km/h
2435 07-12-2010 07:12:04 -1 C 3.57 g/m*3 -1 C 0 km/h
2436 07-12-2010 07:24:01 -1 C 3.57 g/m*3 -1 C 0 km/h
2437 07-12-2010 07:36:02 -1 C 3.57 g/m*3 -1 C 0 km/h
2438 07-12-2010 07:48:02 -1 C 3.57 g/m*3 -1 C 0 km/h
2439 07-12-2010 08:00:02 -1 C 3.57 g/m*3 -1 C 0 km/h
2440 07-12-2010 08:12:02 -0.9 C 3.6 g/m*3 -0.9 C 0 km/h
2441 07-12-2010 08:24:02 -0.9 C 3.6 g/m*3 -0.9 C 0 km/h
2442 07-12-2010 08:36:02 -0.8 C 3.62 g/m*3 -0.8 C 0 km/h
2443 07-12-2010 08:48:02 -0.6 C 3.63 g/m*3 -0.6 C 0 km/h
2444 07-12-2010 09:00:02 -0.6 C 3.63 g/m*3 -0.6 C 0 km/h
2445 07-12-2010 09:12:02 -0.5 C 3.65 g/m*3 -0.5 C 0 km/h
2446 07-12-2010 09:24:02 -0.5 C 3.56 g/m*3 -0.5 C 0 km/h
2447 07-12-2010 09:36:02 -0.3 C 3.61 g/m*3 -0.3 C 0 km/h
2448 07-12-2010 09:48:02 -0.1 C 3.61 g/m*3 -0.1 C 0 km/h
2449 07-12-2010 10:00:02 0.2 C 3.64 g/m*3 0.2 C 0 km/h
2450 07-12-2010 10:12:01 0.1 C 3.56 g/m*3 0.1 C 0 km/h
Sensor: Nr:Datum:Temp:Abs-Feuchte:Windchill:Wind:
Aussen-T/F 2451 07-12-2010 10:24:02 0.1 C 3.61 g/m*3 0.1 C 0 km/h
2452 07-12-2010 10:36:02 0.3 C 3.61 g/m*3 0.3 C 0 km/h
2453 07-12-2010 10:48:01 0.2 C 3.59 g/m*3 0.2 C 0 km/h
2454 07-12-2010 11:00:02 0.2 C 3.59 g/m*3 0.2 C 0 km/h
2455 07-12-2010 11:12:01 0.5 C 3.61 g/m*3 0.5 C 0 km/h
2456 07-12-2010 11:24:01 0.3 C 3.51 g/m*3 0.3 C 0 km/h
2457 07-12-2010 11:36:02 0.8 C 3.69 g/m*3 0.8 C 0 km/h
2458 07-12-2010 11:48:02 1 C 3.63 g/m*3 1 C 0 km/h
2459 07-12-2010 12:00:02 1 C 3.63 g/m*3 1 C 0 km/h
2460 07-12-2010 12:12:02 0.7 C 3.56 g/m*3 0.7 C 0 km/h
2461 07-12-2010 12:24:02 1 C 3.63 g/m*3 1 C 0 km/h
2462 07-12-2010 12:36:02 1.3 C 3.66 g/m*3 1.3 C 0 km/h
2463 07-12-2010 12:48:02 1.6 C 3.68 g/m*3 1.6 C 0 km/h
2464 07-12-2010 13:00:02 2.1 C 3.58 g/m*3 2.1 C 0 km/h
2465 07-12-2010 13:12:02 1.2 C 3.58 g/m*3 1.2 C 0 km/h
2466 07-12-2010 13:24:02 1.5 C 3.71 g/m*3 1.5 C 0 km/h
2467 07-12-2010 13:36:02 1.2 C 3.58 g/m*3 1.2 C 0 km/h
2468 07-12-2010 13:48:02 1.2 C 3.58 g/m*3 1.2 C 0 km/h
2469 07-12-2010 14:00:02 1.2 C 3.58 g/m*3 1.2 C 0 km/h
2470 07-12-2010 14:12:02 1.2 C 3.63 g/m*3 1.2 C 0 km/h
2471 07-12-2010 14:24:02 1.3 C 3.71 g/m*3 1.3 C 0 km/h
2472 07-12-2010 14:36:02 0.9 C 3.71 g/m*3 0.9 C 0 km/h
2473 07-12-2010 14:48:02 0.7 C 3.71 g/m*3 0.7 C 0 km/h
2474 07-12-2010 15:00:02 0.7 C 3.76 g/m*3 0.7 C 0 km/h
2475 07-12-2010 15:12:02 0.6 C 3.74 g/m*3 0.6 C 0 km/h
Sensor: Nr:Datum:Temp:Abs-Feuchte:Windchill:Wind:
Aussen-T/F 2476 07-12-2010 15:24:02 0.4 C 3.79 g/m*3 0.4 C 0 km/h
2477 07-12-2010 15:36:02 0.2 C 3.83 g/m*3 0.2 C 0 km/h
2478 07-12-2010 15:48:02 0.1 C 3.9 g/m*3 0.1 C 0 km/h
2479 07-12-2010 16:00:02 0 C 3.97 g/m*3 0 C 0 km/h
2480 07-12-2010 16:12:01 -0.2 C 4.01 g/m*3 -0.2 C 0 km/h
2481 07-12-2010 16:24:02 -0.3 C 4.03 g/m*3 -0.3 C 0 km/h
2482 07-12-2010 16:36:02 -0.3 C 4.13 g/m*3 -0.3 C 0 km/h
2483 07-12-2010 16:48:02 -0.3 C 4.13 g/m*3 -0.3 C 0 km/h
2484 07-12-2010 17:00:02 -0.3 C 4.18 g/m*3 -0.3 C 0 km/h
2485 07-12-2010 17:12:03 -0.3 C 4.18 g/m*3 -0.3 C 0 km/h
2486 07-12-2010 17:24:02 -0.3 C 4.22 g/m*3 -0.3 C 0 km/h
2487 07-12-2010 17:36:02 -0.3 C 4.22 g/m*3 -0.3 C 0 km/h
2488 07-12-2010 17:48:01 -0.3 C 4.22 g/m*3 -0.3 C 0 km/h
2489 07-12-2010 18:00:01 -0.3 C 4.22 g/m*3 -0.3 C 0 km/h
2490 07-12-2010 18:12:02 -0.3 C 4.22 g/m*3 -0.3 C 0 km/h
2491 07-12-2010 18:24:01 -0.3 C 4.27 g/m*3 -0.3 C 0 km/h
2492 07-12-2010 18:36:02 -0.2 C 4.3 g/m*3 -0.2 C 0 km/h
2493 07-12-2010 18:48:01 -0.2 C 4.3 g/m*3 -0.2 C 0 km/h
2494 07-12-2010 19:00:01 -0.2 C 4.3 g/m*3 -0.2 C 0 km/h
2495 07-12-2010 19:12:02 -0.2 C 4.3 g/m*3 -0.2 C 0 km/h
2496 07-12-2010 19:24:02 -0.2 C 4.3 g/m*3 -0.2 C 0 km/h
2497 07-12-2010 19:36:01 -0.2 C 4.3 g/m*3 -0.2 C 0 km/h
2498 07-12-2010 19:48:02 -0.2 C 4.35 g/m*3 -0.2 C 0 km/h
2499 07-12-2010 20:00:02 -0.1 C 4.38 g/m*3 -0.1 C 0 km/h
2500 07-12-2010 20:12:01 -0.2 C 4.35 g/m*3 -0.2 C 0 km/h
Sensor: Nr:Datum:Temp:Abs-Feuchte:Windchill:Wind:
Aussen-T/F 2501 07-12-2010 20:24:02 -0.2 C 4.35 g/m*3 -0.2 C 0 km/h
2502 07-12-2010 20:36:01 -0.2 C 4.35 g/m*3 -0.2 C 0 km/h
2503 07-12-2010 20:48:02 -0.1 C 4.38 g/m*3 -0.1 C 0 km/h
2504 07-12-2010 21:00:02 -0.2 C 4.35 g/m*3 -0.2 C 0 km/h
2505 07-12-2010 21:12:01 -0.2 C 4.35 g/m*3 -0.2 C 0 km/h
2506 07-12-2010 21:24:01 -0.2 C 4.35 g/m*3 -0.2 C 0 km/h
2507 07-12-2010 21:36:01 -0.2 C 4.35 g/m*3 -0.2 C 0 km/h
2508 07-12-2010 21:48:02 -0.2 C 4.4 g/m*3 -0.2 C 0 km/h
2509 07-12-2010 22:00:03 -0.1 C 4.43 g/m*3 -0.1 C 0 km/h
2510 07-12-2010 22:12:02 -0.2 C 4.4 g/m*3 -0.2 C 0 km/h
2511 07-12-2010 22:25:02 -0.2 C 4.4 g/m*3 -0.2 C 0 km/h
2512 07-12-2010 22:37:02 -0.2 C 4.4 g/m*3 -0.2 C 0 km/h
2513 07-12-2010 22:49:02 -0.2 C 4.4 g/m*3 -0.2 C 0 km/h
2514 07-12-2010 23:01:02 -0.2 C 4.4 g/m*3 -0.2 C 0 km/h
2515 07-12-2010 23:13:02 -0.2 C 4.4 g/m*3 -0.2 C 0 km/h
2516 07-12-2010 23:25:02 -0.2 C 4.4 g/m*3 -0.2 C 0 km/h
2517 07-12-2010 23:37:02 -0.2 C 4.4 g/m*3 -0.2 C 0 km/h
2518 07-12-2010 23:49:02 -0.2 C 4.4 g/m*3 -0.2 C 0 km/h
2519 08-12-2010 00:01:02 -0.2 C 4.4 g/m*3 -0.2 C 0 km/h
2520 08-12-2010 00:13:02 -0.2 C 4.4 g/m*3 -0.2 C 0 km/h
2521 08-12-2010 00:25:02 -0.2 C 4.4 g/m*3 -0.2 C 0 km/h
2522 08-12-2010 00:37:02 -0.2 C 4.4 g/m*3 -0.2 C 0 km/h
2523 08-12-2010 00:49:02 -0.2 C 4.4 g/m*3 -0.2 C 0 km/h
2524 08-12-2010 01:01:02 -0.2 C 4.4 g/m*3 -0.2 C 0 km/h
2525 08-12-2010 01:13:02 -0.2 C 4.4 g/m*3 -0.2 C 0 km/h
Sensor: Nr:Datum:Temp:Abs-Feuchte:Windchill:Wind:
Aussen-T/F 2526 08-12-2010 01:25:02 -0.2 C 4.4 g/m*3 -0.2 C 0 km/h
2527 08-12-2010 01:37:03 -0.2 C 4.4 g/m*3 -0.2 C 0 km/h
2528 08-12-2010 01:49:03 -0.2 C 4.4 g/m*3 -0.2 C 0 km/h
2529 08-12-2010 02:01:03 -0.2 C 4.4 g/m*3 -0.2 C 0 km/h
2530 08-12-2010 02:13:03 -0.1 C 4.43 g/m*3 -0.1 C 0 km/h
2531 08-12-2010 02:25:03 -0.1 C 4.43 g/m*3 -0.1 C 0 km/h
2532 08-12-2010 02:37:03 -0.2 C 4.4 g/m*3 -0.2 C 0 km/h
2533 08-12-2010 02:49:03 -0.2 C 4.4 g/m*3 -0.2 C 0 km/h
2534 08-12-2010 03:01:03 -0.2 C 4.4 g/m*3 -0.2 C 0 km/h
2535 08-12-2010 03:13:03 -0.2 C 4.4 g/m*3 -0.2 C 0 km/h
2536 08-12-2010 03:25:03 -0.2 C 4.4 g/m*3 -0.2 C 0 km/h
2537 08-12-2010 03:37:03 -0.2 C 4.4 g/m*3 -0.2 C 0 km/h
2538 08-12-2010 03:49:03 -0.1 C 4.43 g/m*3 -0.1 C 0 km/h
2539 08-12-2010 04:01:03 -0.1 C 4.43 g/m*3 -0.1 C 0 km/h
2540 08-12-2010 04:13:03 -0.1 C 4.43 g/m*3 -0.1 C 0 km/h
2541 08-12-2010 04:25:03 -0.1 C 4.43 g/m*3 -0.1 C 0 km/h
2542 08-12-2010 04:37:03 -0.1 C 4.43 g/m*3 -0.1 C 0 km/h
2543 08-12-2010 04:49:03 0 C 4.46 g/m*3 0 C 0 km/h
2544 08-12-2010 05:01:03 -0.1 C 4.43 g/m*3 -0.1 C 0 km/h
2545 08-12-2010 05:13:03 0 C 4.46 g/m*3 0 C 0 km/h
2546 08-12-2010 05:25:03 -0.1 C 4.47 g/m*3 -0.1 C 0 km/h
2547 08-12-2010 05:37:03 -0.1 C 4.47 g/m*3 -0.1 C 0 km/h
2548 08-12-2010 05:49:03 -0.1 C 4.47 g/m*3 -0.1 C 0 km/h
2549 08-12-2010 06:01:04 -0.1 C 4.47 g/m*3 -0.1 C 0 km/h
2550 08-12-2010 06:13:04 0 C 4.51 g/m*3 0 C 0 km/h
Sensor: Nr:Datum:Temp:Abs-Feuchte:Windchill:Wind:
Aussen-T/F 2551 08-12-2010 06:25:04 -0.1 C 4.47 g/m*3 -0.1 C 0 km/h
2552 08-12-2010 06:37:04 0 C 4.51 g/m*3 0 C 0 km/h
2553 08-12-2010 06:49:04 -0.1 C 4.47 g/m*3 -0.1 C 0 km/h
2554 08-12-2010 07:01:04 0 C 4.51 g/m*3 0 C 0 km/h
2555 08-12-2010 07:13:04 -0.1 C 4.47 g/m*3 -0.1 C 0 km/h
2556 08-12-2010 07:25:04 0 C 4.51 g/m*3 0 C 0 km/h
2557 08-12-2010 07:37:04 0 C 4.51 g/m*3 0 C 0 km/h
2558 08-12-2010 07:49:04 0 C 4.51 g/m*3 0 C 0 km/h
2559 08-12-2010 08:01:04 0 C 4.51 g/m*3 0 C 0 km/h
2560 08-12-2010 08:13:04 0 C 4.51 g/m*3 0 C 0 km/h
2561 08-12-2010 08:25:04 0 C 4.51 g/m*3 0 C 0 km/h
2562 08-12-2010 08:37:04 0 C 4.51 g/m*3 0 C 0 km/h
2563 08-12-2010 08:49:04 0 C 4.51 g/m*3 0 C 0 km/h
2564 08-12-2010 09:01:01 0.1 C 4.54 g/m*3 0.1 C 0 km/h
2565 08-12-2010 09:13:01 0.1 C 4.54 g/m*3 0.1 C 0 km/h
2566 08-12-2010 09:25:02 0.1 C 4.54 g/m*3 0.1 C 0 km/h
2567 08-12-2010 09:37:01 0.1 C 4.54 g/m*3 0.1 C 0 km/h
2568 08-12-2010 09:49:02 0 C 4.51 g/m*3 0 C 0 km/h
2569 08-12-2010 10:01:02 0.1 C 4.54 g/m*3 0.1 C 0 km/h
2570 08-12-2010 10:13:02 0.1 C 4.54 g/m*3 0.1 C 0 km/h
2571 08-12-2010 10:25:02 0.2 C 4.57 g/m*3 0.2 C 0 km/h
2572 08-12-2010 10:37:02 0.2 C 4.57 g/m*3 0.2 C 0 km/h
2573 08-12-2010 10:49:02 0.3 C 4.6 g/m*3 0.3 C 0 km/h
2574 08-12-2010 11:01:02 0.3 C 4.65 g/m*3 0.3 C 0 km/h
2575 08-12-2010 11:13:02 0.3 C 4.65 g/m*3 0.3 C 0 km/h
Sensor: Nr:Datum:Temp:Abs-Feuchte:Windchill:Wind:
Aussen-T/F 2576 08-12-2010 11:25:01 0.4 C 4.63 g/m*3 0.4 C 0 km/h
2577 08-12-2010 11:37:02 0.3 C 4.6 g/m*3 0.3 C 0 km/h
2578 08-12-2010 11:49:02 0.4 C 4.63 g/m*3 0.4 C 0 km/h
2579 08-12-2010 12:01:02 0.5 C 4.66 g/m*3 0.5 C 0 km/h
2580 08-12-2010 12:13:02 0.6 C 4.7 g/m*3 0.6 C 0 km/h
2581 08-12-2010 12:25:02 0.5 C 4.66 g/m*3 0.5 C 0 km/h
2582 08-12-2010 12:37:02 0.6 C 4.7 g/m*3 0.6 C 0 km/h
2583 08-12-2010 12:49:02 0.6 C 4.65 g/m*3 0.6 C 0 km/h
2584 08-12-2010 13:01:02 0.5 C 4.61 g/m*3 0.5 C 0 km/h
2585 08-12-2010 13:13:02 0.6 C 4.6 g/m*3 0.6 C 0 km/h
2586 08-12-2010 13:25:02 0.7 C 4.63 g/m*3 0.7 C 0 km/h
2587 08-12-2010 13:37:02 0.7 C 4.58 g/m*3 0.7 C 0 km/h
2588 08-12-2010 13:49:01 0.6 C 4.49 g/m*3 0.6 C 0 km/h
2589 08-12-2010 14:01:01 0.6 C 4.49 g/m*3 0.6 C 0 km/h
2590 08-12-2010 14:13:01 0.4 C 4.43 g/m*3 0.4 C 0 km/h
2591 08-12-2010 14:25:01 0.4 C 4.43 g/m*3 0.4 C 0 km/h
2592 08-12-2010 14:37:01 0.4 C 4.43 g/m*3 0.4 C 0 km/h
2593 08-12-2010 14:49:01 0.3 C 4.4 g/m*3 0.3 C 0 km/h
2594 08-12-2010 15:01:01 0.2 C 4.37 g/m*3 0.2 C 0 km/h
2595 08-12-2010 15:13:01 0 C 4.31 g/m*3 0 C 0 km/h
2596 08-12-2010 15:25:02 -0.1 C 4.28 g/m*3 -0.1 C 0 km/h
2597 08-12-2010 15:37:01 -0.2 C 4.25 g/m*3 -0.2 C 0 km/h
2598 08-12-2010 15:49:03 -0.3 C 4.22 g/m*3 -0.3 C 0 km/h
2599 08-12-2010 16:01:02 -0.3 C 4.22 g/m*3 -0.3 C 0 km/h
2600 08-12-2010 16:13:02 -0.3 C 4.27 g/m*3 -0.3 C 0 km/h
Sensor: Nr:Datum:Temp:Abs-Feuchte:Windchill:Wind:
Aussen-T/F 2601 08-12-2010 16:25:03 -0.3 C 4.27 g/m*3 -0.3 C 0 km/h
2602 08-12-2010 16:37:02 -0.3 C 4.27 g/m*3 -0.3 C 0 km/h
2603 08-12-2010 16:49:02 -0.3 C 4.27 g/m*3 -0.3 C 0 km/h
2604 08-12-2010 17:01:02 -0.3 C 4.27 g/m*3 -0.3 C 0 km/h
2605 08-12-2010 17:13:02 -0.3 C 4.27 g/m*3 -0.3 C 0 km/h
2606 08-12-2010 17:25:02 -0.3 C 4.27 g/m*3 -0.3 C 0 km/h
2607 08-12-2010 17:37:02 -0.3 C 4.27 g/m*3 -0.3 C 0 km/h
2608 08-12-2010 17:49:02 -0.6 C 4.14 g/m*3 -0.6 C 0 km/h
2609 08-12-2010 18:01:01 -0.7 C 4.11 g/m*3 -0.7 C 0 km/h
2610 08-12-2010 18:13:01 -0.7 C 4.11 g/m*3 -0.7 C 0 km/h
2611 08-12-2010 18:25:01 -0.7 C 4.11 g/m*3 -0.7 C 0 km/h
2612 08-12-2010 18:37:02 -0.8 C 4.08 g/m*3 -0.8 C 0 km/h
2613 08-12-2010 18:49:02 -0.8 C 4.08 g/m*3 -0.8 C 0 km/h
2614 08-12-2010 19:01:02 -0.8 C 4.08 g/m*3 -0.8 C 0 km/h
2615 08-12-2010 19:13:02 -0.8 C 4.08 g/m*3 -0.8 C 0 km/h
2616 08-12-2010 19:25:02 -1 C 4.02 g/m*3 -1 C 0 km/h
2617 08-12-2010 19:37:02 -1 C 4.02 g/m*3 -1 C 0 km/h
2618 08-12-2010 19:49:01 -1 C 4.07 g/m*3 -1 C 0 km/h
2619 08-12-2010 20:01:01 -1 C 4.07 g/m*3 -1 C 0 km/h
2620 08-12-2010 20:13:01 -1 C 4.02 g/m*3 -1 C 0 km/h
2621 08-12-2010 20:25:01 -1.1 C 4 g/m*3 -1.1 C 0 km/h
2622 08-12-2010 20:37:02 -1.1 C 4 g/m*3 -1.1 C 0 km/h
2623 08-12-2010 20:49:02 -1.1 C 4 g/m*3 -1.1 C 0 km/h
2624 08-12-2010 21:01:02 -1.2 C 3.97 g/m*3 -1.2 C 0 km/h
2625 08-12-2010 21:13:02 -1.2 C 3.97 g/m*3 -1.2 C 0 km/h
Sensor: Nr:Datum:Temp:Abs-Feuchte:Windchill:Wind:
Aussen-T/F 2626 08-12-2010 21:25:02 -1.2 C 3.97 g/m*3 -1.2 C 0 km/h
2627 08-12-2010 21:37:02 -1.3 C 3.9 g/m*3 -1.3 C 0 km/h
2628 08-12-2010 21:49:02 -1.3 C 3.9 g/m*3 -1.3 C 0 km/h
2629 08-12-2010 22:01:02 -1.4 C 3.87 g/m*3 -1.4 C 0 km/h
2630 08-12-2010 22:13:02 -1.4 C 3.82 g/m*3 -1.4 C 0 km/h
2631 08-12-2010 22:25:02 -1.4 C 3.82 g/m*3 -1.4 C 0 km/h
2632 08-12-2010 22:38:04 -1.5 C 3.8 g/m*3 -1.5 C 0 km/h
2633 08-12-2010 22:50:04 -1.5 C 3.8 g/m*3 -1.5 C 0 km/h
2634 08-12-2010 23:02:04 -1.3 C 3.81 g/m*3 -1.3 C 0 km/h
2635 08-12-2010 23:14:04 -1.3 C 3.76 g/m*3 -1.3 C 0 km/h
2636 08-12-2010 23:26:04 -1.3 C 3.72 g/m*3 -1.3 C 0 km/h
2637 08-12-2010 23:38:04 -1.3 C 3.72 g/m*3 -1.3 C 0 km/h
2638 08-12-2010 23:50:04 -1.3 C 3.67 g/m*3 -1.3 C 0 km/h
2639 09-12-2010 00:02:04 -1.3 C 3.67 g/m*3 -1.3 C 0 km/h
2640 09-12-2010 00:14:04 -1.3 C 3.67 g/m*3 -1.3 C 0 km/h
2641 09-12-2010 00:26:04 -1.3 C 3.67 g/m*3 -1.3 C 0 km/h
2642 09-12-2010 00:38:04 -1.3 C 3.63 g/m*3 -1.3 C 0 km/h
2643 09-12-2010 00:50:05 -1.4 C 3.56 g/m*3 -1.4 C 0 km/h
2644 09-12-2010 01:02:05 -1.4 C 3.56 g/m*3 -1.4 C 0 km/h
2645 09-12-2010 01:14:05 -1.5 C 3.58 g/m*3 -1.5 C 0 km/h
2646 09-12-2010 01:26:05 -1.5 C 3.58 g/m*3 -1.5 C 0 km/h
2647 09-12-2010 01:38:05 -1.6 C 3.55 g/m*3 -1.6 C 0 km/h
2648 09-12-2010 01:50:05 -1.6 C 3.51 g/m*3 -1.6 C 0 km/h
2649 09-12-2010 02:02:05 -1.7 C 3.53 g/m*3 -1.7 C 0 km/h
2650 09-12-2010 02:14:05 -1.7 C 3.49 g/m*3 -1.7 C 0 km/h
Sensor: Nr:Datum:Temp:Abs-Feuchte:Windchill:Wind:
Aussen-T/F 2651 09-12-2010 02:26:05 -1.8 C 3.51 g/m*3 -1.8 C 0 km/h
2652 09-12-2010 02:38:05 -1.7 C 3.62 g/m*3 -1.7 C 0 km/h
2653 09-12-2010 02:50:05 -1.8 C 3.63 g/m*3 -1.8 C 0 km/h
2654 09-12-2010 03:02:05 -1.7 C 3.7 g/m*3 -1.7 C 0 km/h
2655 09-12-2010 03:14:05 -1.7 C 3.7 g/m*3 -1.7 C 0 km/h
2656 09-12-2010 03:26:05 -1.7 C 3.7 g/m*3 -1.7 C 0 km/h
2657 09-12-2010 03:38:05 -1.7 C 3.7 g/m*3 -1.7 C 0 km/h
2658 09-12-2010 03:50:05 -1.7 C 3.66 g/m*3 -1.7 C 0 km/h
2659 09-12-2010 04:02:05 -1.6 C 3.68 g/m*3 -1.6 C 0 km/h
2660 09-12-2010 04:14:05 -1.4 C 3.78 g/m*3 -1.4 C 0 km/h
2661 09-12-2010 04:26:05 -1.6 C 3.73 g/m*3 -1.6 C 0 km/h
2662 09-12-2010 04:38:05 -1.7 C 3.7 g/m*3 -1.7 C 0 km/h
2663 09-12-2010 04:50:05 -1.8 C 3.72 g/m*3 -1.8 C 0 km/h
2664 09-12-2010 05:02:05 -1.9 C 3.69 g/m*3 -1.9 C 0 km/h
2665 09-12-2010 05:14:05 -1.2 C 3.88 g/m*3 -1.2 C 0 km/h
2666 09-12-2010 05:26:06 -0.8 C 3.9 g/m*3 -0.8 C 0 km/h
2667 09-12-2010 05:38:06 -0.7 C 3.88 g/m*3 -0.7 C 0 km/h
2668 09-12-2010 05:50:06 -0.6 C 3.86 g/m*3 -0.6 C 0 km/h
2669 09-12-2010 06:02:06 -0.7 C 3.83 g/m*3 -0.7 C 0 km/h
2670 09-12-2010 06:14:06 -0.5 C 3.88 g/m*3 -0.5 C 0 km/h
2671 09-12-2010 06:26:06 -0.3 C 3.94 g/m*3 -0.3 C 0 km/h
2672 09-12-2010 06:38:06 -0.3 C 3.94 g/m*3 -0.3 C 0 km/h
2673 09-12-2010 06:50:06 -0.3 C 3.89 g/m*3 -0.3 C 0 km/h
2674 09-12-2010 07:02:06 -0.3 C 3.94 g/m*3 -0.3 C 0 km/h
2675 09-12-2010 07:14:06 -0.3 C 3.94 g/m*3 -0.3 C 0 km/h
Sensor: Nr:Datum:Temp:Abs-Feuchte:Windchill:Wind:
Aussen-T/F 2676 09-12-2010 07:26:06 -0.3 C 3.94 g/m*3 -0.3 C 0 km/h
2677 09-12-2010 07:38:03 -0.3 C 3.94 g/m*3 -0.3 C 0 km/h
2678 09-12-2010 07:50:02 -0.2 C 4.01 g/m*3 -0.2 C 0 km/h
2679 09-12-2010 08:02:02 -0.3 C 3.99 g/m*3 -0.3 C 0 km/h
2680 09-12-2010 08:14:02 -0.2 C 3.97 g/m*3 -0.2 C 0 km/h
2681 09-12-2010 08:26:01 -0.3 C 3.94 g/m*3 -0.3 C 0 km/h
2682 09-12-2010 08:38:02 -0.5 C 3.84 g/m*3 -0.5 C 0 km/h
2683 09-12-2010 08:50:02 -0.6 C 3.81 g/m*3 -0.6 C 0 km/h
2684 09-12-2010 09:02:02 -0.3 C 3.89 g/m*3 -0.3 C 0 km/h
2685 09-12-2010 09:14:02 -0.2 C 3.92 g/m*3 -0.2 C 0 km/h
2686 09-12-2010 09:26:02 0 C 3.92 g/m*3 0 C 0 km/h
2687 09-12-2010 09:38:02 0.2 C 3.98 g/m*3 0.2 C 0 km/h
2688 09-12-2010 09:50:02 -0.1 C 3.95 g/m*3 -0.1 C 0 km/h
2689 09-12-2010 10:02:02 0.1 C 4.05 g/m*3 0.1 C 0 km/h
2690 09-12-2010 10:14:02 0.2 C 4.03 g/m*3 0.2 C 0 km/h
2691 09-12-2010 10:26:02 0.3 C 4.01 g/m*3 0.3 C 0 km/h
2692 09-12-2010 10:38:02 0.6 C 3.99 g/m*3 0.6 C 0 km/h
2693 09-12-2010 10:50:02 0.4 C 3.93 g/m*3 0.4 C 0 km/h
2694 09-12-2010 11:02:02 0.7 C 4.02 g/m*3 0.7 C 0 km/h
2695 09-12-2010 11:14:02 0.7 C 4.02 g/m*3 0.7 C 0 km/h
2696 09-12-2010 11:26:02 0.7 C 4.07 g/m*3 0.7 C 0 km/h
2697 09-12-2010 11:38:02 1 C 4.1 g/m*3 1 C 0 km/h
2698 09-12-2010 11:50:02 0.9 C 4.12 g/m*3 0.9 C 0 km/h
2699 09-12-2010 12:02:02 1.4 C 4.21 g/m*3 1.4 C 0 km/h
2700 09-12-2010 12:14:02 2.2 C 4.22 g/m*3 2.2 C 0 km/h
Sensor: Nr:Datum:Temp:Abs-Feuchte:Windchill:Wind:
Aussen-T/F 2701 09-12-2010 12:26:02 2.4 C 4.11 g/m*3 2.4 C 0 km/h
2702 09-12-2010 12:38:01 2.7 C 3.96 g/m*3 2.7 C 0 km/h
2703 09-12-2010 12:50:02 2.2 C 3.83 g/m*3 2.2 C 0 km/h
2704 09-12-2010 13:02:01 1.7 C 4.03 g/m*3 1.7 C 0 km/h
2705 09-12-2010 13:14:01 1.5 C 4.19 g/m*3 1.5 C 0 km/h
2706 09-12-2010 13:26:01 1.6 C 4.22 g/m*3 1.6 C 0 km/h
2707 09-12-2010 13:38:02 2 C 4.17 g/m*3 2 C 0 km/h
2708 09-12-2010 13:50:02 1.9 C 3.92 g/m*3 1.9 C 0 km/h
2709 09-12-2010 14:02:02 2.3 C 3.91 g/m*3 2.3 C 0 km/h
2710 09-12-2010 14:14:02 2.2 C 3.89 g/m*3 2.2 C 0 km/h
2711 09-12-2010 14:26:02 2.1 C 3.86 g/m*3 2.1 C 0 km/h
2712 09-12-2010 14:38:02 2 C 4 g/m*3 2 C 0 km/h
2713 09-12-2010 14:50:02 2 C 3.95 g/m*3 2 C 0 km/h
2714 09-12-2010 15:02:02 1.6 C 3.95 g/m*3 1.6 C 0 km/h
2715 09-12-2010 15:14:02 1.4 C 3.89 g/m*3 1.4 C 0 km/h
2716 09-12-2010 15:26:02 2 C 3.72 g/m*3 2 C 0 km/h
2717 09-12-2010 15:38:02 2 C 3.61 g/m*3 2 C 0 km/h
2718 09-12-2010 15:50:02 2.2 C 3.55 g/m*3 2.2 C 0 km/h
2719 09-12-2010 16:02:02 1.9 C 3.53 g/m*3 1.9 C 0 km/h
2720 09-12-2010 16:14:02 1.7 C 3.59 g/m*3 1.7 C 0 km/h
2721 09-12-2010 16:26:03 0.9 C 3.61 g/m*3 0.9 C 0 km/h
2722 09-12-2010 16:38:02 1.6 C 3.79 g/m*3 1.6 C 0 km/h
2723 09-12-2010 16:50:02 1.5 C 3.76 g/m*3 1.5 C 0 km/h
2724 09-12-2010 17:02:02 1.6 C 3.79 g/m*3 1.6 C 0 km/h
2725 09-12-2010 17:14:02 1.5 C 3.81 g/m*3 1.5 C 0 km/h
Sensor: Nr:Datum:Temp:Abs-Feuchte:Windchill:Wind:
Aussen-T/F 2726 09-12-2010 17:26:02 1.5 C 3.92 g/m*3 1.5 C 0 km/h
2727 09-12-2010 17:38:02 1.5 C 3.97 g/m*3 1.5 C 0 km/h
2728 09-12-2010 17:50:02 1.4 C 3.95 g/m*3 1.4 C 0 km/h
2729 09-12-2010 18:02:01 1.7 C 4.03 g/m*3 1.7 C 0 km/h
2730 09-12-2010 18:14:01 1.5 C 3.97 g/m*3 1.5 C 0 km/h
2731 09-12-2010 18:26:02 1.7 C 4.08 g/m*3 1.7 C 0 km/h
2732 09-12-2010 18:38:02 1.5 C 4.03 g/m*3 1.5 C 0 km/h
2733 09-12-2010 18:50:02 2 C 4.06 g/m*3 2 C 0 km/h
2734 09-12-2010 19:02:03 2 C 3.89 g/m*3 2 C 0 km/h
2735 09-12-2010 19:14:03 2.3 C 3.91 g/m*3 2.3 C 0 km/h
2736 09-12-2010 19:26:02 2.2 C 3.89 g/m*3 2.2 C 0 km/h
2737 09-12-2010 19:38:02 2.2 C 3.89 g/m*3 2.2 C 0 km/h
2738 09-12-2010 19:50:01 2.1 C 3.92 g/m*3 2.1 C 0 km/h
2739 09-12-2010 20:02:02 2 C 3.95 g/m*3 2 C 0 km/h
2740 09-12-2010 20:14:02 2.5 C 4.02 g/m*3 2.5 C 0 km/h
2741 09-12-2010 20:26:01 2.6 C 3.99 g/m*3 2.6 C 0 km/h
2742 09-12-2010 20:39:03 2.7 C 4.02 g/m*3 2.7 C 0 km/h
2743 09-12-2010 20:51:03 2.4 C 4 g/m*3 2.4 C 0 km/h
2744 09-12-2010 21:03:03 2.6 C 4.11 g/m*3 2.6 C 0 km/h
2745 09-12-2010 21:15:03 2.6 C 4.05 g/m*3 2.6 C 0 km/h
2746 09-12-2010 21:27:03 2.6 C 4.05 g/m*3 2.6 C 0 km/h
2747 09-12-2010 21:39:03 2.6 C 3.99 g/m*3 2.6 C 0 km/h
2748 09-12-2010 21:51:03 2.5 C 4.08 g/m*3 2.5 C 0 km/h
2749 09-12-2010 22:03:03 2.8 C 4.11 g/m*3 2.8 C 0 km/h
2750 09-12-2010 22:15:03 2.7 C 4.08 g/m*3 2.7 C 0 km/h
Sensor: Nr:Datum:Temp:Abs-Feuchte:Windchill:Wind:
Aussen-T/F 2751 09-12-2010 22:27:03 2.4 C 4.11 g/m*3 2.4 C 0 km/h
2752 09-12-2010 22:39:04 2.4 C 4.17 g/m*3 2.4 C 0 km/h
2753 09-12-2010 22:51:04 1.9 C 4.3 g/m*3 1.9 C 0 km/h
2754 09-12-2010 23:03:04 1.6 C 4.33 g/m*3 1.6 C 0 km/h
2755 09-12-2010 23:15:04 1.4 C 4.37 g/m*3 1.4 C 0 km/h
2756 09-12-2010 23:27:04 1.4 C 4.43 g/m*3 1.4 C 0 km/h
2757 09-12-2010 23:39:04 1.6 C 4.54 g/m*3 1.6 C 0 km/h
2758 09-12-2010 23:51:04 1.5 C 4.46 g/m*3 1.5 C 0 km/h
2759 10-12-2010 00:03:04 1.6 C 4.49 g/m*3 1.6 C 0 km/h
2760 10-12-2010 00:15:04 1.6 C 4.43 g/m*3 1.6 C 0 km/h
2761 10-12-2010 00:27:04 2 C 4.45 g/m*3 2 C 0 km/h
2762 10-12-2010 00:39:04 2.1 C 4.36 g/m*3 2.1 C 0 km/h
2763 10-12-2010 00:51:04 2.2 C 4.34 g/m*3 2.2 C 0 km/h
2764 10-12-2010 01:03:04 2.1 C 4.36 g/m*3 2.1 C 0 km/h
2765 10-12-2010 01:15:04 1.9 C 4.36 g/m*3 1.9 C 0 km/h
2766 10-12-2010 01:27:04 2 C 4.39 g/m*3 2 C 0 km/h
2767 10-12-2010 01:39:04 2.1 C 4.36 g/m*3 2.1 C 0 km/h
2768 10-12-2010 01:51:04 2.1 C 4.31 g/m*3 2.1 C 0 km/h
2769 10-12-2010 02:03:04 2.3 C 4.2 g/m*3 2.3 C 0 km/h
2770 10-12-2010 02:15:04 1.8 C 4.17 g/m*3 1.8 C 0 km/h
2771 10-12-2010 02:27:04 1.4 C 4.16 g/m*3 1.4 C 0 km/h
2772 10-12-2010 02:39:04 1.6 C 4.38 g/m*3 1.6 C 0 km/h
2773 10-12-2010 02:51:04 1.4 C 4.37 g/m*3 1.4 C 0 km/h
2774 10-12-2010 03:03:05 1 C 4.31 g/m*3 1 C 0 km/h
2775 10-12-2010 03:15:05 1.3 C 4.5 g/m*3 1.3 C 0 km/h
Sensor: Nr:Datum:Temp:Abs-Feuchte:Windchill:Wind:
Aussen-T/F 2776 10-12-2010 03:27:05 1.2 C 4.53 g/m*3 1.2 C 0 km/h
2777 10-12-2010 03:39:05 1.3 C 4.61 g/m*3 1.3 C 0 km/h
2778 10-12-2010 03:51:05 1.4 C 4.64 g/m*3 1.4 C 0 km/h
2779 10-12-2010 04:03:05 1.4 C 4.69 g/m*3 1.4 C 0 km/h
2780 10-12-2010 04:15:05 1.2 C 4.63 g/m*3 1.2 C 0 km/h
2781 10-12-2010 04:27:05 1.4 C 4.69 g/m*3 1.4 C 0 km/h
2782 10-12-2010 04:39:05 2 C 4.89 g/m*3 2 C 0 km/h
2783 10-12-2010 04:51:05 2.5 C 5.06 g/m*3 2.5 C 0 km/h
2784 10-12-2010 05:03:05 2.8 C 5.04 g/m*3 2.8 C 0 km/h
2785 10-12-2010 05:15:05 2.6 C 4.86 g/m*3 2.6 C 0 km/h
2786 10-12-2010 05:27:05 2.4 C 4.8 g/m*3 2.4 C 0 km/h
2787 10-12-2010 05:39:05 2.4 C 4.85 g/m*3 2.4 C 0 km/h
2788 10-12-2010 05:51:05 2.4 C 4.8 g/m*3 2.4 C 0 km/h
2789 10-12-2010 06:03:05 2.2 C 4.79 g/m*3 2.2 C 0 km/h
2790 10-12-2010 06:15:05 2.1 C 4.76 g/m*3 2.1 C 0 km/h
2791 10-12-2010 06:27:05 2 C 4.72 g/m*3 2 C 0 km/h
2792 10-12-2010 06:39:05 1.5 C 4.67 g/m*3 1.5 C 0 km/h
2793 10-12-2010 06:51:05 1.4 C 4.69 g/m*3 1.4 C 0 km/h
2794 10-12-2010 07:03:05 1.2 C 4.63 g/m*3 1.2 C 0 km/h
2795 10-12-2010 07:15:02 1.1 C 4.65 g/m*3 1.1 C 0 km/h
2796 10-12-2010 07:27:03 1.1 C 4.65 g/m*3 1.1 C 0 km/h
2797 10-12-2010 07:39:02 0.5 C 4.46 g/m*3 0.5 C 0 km/h
2798 10-12-2010 07:51:03 -0.1 C 4.28 g/m*3 -0.1 C 0 km/h
2799 10-12-2010 08:03:02 -0.2 C 4.3 g/m*3 -0.2 C 0 km/h
2800 10-12-2010 08:15:02 -0.4 C 4.24 g/m*3 -0.4 C 0 km/h
Sensor: Nr:Datum:Temp:Abs-Feuchte:Windchill:Wind:
Aussen-T/F 2801 10-12-2010 08:27:02 -0.3 C 4.27 g/m*3 -0.3 C 0 km/h
2802 10-12-2010 08:39:02 -0.3 C 4.32 g/m*3 -0.3 C 0 km/h
2803 10-12-2010 08:51:02 -0.4 C 4.29 g/m*3 -0.4 C 0 km/h
2804 10-12-2010 09:03:02 -0.6 C 4.23 g/m*3 -0.6 C 0 km/h
2805 10-12-2010 09:15:02 -0.7 C 4.2 g/m*3 -0.7 C 0 km/h
2806 10-12-2010 09:27:02 -0.6 C 4.23 g/m*3 -0.6 C 0 km/h
2807 10-12-2010 09:39:02 0 C 4.41 g/m*3 0 C 0 km/h
2808 10-12-2010 09:51:02 -0.1 C 4.43 g/m*3 -0.1 C 0 km/h
2809 10-12-2010 10:03:01 -0.3 C 4.32 g/m*3 -0.3 C 0 km/h
2810 10-12-2010 10:15:01 0 C 4.41 g/m*3 0 C 0 km/h
2811 10-12-2010 10:27:02 0 C 4.41 g/m*3 0 C 0 km/h
2812 10-12-2010 10:39:01 0.2 C 4.52 g/m*3 0.2 C 0 km/h
2813 10-12-2010 10:51:03 0.4 C 4.58 g/m*3 0.4 C 0 km/h
2814 10-12-2010 11:03:02 0.2 C 4.47 g/m*3 0.2 C 0 km/h
2815 10-12-2010 11:15:02 1.1 C 4.76 g/m*3 1.1 C 0 km/h
2816 10-12-2010 11:27:02 1.6 C 4.92 g/m*3 1.6 C 0 km/h
2817 10-12-2010 11:39:02 2 C 5 g/m*3 2 C 0 km/h
2818 10-12-2010 11:51:02 2 C 4.95 g/m*3 2 C 0 km/h
2819 10-12-2010 12:03:01 2.3 C 5.05 g/m*3 2.3 C 0 km/h
2820 10-12-2010 12:15:02 2.2 C 4.96 g/m*3 2.2 C 0 km/h
2821 10-12-2010 12:27:02 2.4 C 5.02 g/m*3 2.4 C 0 km/h
2822 10-12-2010 12:39:02 2.3 C 4.93 g/m*3 2.3 C 0 km/h
2823 10-12-2010 12:51:02 2 C 4.78 g/m*3 2 C 0 km/h
2824 10-12-2010 13:03:03 2.6 C 4.98 g/m*3 2.6 C 0 km/h
2825 10-12-2010 13:15:02 2.7 C 4.95 g/m*3 2.7 C 0 km/h
Sensor: Nr:Datum:Temp:Abs-Feuchte:Windchill:Wind:
Aussen-T/F 2826 10-12-2010 13:27:02 3 C 4.88 g/m*3 3 C 0 km/h
2827 10-12-2010 13:39:02 3.4 C 4.95 g/m*3 3.4 C 0 km/h
2828 10-12-2010 13:51:01 3.1 C 4.73 g/m*3 3.1 C 0 km/h
2829 10-12-2010 14:03:02 3.1 C 4.67 g/m*3 3.1 C 0 km/h
2830 10-12-2010 14:15:01 3.1 C 4.67 g/m*3 3.1 C 0 km/h
2831 10-12-2010 14:27:01 2.9 C 4.67 g/m*3 2.9 C 0 km/h
2832 10-12-2010 14:39:01 2.7 C 4.66 g/m*3 2.7 C 0 km/h
2833 10-12-2010 14:51:01 2.3 C 4.59 g/m*3 2.3 C 0 km/h
2834 10-12-2010 15:03:01 2.2 C 4.62 g/m*3 2.2 C 0 km/h
2835 10-12-2010 15:15:02 1.8 C 4.6 g/m*3 1.8 C 0 km/h
2836 10-12-2010 15:27:02 1.8 C 4.66 g/m*3 1.8 C 0 km/h
2837 10-12-2010 15:39:01 1.6 C 4.65 g/m*3 1.6 C 0 km/h
2838 10-12-2010 15:51:02 1.5 C 4.67 g/m*3 1.5 C 0 km/h
2839 10-12-2010 16:03:01 1.5 C 4.73 g/m*3 1.5 C 0 km/h
2840 10-12-2010 16:15:01 1.5 C 4.78 g/m*3 1.5 C 0 km/h
2841 10-12-2010 16:27:02 1.4 C 4.75 g/m*3 1.4 C 0 km/h
2842 10-12-2010 16:39:01 1.6 C 4.87 g/m*3 1.6 C 0 km/h
2843 10-12-2010 16:51:02 1.7 C 4.9 g/m*3 1.7 C 0 km/h
2844 10-12-2010 17:03:01 1.9 C 4.97 g/m*3 1.9 C 0 km/h
2845 10-12-2010 17:15:02 1.6 C 4.87 g/m*3 1.6 C 0 km/h
2846 10-12-2010 17:27:02 1.6 C 4.87 g/m*3 1.6 C 0 km/h
2847 10-12-2010 17:39:02 2.3 C 5.1 g/m*3 2.3 C 0 km/h
2848 10-12-2010 17:51:01 1.8 C 4.93 g/m*3 1.8 C 0 km/h
2849 10-12-2010 18:03:02 1.7 C 4.9 g/m*3 1.7 C 0 km/h
2850 10-12-2010 18:15:01 2 C 5 g/m*3 2 C 0 km/h
Sensor: Nr:Datum:Temp:Abs-Feuchte:Windchill:Wind:
Aussen-T/F 2851 10-12-2010 18:27:01 2.2 C 5.01 g/m*3 2.2 C 0 km/h
2852 10-12-2010 18:39:02 1.8 C 4.88 g/m*3 1.8 C 0 km/h
2853 10-12-2010 18:51:02 1.6 C 4.87 g/m*3 1.6 C 0 km/h
2854 10-12-2010 19:03:02 2 C 4.95 g/m*3 2 C 0 km/h
2855 10-12-2010 19:15:01 2.2 C 5.01 g/m*3 2.2 C 0 km/h
2856 10-12-2010 19:27:01 2.5 C 5.06 g/m*3 2.5 C 0 km/h
2857 10-12-2010 19:39:02 2.3 C 4.93 g/m*3 2.3 C 0 km/h
2858 10-12-2010 19:51:02 2.4 C 4.91 g/m*3 2.4 C 0 km/h
2859 10-12-2010 20:03:02 2.4 C 4.91 g/m*3 2.4 C 0 km/h
2860 10-12-2010 20:15:01 2.7 C 5.01 g/m*3 2.7 C 0 km/h
2861 10-12-2010 20:27:01 2.8 C 4.99 g/m*3 2.8 C 0 km/h
2862 10-12-2010 20:39:02 2.5 C 4.83 g/m*3 2.5 C 0 km/h
2863 10-12-2010 20:51:01 2.6 C 4.92 g/m*3 2.6 C 0 km/h
2864 10-12-2010 21:03:02 2.5 C 4.89 g/m*3 2.5 C 0 km/h
2865 10-12-2010 21:15:02 2.5 C 4.83 g/m*3 2.5 C 0 km/h
2866 10-12-2010 21:27:02 2.4 C 4.8 g/m*3 2.4 C 0 km/h
2867 10-12-2010 21:39:02 2.6 C 4.86 g/m*3 2.6 C 0 km/h
2868 10-12-2010 21:51:02 2.5 C 4.89 g/m*3 2.5 C 0 km/h
2869 10-12-2010 22:03:02 2.5 C 4.89 g/m*3 2.5 C 0 km/h
2870 10-12-2010 22:15:01 2.6 C 4.86 g/m*3 2.6 C 0 km/h
2871 10-12-2010 22:27:01 2.4 C 4.85 g/m*3 2.4 C 0 km/h
2872 10-12-2010 22:39:02 2.5 C 4.89 g/m*3 2.5 C 0 km/h
2873 10-12-2010 22:51:01 2.6 C 4.86 g/m*3 2.6 C 0 km/h
2874 10-12-2010 23:03:02 2.4 C 4.8 g/m*3 2.4 C 0 km/h
2875 10-12-2010 23:15:02 2.3 C 4.82 g/m*3 2.3 C 0 km/h
Sensor: Nr:Datum:Temp:Abs-Feuchte:Windchill:Wind:
Aussen-T/F 2876 10-12-2010 23:27:02 2.1 C 4.87 g/m*3 2.1 C 0 km/h
2877 10-12-2010 23:39:02 2.2 C 4.9 g/m*3 2.2 C 0 km/h
2878 10-12-2010 23:51:01 2.2 C 4.9 g/m*3 2.2 C 0 km/h
2879 11-12-2010 00:03:02 2.2 C 4.96 g/m*3 2.2 C 0 km/h
2880 11-12-2010 00:15:02 2.3 C 4.99 g/m*3 2.3 C 0 km/h
2881 11-12-2010 00:27:02 2.1 C 4.92 g/m*3 2.1 C 0 km/h
2882 11-12-2010 00:39:01 2.2 C 5.01 g/m*3 2.2 C 0 km/h
2883 11-12-2010 00:51:02 2.1 C 4.98 g/m*3 2.1 C 0 km/h
2884 11-12-2010 01:03:01 2.3 C 5.05 g/m*3 2.3 C 0 km/h
2885 11-12-2010 01:15:02 2.4 C 5.08 g/m*3 2.4 C 0 km/h
2886 11-12-2010 01:27:03 2.5 C 5.12 g/m*3 2.5 C 0 km/h
2887 11-12-2010 01:39:01 2.5 C 5.06 g/m*3 2.5 C 0 km/h
2888 11-12-2010 01:51:02 2.6 C 5.09 g/m*3 2.6 C 0 km/h
2889 11-12-2010 02:03:02 2.7 C 5.13 g/m*3 2.7 C 0 km/h
2890 11-12-2010 02:15:02 2.8 C 5.16 g/m*3 2.8 C 0 km/h
2891 11-12-2010 02:27:02 2.8 C 5.16 g/m*3 2.8 C 0 km/h
2892 11-12-2010 02:39:03 2.6 C 5.09 g/m*3 2.6 C 0 km/h
2893 11-12-2010 02:51:01 2.7 C 5.13 g/m*3 2.7 C 0 km/h
2894 11-12-2010 03:03:01 2.6 C 5.09 g/m*3 2.6 C 0 km/h
2895 11-12-2010 03:15:02 2.7 C 5.13 g/m*3 2.7 C 0 km/h
2896 11-12-2010 03:27:02 2.3 C 4.99 g/m*3 2.3 C 0 km/h
2897 11-12-2010 03:39:02 2.3 C 5.05 g/m*3 2.3 C 0 km/h
2898 11-12-2010 03:51:02 2.8 C 5.22 g/m*3 2.8 C 0 km/h
2899 11-12-2010 04:03:01 3.3 C 5.34 g/m*3 3.3 C 0 km/h
2900 11-12-2010 04:15:01 3 C 5.17 g/m*3 3 C 0 km/h
Sensor: Nr:Datum:Temp:Abs-Feuchte:Windchill:Wind:
Aussen-T/F 2901 11-12-2010 04:27:01 3 C 5.17 g/m*3 3 C 0 km/h
2902 11-12-2010 04:39:02 3.5 C 5.29 g/m*3 3.5 C 0 km/h
2903 11-12-2010 04:51:01 3.5 C 5.23 g/m*3 3.5 C 0 km/h
2904 11-12-2010 05:03:02 4 C 5.28 g/m*3 4 C 0 km/h
2905 11-12-2010 05:15:01 4 C 5.21 g/m*3 4 C 0 km/h
2906 11-12-2010 05:27:01 3.8 C 5.14 g/m*3 3.8 C 0 km/h
2907 11-12-2010 05:39:02 3.8 C 5.14 g/m*3 3.8 C 0 km/h
2908 11-12-2010 05:51:01 3.7 C 5.17 g/m*3 3.7 C 0 km/h
2909 11-12-2010 06:03:02 3.6 C 5.2 g/m*3 3.6 C 0 km/h
2910 11-12-2010 06:15:01 3.1 C 5.03 g/m*3 3.1 C 0 km/h
2911 11-12-2010 06:27:01 3.4 C 5.19 g/m*3 3.4 C 0 km/h
2912 11-12-2010 06:39:01 3.4 C 5.19 g/m*3 3.4 C 0 km/h
2913 11-12-2010 06:51:01 3.3 C 5.16 g/m*3 3.3 C 0 km/h
2914 11-12-2010 07:03:01 3.6 C 5.32 g/m*3 3.6 C 0 km/h
2915 11-12-2010 07:15:01 3.9 C 5.31 g/m*3 3.9 C 0 km/h
2916 11-12-2010 07:27:01 4.5 C 5.26 g/m*3 4.5 C 0 km/h
2917 11-12-2010 07:39:01 4.5 C 5.13 g/m*3 4.5 C 0 km/h
2918 11-12-2010 07:51:01 4.2 C 5.03 g/m*3 4.2 C 0 km/h
2919 11-12-2010 08:03:01 4.6 C 5.16 g/m*3 4.6 C 0 km/h
2920 11-12-2010 08:15:02 4.7 C 5.06 g/m*3 4.7 C 0 km/h
2921 11-12-2010 08:27:02 5 C 4.96 g/m*3 5 C 0 km/h
2922 11-12-2010 08:39:01 5.1 C 4.92 g/m*3 5.1 C 0 km/h
2923 11-12-2010 08:51:02 4.9 C 4.93 g/m*3 4.9 C 0 km/h
2924 11-12-2010 09:03:01 4.5 C 4.86 g/m*3 4.5 C 0 km/h
2925 11-12-2010 09:15:02 4.3 C 4.99 g/m*3 4.3 C 0 km/h
Sensor: Nr:Datum:Temp:Abs-Feuchte:Windchill:Wind:
Aussen-T/F 2926 11-12-2010 09:27:02 4 C 4.9 g/m*3 4 C 0 km/h
2927 11-12-2010 09:39:01 4 C 5.15 g/m*3 4 C 0 km/h
2928 11-12-2010 09:51:02 4 C 5.28 g/m*3 4 C 0 km/h
2929 11-12-2010 10:03:01 3.9 C 5.37 g/m*3 3.9 C 0 km/h
2930 11-12-2010 10:15:01 4 C 5.4 g/m*3 4 C 0 km/h
2931 11-12-2010 10:27:01 4 C 5.4 g/m*3 4 C 0 km/h
2932 11-12-2010 10:39:02 3.8 C 5.33 g/m*3 3.8 C 0 km/h
2933 11-12-2010 10:51:01 3.8 C 5.4 g/m*3 3.8 C 0 km/h
2934 11-12-2010 11:03:02 4.1 C 5.38 g/m*3 4.1 C 0 km/h
2935 11-12-2010 11:15:01 4.2 C 5.35 g/m*3 4.2 C 0 km/h
2936 11-12-2010 11:27:01 4.5 C 5.39 g/m*3 4.5 C 0 km/h
2937 11-12-2010 11:39:02 4.4 C 5.35 g/m*3 4.4 C 0 km/h
2938 11-12-2010 11:51:01 4.3 C 5.38 g/m*3 4.3 C 0 km/h
2939 11-12-2010 12:03:02 4.3 C 5.45 g/m*3 4.3 C 0 km/h
2940 11-12-2010 12:15:01 4.4 C 5.55 g/m*3 4.4 C 0 km/h
2941 11-12-2010 12:27:01 4.6 C 5.62 g/m*3 4.6 C 0 km/h
2942 11-12-2010 12:39:01 4.6 C 5.62 g/m*3 4.6 C 0 km/h
2943 11-12-2010 12:51:01 4.8 C 5.57 g/m*3 4.8 C 0 km/h
2944 11-12-2010 13:03:01 4.8 C 5.5 g/m*3 4.8 C 0 km/h
2945 11-12-2010 13:15:01 4.8 C 5.43 g/m*3 4.8 C 0 km/h
2946 11-12-2010 13:27:01 4.8 C 5.36 g/m*3 4.8 C 0 km/h
2947 11-12-2010 13:39:01 4.9 C 5.33 g/m*3 4.9 C 0 km/h
2948 11-12-2010 13:51:01 5 C 5.3 g/m*3 5 C 0 km/h
2949 11-12-2010 14:03:01 4.8 C 5.3 g/m*3 4.8 C 0 km/h
2950 11-12-2010 14:15:02 4.9 C 5.33 g/m*3 4.9 C 0 km/h
Sensor: Nr:Datum:Temp:Abs-Feuchte:Windchill:Wind:
Aussen-T/F 2951 11-12-2010 14:27:02 4.8 C 5.3 g/m*3 4.8 C 0 km/h
2952 11-12-2010 14:39:01 4.9 C 5.33 g/m*3 4.9 C 0 km/h
2953 11-12-2010 14:51:02 5.1 C 5.27 g/m*3 5.1 C 0 km/h
2954 11-12-2010 15:03:01 5.1 C 5.27 g/m*3 5.1 C 0 km/h
2955 11-12-2010 15:15:02 5.1 C 5.2 g/m*3 5.1 C 0 km/h
2956 11-12-2010 15:27:02 5.2 C 5.16 g/m*3 5.2 C 0 km/h
2957 11-12-2010 15:39:01 5.1 C 5.13 g/m*3 5.1 C 0 km/h
2958 11-12-2010 15:51:02 4.8 C 5.16 g/m*3 4.8 C 0 km/h
2959 11-12-2010 16:03:01 4.7 C 5.2 g/m*3 4.7 C 0 km/h
2960 11-12-2010 16:15:01 4.6 C 5.23 g/m*3 4.6 C 0 km/h
2961 11-12-2010 16:27:01 5.1 C 5.27 g/m*3 5.1 C 0 km/h
2962 11-12-2010 16:39:02 5.1 C 5.27 g/m*3 5.1 C 0 km/h
2963 11-12-2010 16:51:01 5 C 5.23 g/m*3 5 C 0 km/h
2964 11-12-2010 17:03:02 5 C 5.16 g/m*3 5 C 0 km/h
2965 11-12-2010 17:15:01 5.4 C 5.23 g/m*3 5.4 C 0 km/h
2966 11-12-2010 17:27:01 5.5 C 5.2 g/m*3 5.5 C 0 km/h
2967 11-12-2010 17:39:02 5.1 C 5.2 g/m*3 5.1 C 0 km/h
2968 11-12-2010 17:51:01 4.8 C 5.3 g/m*3 4.8 C 0 km/h
2969 11-12-2010 18:03:02 4.7 C 5.26 g/m*3 4.7 C 0 km/h
2970 11-12-2010 18:15:01 4.4 C 5.16 g/m*3 4.4 C 0 km/h
2971 11-12-2010 18:27:01 4.2 C 5.15 g/m*3 4.2 C 0 km/h
2972 11-12-2010 18:39:01 3.9 C 5.24 g/m*3 3.9 C 0 km/h
2973 11-12-2010 18:51:01 3.9 C 5.24 g/m*3 3.9 C 0 km/h
2974 11-12-2010 19:03:01 4.1 C 5.25 g/m*3 4.1 C 0 km/h
2975 11-12-2010 19:15:02 4.2 C 5.22 g/m*3 4.2 C 0 km/h
Sensor: Nr:Datum:Temp:Abs-Feuchte:Windchill:Wind:
Aussen-T/F 2976 11-12-2010 19:27:02 4 C 5.15 g/m*3 4 C 0 km/h
2977 11-12-2010 19:39:01 4.4 C 5.22 g/m*3 4.4 C 0 km/h
2978 11-12-2010 19:51:01 4.6 C 5.16 g/m*3 4.6 C 0 km/h
2979 11-12-2010 20:03:01 4.5 C 5.06 g/m*3 4.5 C 0 km/h
2980 11-12-2010 20:15:02 4.4 C 5.03 g/m*3 4.4 C 0 km/h
2981 11-12-2010 20:27:02 5.4 C 5.02 g/m*3 5.4 C 0 km/h
2982 11-12-2010 20:39:01 5 C 4.89 g/m*3 5 C 0 km/h
2983 11-12-2010 20:51:02 4.8 C 5.03 g/m*3 4.8 C 0 km/h
2984 11-12-2010 21:03:01 4.9 C 5.06 g/m*3 4.9 C 0 km/h
2985 11-12-2010 21:15:01 4.8 C 5.03 g/m*3 4.8 C 0 km/h
2986 11-12-2010 21:27:02 4.1 C 4.99 g/m*3 4.1 C 0 km/h
2987 11-12-2010 21:39:01 4 C 5.02 g/m*3 4 C 0 km/h
2988 11-12-2010 21:51:02 4.2 C 5.09 g/m*3 4.2 C 0 km/h
2989 11-12-2010 22:03:01 4.5 C 5.13 g/m*3 4.5 C 0 km/h
2990 11-12-2010 22:15:01 4.2 C 5.03 g/m*3 4.2 C 0 km/h
2991 11-12-2010 22:27:01 4.5 C 5.13 g/m*3 4.5 C 0 km/h
2992 11-12-2010 22:40:19 4.4 C 4.96 g/m*3 4.4 C 0 km/h
2993 11-12-2010 22:52:19 3.9 C 4.93 g/m*3 3.9 C 0 km/h
2994 11-12-2010 23:04:19 4.6 C 5.03 g/m*3 4.6 C 0 km/h
2995 11-12-2010 23:16:20 4.8 C 4.9 g/m*3 4.8 C 0 km/h
2996 11-12-2010 23:28:20 4.8 C 4.9 g/m*3 4.8 C 0 km/h
2997 11-12-2010 23:40:20 4.5 C 4.8 g/m*3 4.5 C 0 km/h
2998 11-12-2010 23:52:20 4.6 C 4.83 g/m*3 4.6 C 0 km/h
2999 12-12-2010 00:04:20 4.6 C 4.83 g/m*3 4.6 C 0 km/h
3000 12-12-2010 00:16:20 4.4 C 4.96 g/m*3 4.4 C 0 km/h
Sensor: Nr:Datum:Temp:Abs-Feuchte:Windchill:Wind:
Aussen-T/F 3001 12-12-2010 00:28:20 4.2 C 4.96 g/m*3 4.2 C 0 km/h
3002 12-12-2010 00:40:20 4.1 C 5.06 g/m*3 4.1 C 0 km/h
3003 12-12-2010 00:52:20 4 C 5.02 g/m*3 4 C 0 km/h
3004 12-12-2010 01:04:20 4.3 C 5.06 g/m*3 4.3 C 0 km/h
3005 12-12-2010 01:16:20 4.7 C 4.86 g/m*3 4.7 C 0 km/h
3006 12-12-2010 01:28:20 4.8 C 4.83 g/m*3 4.8 C 0 km/h
3007 12-12-2010 01:40:20 5 C 4.76 g/m*3 5 C 0 km/h
3008 12-12-2010 01:52:20 5.4 C 4.67 g/m*3 5.4 C 0 km/h
3009 12-12-2010 02:04:20 5.3 C 4.64 g/m*3 5.3 C 0 km/h
3010 12-12-2010 02:16:20 5.3 C 4.57 g/m*3 5.3 C 0 km/h
3011 12-12-2010 02:28:20 4.6 C 4.57 g/m*3 4.6 C 0 km/h
3012 12-12-2010 02:40:21 4.2 C 4.51 g/m*3 4.2 C 0 km/h
3013 12-12-2010 02:52:21 4.7 C 4.6 g/m*3 4.7 C 0 km/h
3014 12-12-2010 03:04:21 4.8 C 4.56 g/m*3 4.8 C 0 km/h
3015 12-12-2010 03:16:21 4.7 C 4.46 g/m*3 4.7 C 0 km/h
3016 12-12-2010 03:28:21 4.2 C 4.57 g/m*3 4.2 C 0 km/h
3017 12-12-2010 03:40:21 3.7 C 4.8 g/m*3 3.7 C 0 km/h
3018 12-12-2010 03:52:21 3.6 C 4.89 g/m*3 3.6 C 0 km/h
3019 12-12-2010 04:04:21 3.5 C 5.04 g/m*3 3.5 C 0 km/h
3020 12-12-2010 04:16:21 3.5 C 5.1 g/m*3 3.5 C 0 km/h
3021 12-12-2010 04:28:21 3.6 C 5.2 g/m*3 3.6 C 0 km/h
3022 12-12-2010 04:40:21 3.8 C 5.27 g/m*3 3.8 C 0 km/h
3023 12-12-2010 04:52:21 4 C 5.28 g/m*3 4 C 0 km/h
3024 12-12-2010 05:04:21 4 C 5.28 g/m*3 4 C 0 km/h
3025 12-12-2010 05:16:21 3.2 C 4.94 g/m*3 3.2 C 0 km/h
Sensor: Nr:Datum:Temp:Abs-Feuchte:Windchill:Wind:
Aussen-T/F 3026 12-12-2010 05:28:21 3.2 C 5.06 g/m*3 3.2 C 0 km/h
3027 12-12-2010 05:40:21 3.6 C 5.26 g/m*3 3.6 C 0 km/h
3028 12-12-2010 05:52:21 3.2 C 5 g/m*3 3.2 C 0 km/h
3029 12-12-2010 06:04:21 2.8 C 4.93 g/m*3 2.8 C 0 km/h
3030 12-12-2010 06:16:21 2.5 C 4.89 g/m*3 2.5 C 0 km/h
3031 12-12-2010 06:28:21 2.9 C 5.14 g/m*3 2.9 C 0 km/h
3032 12-12-2010 06:40:22 3.5 C 5.29 g/m*3 3.5 C 0 km/h
3033 12-12-2010 06:52:22 3.5 C 5.1 g/m*3 3.5 C 0 km/h
3034 12-12-2010 07:04:22 3.6 C 5.01 g/m*3 3.6 C 0 km/h
3035 12-12-2010 07:16:22 3.8 C 5.02 g/m*3 3.8 C 0 km/h
3036 12-12-2010 07:28:22 4 C 4.9 g/m*3 4 C 0 km/h
3037 12-12-2010 07:40:22 3.9 C 4.86 g/m*3 3.9 C 0 km/h
3038 12-12-2010 07:52:22 4 C 4.83 g/m*3 4 C 0 km/h
3039 12-12-2010 08:04:22 4 C 4.83 g/m*3 4 C 0 km/h
3040 12-12-2010 08:16:22 3.8 C 4.83 g/m*3 3.8 C 0 km/h
3041 12-12-2010 08:28:22 3.5 C 4.8 g/m*3 3.5 C 0 km/h
3042 12-12-2010 08:40:04 3.4 C 4.95 g/m*3 3.4 C 0 km/h
3043 12-12-2010 08:52:02 3.4 C 4.95 g/m*3 3.4 C 0 km/h
3044 12-12-2010 09:04:02 3.4 C 4.95 g/m*3 3.4 C 0 km/h
3045 12-12-2010 09:16:02 3.5 C 4.98 g/m*3 3.5 C 0 km/h
3046 12-12-2010 09:28:02 3.9 C 4.99 g/m*3 3.9 C 0 km/h
3047 12-12-2010 09:40:03 3.9 C 4.93 g/m*3 3.9 C 0 km/h
3048 12-12-2010 09:52:02 3.8 C 4.96 g/m*3 3.8 C 0 km/h
3049 12-12-2010 10:04:01 3.8 C 4.89 g/m*3 3.8 C 0 km/h
3050 12-12-2010 10:16:02 3.8 C 4.96 g/m*3 3.8 C 0 km/h
Sensor: Nr:Datum:Temp:Abs-Feuchte:Windchill:Wind:
Aussen-T/F 3051 12-12-2010 10:28:02 3.9 C 5.05 g/m*3 3.9 C 0 km/h
3052 12-12-2010 10:40:02 4 C 5.09 g/m*3 4 C 0 km/h
3053 12-12-2010 10:52:02 3.8 C 5.14 g/m*3 3.8 C 0 km/h
3054 12-12-2010 11:04:03 4.1 C 5.18 g/m*3 4.1 C 0 km/h
3055 12-12-2010 11:16:02 4.1 C 5.12 g/m*3 4.1 C 0 km/h
3056 12-12-2010 11:28:02 4.3 C 5.12 g/m*3 4.3 C 0 km/h
3057 12-12-2010 11:40:02 4.1 C 5.12 g/m*3 4.1 C 0 km/h
3058 12-12-2010 11:52:02 4 C 5.15 g/m*3 4 C 0 km/h
3059 12-12-2010 12:04:02 4 C 5.21 g/m*3 4 C 0 km/h
3060 12-12-2010 12:16:01 4.3 C 5.38 g/m*3 4.3 C 0 km/h
3061 12-12-2010 12:28:01 4.6 C 5.43 g/m*3 4.6 C 0 km/h
3062 12-12-2010 12:40:02 4.7 C 5.33 g/m*3 4.7 C 0 km/h
3063 12-12-2010 12:52:02 4.9 C 5.33 g/m*3 4.9 C 0 km/h
3064 12-12-2010 13:04:02 4.7 C 5.2 g/m*3 4.7 C 0 km/h
3065 12-12-2010 13:16:01 5.1 C 5.2 g/m*3 5.1 C 0 km/h
3066 12-12-2010 13:28:01 4.6 C 5.1 g/m*3 4.6 C 0 km/h
3067 12-12-2010 13:40:02 4.8 C 5.23 g/m*3 4.8 C 0 km/h
3068 12-12-2010 13:52:02 4.9 C 5.13 g/m*3 4.9 C 0 km/h
3069 12-12-2010 14:04:02 4.5 C 5 g/m*3 4.5 C 0 km/h
3070 12-12-2010 14:16:01 3.6 C 4.89 g/m*3 3.6 C 0 km/h
3071 12-12-2010 14:28:01 3.1 C 4.85 g/m*3 3.1 C 0 km/h
3072 12-12-2010 14:40:02 2.9 C 4.96 g/m*3 2.9 C 0 km/h
3073 12-12-2010 14:52:02 3.2 C 5.06 g/m*3 3.2 C 0 km/h
3074 12-12-2010 15:04:02 3.2 C 5.12 g/m*3 3.2 C 0 km/h
3075 12-12-2010 15:16:02 3.2 C 5.18 g/m*3 3.2 C 0 km/h
Sensor: Nr:Datum:Temp:Abs-Feuchte:Windchill:Wind:
Aussen-T/F 3076 12-12-2010 15:28:02 3.1 C 5.21 g/m*3 3.1 C 0 km/h
3077 12-12-2010 15:40:02 3.1 C 5.27 g/m*3 3.1 C 0 km/h
3078 12-12-2010 15:52:02 2.9 C 5.26 g/m*3 2.9 C 0 km/h
3079 12-12-2010 16:04:02 2.7 C 5.13 g/m*3 2.7 C 0 km/h
3080 12-12-2010 16:16:02 2.7 C 5.13 g/m*3 2.7 C 0 km/h
3081 12-12-2010 16:28:03 2.6 C 5.09 g/m*3 2.6 C 0 km/h
3082 12-12-2010 16:40:01 2.7 C 5.13 g/m*3 2.7 C 0 km/h
3083 12-12-2010 16:52:02 2.8 C 5.1 g/m*3 2.8 C 0 km/h
3084 12-12-2010 17:04:01 2.8 C 4.99 g/m*3 2.8 C 0 km/h
3085 12-12-2010 17:16:01 2.7 C 4.78 g/m*3 2.7 C 0 km/h
3086 12-12-2010 17:28:01 2.4 C 4.51 g/m*3 2.4 C 0 km/h
3087 12-12-2010 17:40:02 2.3 C 4.42 g/m*3 2.3 C 0 km/h
3088 12-12-2010 17:52:02 2.2 C 4.39 g/m*3 2.2 C 0 km/h
3089 12-12-2010 18:04:02 2.1 C 4.36 g/m*3 2.1 C 0 km/h
3090 12-12-2010 18:16:02 2 C 4.28 g/m*3 2 C 0 km/h
3091 12-12-2010 18:28:02 1.8 C 4.22 g/m*3 1.8 C 0 km/h
3092 12-12-2010 18:40:02 1.7 C 3.97 g/m*3 1.7 C 0 km/h
3093 12-12-2010 18:52:01 1.7 C 3.92 g/m*3 1.7 C 0 km/h
3094 12-12-2010 19:04:02 1.6 C 3.95 g/m*3 1.6 C 0 km/h
3095 12-12-2010 19:16:01 1.4 C 3.95 g/m*3 1.4 C 0 km/h
3096 12-12-2010 19:28:01 1.4 C 3.95 g/m*3 1.4 C 0 km/h
3097 12-12-2010 19:40:01 1.3 C 3.87 g/m*3 1.3 C 0 km/h
3098 12-12-2010 19:52:01 1.2 C 3.84 g/m*3 1.2 C 0 km/h
3099 12-12-2010 20:04:01 1.4 C 3.57 g/m*3 1.4 C 0 km/h
3100 12-12-2010 20:16:02 1.4 C 3.52 g/m*3 1.4 C 0 km/h
Sensor: Nr:Datum:Temp:Abs-Feuchte:Windchill:Wind:
Aussen-T/F 3101 12-12-2010 20:28:02 1.1 C 3.5 g/m*3 1.1 C 0 km/h
3102 12-12-2010 20:40:01 1 C 3.63 g/m*3 1 C 0 km/h
3103 12-12-2010 20:52:02 1 C 3.58 g/m*3 1 C 0 km/h
3104 12-12-2010 21:04:02 0.9 C 3.56 g/m*3 0.9 C 0 km/h
3105 12-12-2010 21:16:02 0.8 C 3.43 g/m*3 0.8 C 0 km/h
3106 12-12-2010 21:28:02 0.8 C 3.38 g/m*3 0.8 C 0 km/h
3107 12-12-2010 21:40:02 0.7 C 3.2 g/m*3 0.7 C 0 km/h
3108 12-12-2010 21:52:02 0.6 C 3.18 g/m*3 0.6 C 0 km/h
3109 12-12-2010 22:04:02 0.5 C 3.21 g/m*3 0.5 C 0 km/h
3110 12-12-2010 22:16:02 0.5 C 3.16 g/m*3 0.5 C 0 km/h
3111 12-12-2010 22:28:02 0.4 C 3.19 g/m*3 0.4 C 0 km/h
3112 12-12-2010 22:40:02 0.3 C 3.22 g/m*3 0.3 C 0 km/h
3113 12-12-2010 22:53:03 0.3 C 3.12 g/m*3 0.3 C 0 km/h
3114 12-12-2010 23:05:03 0.1 C 2.78 g/m*3 0.1 C 0 km/h
3115 12-12-2010 23:17:03 0.1 C 2.78 g/m*3 0.1 C 0 km/h
3116 12-12-2010 23:29:03 0 C 2.71 g/m*3 0 C 0 km/h
3117 12-12-2010 23:41:03 -0.2 C 2.72 g/m*3 -0.2 C 0 km/h
3118 12-12-2010 23:53:04 -0.2 C 2.68 g/m*3 -0.2 C 0 km/h
3119 13-12-2010 00:05:04 -0.4 C 2.59 g/m*3 -0.4 C 0 km/h
3120 13-12-2010 00:17:04 -0.4 C 2.59 g/m*3 -0.4 C 0 km/h
3121 13-12-2010 00:29:04 -0.5 C 2.53 g/m*3 -0.5 C 0 km/h
3122 13-12-2010 00:41:04 -0.6 C 2.37 g/m*3 -0.6 C 0 km/h
3123 13-12-2010 00:53:04 -0.7 C 2.4 g/m*3 -0.7 C 0 km/h
3124 13-12-2010 01:05:04 -0.7 C 2.35 g/m*3 -0.7 C 0 km/h
3125 13-12-2010 01:17:04 -0.7 C 2.45 g/m*3 -0.7 C 0 km/h
Sensor: Nr:Datum:Temp:Abs-Feuchte:Windchill:Wind:
Aussen-T/F 3126 13-12-2010 01:29:04 -0.9 C 2.46 g/m*3 -0.9 C 0 km/h
3127 13-12-2010 01:41:04 -0.9 C 2.46 g/m*3 -0.9 C 0 km/h
3128 13-12-2010 01:53:04 -1 C 2.53 g/m*3 -1 C 0 km/h
3129 13-12-2010 02:05:04 -1.3 C 2.35 g/m*3 -1.3 C 0 km/h
3130 13-12-2010 02:17:04 -2.1 C 2.26 g/m*3 -2.1 C 0 km/h
3131 13-12-2010 02:29:04 -2.4 C 2.29 g/m*3 -2.4 C 0 km/h
3132 13-12-2010 02:41:04 -2.7 C 2.29 g/m*3 -2.7 C 0 km/h
3133 13-12-2010 02:53:04 -2.9 C 2.29 g/m*3 -2.9 C 0 km/h
3134 13-12-2010 03:05:04 -2.9 C 2.29 g/m*3 -2.9 C 0 km/h
3135 13-12-2010 03:17:04 -3.4 C 2.25 g/m*3 -3.4 C 0 km/h
3136 13-12-2010 03:29:04 -3.6 C 2.26 g/m*3 -3.6 C 0 km/h
3137 13-12-2010 03:41:04 -3.8 C 2.26 g/m*3 -3.8 C 0 km/h
3138 13-12-2010 03:53:05 -3.8 C 2.26 g/m*3 -3.8 C 0 km/h
3139 13-12-2010 04:05:05 -4.1 C 2.25 g/m*3 -4.1 C 0 km/h
3140 13-12-2010 04:17:05 -4.2 C 2.31 g/m*3 -4.2 C 0 km/h
3141 13-12-2010 04:29:05 -4.1 C 2.32 g/m*3 -4.1 C 0 km/h
3142 13-12-2010 04:41:05 -4.4 C 2.28 g/m*3 -4.4 C 0 km/h
3143 13-12-2010 04:53:05 -4.2 C 2.31 g/m*3 -4.2 C 0 km/h
3144 13-12-2010 05:05:05 -4.7 C 2.26 g/m*3 -4.7 C 0 km/h
3145 13-12-2010 05:17:05 -5.2 C 2.25 g/m*3 -5.2 C 0 km/h
3146 13-12-2010 05:29:05 -6 C 2.19 g/m*3 -6 C 0 km/h
3147 13-12-2010 05:41:05 -6.5 C 2.17 g/m*3 -6.5 C 0 km/h
3148 13-12-2010 05:53:05 -6.6 C 2.24 g/m*3 -6.6 C 0 km/h
3149 13-12-2010 06:05:05 -6.2 C 2.31 g/m*3 -6.2 C 0 km/h
3150 13-12-2010 06:17:05 -6.3 C 2.32 g/m*3 -6.3 C 0 km/h
Sensor: Nr:Datum:Temp:Abs-Feuchte:Windchill:Wind:
Aussen-T/F 3151 13-12-2010 06:29:05 -7 C 2.18 g/m*3 -7 C 0 km/h
3152 13-12-2010 06:41:05 -7.5 C 2.13 g/m*3 -7.5 C 0 km/h
3153 13-12-2010 06:53:05 -7.7 C 2.13 g/m*3 -7.7 C 0 km/h
3154 13-12-2010 07:05:05 -7.2 C 2.23 g/m*3 -7.2 C 0 km/h
3155 13-12-2010 07:17:05 -6.8 C 2.3 g/m*3 -6.8 C 0 km/h
3156 13-12-2010 07:29:05 -7.2 C 2.2 g/m*3 -7.2 C 0 km/h
3157 13-12-2010 07:41:02 -7.3 C 2.19 g/m*3 -7.3 C 0 km/h
3158 13-12-2010 07:53:02 -7.5 C 2.19 g/m*3 -7.5 C 0 km/h
3159 13-12-2010 08:05:01 -6.9 C 2.31 g/m*3 -6.9 C 0 km/h
3160 13-12-2010 08:17:02 -7.2 C 2.26 g/m*3 -7.2 C 0 km/h
3161 13-12-2010 08:29:02 -7.3 C 2.25 g/m*3 -7.3 C 0 km/h
3162 13-12-2010 08:41:01 -7.3 C 2.25 g/m*3 -7.3 C 0 km/h
3163 13-12-2010 08:53:02 -7.2 C 2.29 g/m*3 -7.2 C 0 km/h
3164 13-12-2010 09:05:02 -7.3 C 2.25 g/m*3 -7.3 C 0 km/h
3165 13-12-2010 09:17:02 -7.4 C 2.23 g/m*3 -7.4 C 0 km/h
3166 13-12-2010 09:29:02 -7.3 C 2.25 g/m*3 -7.3 C 0 km/h
3167 13-12-2010 09:41:02 -6.8 C 2.36 g/m*3 -6.8 C 0 km/h
3168 13-12-2010 09:53:01 -6.8 C 2.36 g/m*3 -6.8 C 0 km/h
3169 13-12-2010 10:05:02 -7.1 C 2.31 g/m*3 -7.1 C 0 km/h
3170 13-12-2010 10:17:01 -7 C 2.33 g/m*3 -7 C 0 km/h
3171 13-12-2010 10:29:01 -6.6 C 2.39 g/m*3 -6.6 C 0 km/h
3172 13-12-2010 10:41:02 -6.6 C 2.39 g/m*3 -6.6 C 0 km/h
3173 13-12-2010 10:53:02 -5.8 C 2.57 g/m*3 -5.8 C 0 km/h
3174 13-12-2010 11:05:02 -4.9 C 2.71 g/m*3 -4.9 C 0 km/h
3175 13-12-2010 11:17:01 -4.4 C 2.7 g/m*3 -4.4 C 0 km/h
Sensor: Nr:Datum:Temp:Abs-Feuchte:Windchill:Wind:
Aussen-T/F 3176 13-12-2010 11:29:01 -4 C 2.6 g/m*3 -4 C 0 km/h
3177 13-12-2010 11:41:02 -3.5 C 2.58 g/m*3 -3.5 C 0 km/h
3178 13-12-2010 11:53:01 -3.2 C 2.56 g/m*3 -3.2 C 0 km/h
3179 13-12-2010 12:05:02 -2.8 C 2.59 g/m*3 -2.8 C 0 km/h
3180 13-12-2010 12:17:02 -2.8 C 2.51 g/m*3 -2.8 C 0 km/h
3181 13-12-2010 12:29:02 -2.9 C 2.49 g/m*3 -2.9 C 0 km/h
3182 13-12-2010 12:41:01 -2.8 C 2.51 g/m*3 -2.8 C 0 km/h
3183 13-12-2010 12:53:02 -2.6 C 2.51 g/m*3 -2.6 C 0 km/h
3184 13-12-2010 13:05:01 -2.5 C 2.56 g/m*3 -2.5 C 0 km/h
3185 13-12-2010 13:17:02 -2.5 C 2.52 g/m*3 -2.5 C 0 km/h
3186 13-12-2010 13:29:03 -2.3 C 2.52 g/m*3 -2.3 C 0 km/h
3187 13-12-2010 13:41:01 -2.3 C 2.44 g/m*3 -2.3 C 0 km/h
3188 13-12-2010 13:53:02 -2 C 2.44 g/m*3 -2 C 0 km/h
3189 13-12-2010 14:05:02 -1.9 C 2.38 g/m*3 -1.9 C 0 km/h
3190 13-12-2010 14:17:02 -2 C 2.36 g/m*3 -2 C 0 km/h
3191 13-12-2010 14:29:02 -2.1 C 2.39 g/m*3 -2.1 C 0 km/h
3192 13-12-2010 14:41:03 -2.3 C 2.39 g/m*3 -2.3 C 0 km/h
3193 13-12-2010 14:53:02 -2.7 C 2.45 g/m*3 -2.7 C 0 km/h
3194 13-12-2010 15:05:02 -2.9 C 2.45 g/m*3 -2.9 C 0 km/h
3195 13-12-2010 15:17:01 -3.1 C 2.46 g/m*3 -3.1 C 0 km/h
3196 13-12-2010 15:29:01 -3.4 C 2.48 g/m*3 -3.4 C 0 km/h
3197 13-12-2010 15:41:02 -4.2 C 2.45 g/m*3 -4.2 C 0 km/h
3198 13-12-2010 15:53:02 -4.7 C 2.51 g/m*3 -4.7 C 0 km/h
3199 13-12-2010 16:05:03 -4.7 C 2.57 g/m*3 -4.7 C 0 km/h
3200 13-12-2010 16:17:02 -4.8 C 2.59 g/m*3 -4.8 C 0 km/h
Sensor: Nr:Datum:Temp:Abs-Feuchte:Windchill:Wind:
Aussen-T/F 3201 13-12-2010 16:29:02 -5 C 2.59 g/m*3 -5 C 0 km/h
3202 13-12-2010 16:41:02 -5.3 C 2.53 g/m*3 -5.3 C 0 km/h
3203 13-12-2010 16:53:02 -5.1 C 2.6 g/m*3 -5.1 C 0 km/h
3204 13-12-2010 17:05:02 -5.6 C 2.54 g/m*3 -5.6 C 0 km/h
3205 13-12-2010 17:17:01 -5.5 C 2.56 g/m*3 -5.5 C 0 km/h
3206 13-12-2010 17:29:01 -6 C 2.47 g/m*3 -6 C 0 km/h
3207 13-12-2010 17:41:02 -6.1 C 2.48 g/m*3 -6.1 C 0 km/h
3208 13-12-2010 17:53:02 -6.2 C 2.43 g/m*3 -6.2 C 0 km/h
3209 13-12-2010 18:05:02 -6 C 2.5 g/m*3 -6 C 0 km/h
3210 13-12-2010 18:17:02 -6.2 C 2.47 g/m*3 -6.2 C 0 km/h
3211 13-12-2010 18:29:02 -6.5 C 2.41 g/m*3 -6.5 C 0 km/h
3212 13-12-2010 18:41:02 -6.1 C 2.52 g/m*3 -6.1 C 0 km/h
3213 13-12-2010 18:53:02 -6.2 C 2.53 g/m*3 -6.2 C 0 km/h
3214 13-12-2010 19:05:02 -6.2 C 2.53 g/m*3 -6.2 C 0 km/h
3215 13-12-2010 19:17:02 -5.6 C 2.67 g/m*3 -5.6 C 0 km/h
3216 13-12-2010 19:29:02 -5.3 C 2.77 g/m*3 -5.3 C 0 km/h
3217 13-12-2010 19:41:02 -5.1 C 2.81 g/m*3 -5.1 C 0 km/h
3218 13-12-2010 19:53:02 -5 C 2.83 g/m*3 -5 C 0 km/h
3219 13-12-2010 20:05:02 -4.9 C 2.85 g/m*3 -4.9 C 0 km/h
3220 13-12-2010 20:17:02 -5.3 C 2.7 g/m*3 -5.3 C 0 km/h
3221 13-12-2010 20:29:02 -5.1 C 2.74 g/m*3 -5.1 C 0 km/h
3222 13-12-2010 20:41:02 -4.6 C 2.84 g/m*3 -4.6 C 0 km/h
3223 13-12-2010 20:53:02 -4.4 C 2.88 g/m*3 -4.4 C 0 km/h
3224 13-12-2010 21:05:02 -4.4 C 2.84 g/m*3 -4.4 C 0 km/h
3225 13-12-2010 21:17:02 -4.3 C 2.83 g/m*3 -4.3 C 0 km/h
Sensor: Nr:Datum:Temp:Abs-Feuchte:Windchill:Wind:
Aussen-T/F 3226 13-12-2010 21:29:03 -4.2 C 2.81 g/m*3 -4.2 C 0 km/h
3227 13-12-2010 21:41:02 -4.1 C 2.8 g/m*3 -4.1 C 0 km/h
3228 13-12-2010 21:53:02 -4.1 C 2.8 g/m*3 -4.1 C 0 km/h
3229 13-12-2010 22:05:01 -3.9 C 2.84 g/m*3 -3.9 C 0 km/h
3230 13-12-2010 22:17:02 -3.9 C 2.84 g/m*3 -3.9 C 0 km/h
3231 13-12-2010 22:29:02 -3.7 C 2.84 g/m*3 -3.7 C 0 km/h
3232 13-12-2010 22:41:02 -4 C 2.85 g/m*3 -4 C 0 km/h
3233 13-12-2010 22:53:02 -4.1 C 2.91 g/m*3 -4.1 C 0 km/h
3234 13-12-2010 23:05:02 -4.1 C 2.94 g/m*3 -4.1 C 0 km/h
3235 13-12-2010 23:17:02 -4.1 C 2.98 g/m*3 -4.1 C 0 km/h
3236 13-12-2010 23:29:02 -4.1 C 3.01 g/m*3 -4.1 C 0 km/h
3237 13-12-2010 23:41:02 -4.1 C 3.01 g/m*3 -4.1 C 0 km/h
3238 13-12-2010 23:53:02 -4.1 C 3.05 g/m*3 -4.1 C 0 km/h
3239 14-12-2010 00:05:02 -4.1 C 3.05 g/m*3 -4.1 C 0 km/h
3240 14-12-2010 00:17:02 -4.1 C 3.01 g/m*3 -4.1 C 0 km/h
3241 14-12-2010 00:29:02 -4.1 C 3.01 g/m*3 -4.1 C 0 km/h
3242 14-12-2010 00:41:02 -4.1 C 3.01 g/m*3 -4.1 C 0 km/h
3243 14-12-2010 00:53:03 -4.1 C 3.01 g/m*3 -4.1 C 0 km/h
3244 14-12-2010 01:05:03 -4.1 C 3.01 g/m*3